Provisional Data: North Branch Muddy Creek near Muddy Creek Forks, PA


Please select a monitoring station.
Please select start date.
Please select start date.

Toggle Unit: C/F Toggle Unit: C/F
Sample Time Temperature (C) Temperature (F) Specific Conductivity (mS/cm) pH   Turbidity (NTU+) DO (mg/L)
3/23/2021 12:00:00 AM 8.77 47.786 0.161 7.33 25.15 10.94
3/23/2021 12:15:00 AM 8.7 47.66 0.161 7.32 30.1 10.96
3/23/2021 12:30:00 AM 8.63 47.534 0.161 7.32 31.71 10.98
3/23/2021 12:45:00 AM 8.57 47.426 0.161 7.31 48.78 10.98
3/23/2021 1:00:00 AM 8.51 47.318 0.161 7.31 38.17 10.99
3/23/2021 1:15:00 AM 8.45 47.21 0.161 7.3 35.19 11.01
3/23/2021 1:30:00 AM 8.4 47.12 0.161 7.31 33.8 11.02
3/23/2021 1:45:00 AM 8.34 47.012 0.161 7.31 107.9 11.03
3/23/2021 2:00:00 AM 8.28 46.904 0.162 7.3 48.12 11.05
3/23/2021 2:15:00 AM 8.23 46.814 0.162 7.3 28 11.07
3/23/2021 2:30:00 AM 8.17 46.706 0.162 7.29 73.93 11.1
3/23/2021 2:45:00 AM 8.11 46.598 0.162 7.3 29.18 11.12
3/23/2021 3:00:00 AM 8.05 46.49 0.162 7.29 89.05 11.11
3/23/2021 3:15:00 AM 7.99 46.382 0.162 7.29 39.81 11.13
3/23/2021 3:30:00 AM 7.92 46.256 0.162 7.28 33.69 11.17
3/23/2021 3:45:00 AM 7.85 46.13 0.162 7.28 26.25 11.18
3/23/2021 4:00:00 AM 7.79 46.022 0.162 7.29 34.04 11.21
3/23/2021 4:15:00 AM 7.71 45.878 0.162 7.28 29.56 11.24
3/23/2021 4:30:00 AM 7.64 45.752 0.162 7.28 28.63 11.26
3/23/2021 4:45:00 AM 7.57 45.626 0.162 7.27 34.46 11.28
3/23/2021 5:00:00 AM 7.5 45.5 0.162 7.28 36.98 11.32
3/23/2021 5:15:00 AM 7.41 45.338 0.162 7.28 34.52 11.35
3/23/2021 5:30:00 AM 7.34 45.212 0.162 7.27 38.17 11.37
3/23/2021 5:45:00 AM 7.27 45.086 0.162 7.28 36.93 11.4
3/23/2021 6:00:00 AM 7.19 44.942 0.162 7.28 27.61 11.42
3/23/2021 6:15:00 AM 7.11 44.798 0.162 7.27 661.5 11.46
3/23/2021 6:30:00 AM 7.03 44.654 0.162 7.27 28.05 11.47
3/23/2021 6:45:00 AM 6.96 44.528 0.162 7.3 37.3 11.49
3/23/2021 7:00:00 AM 6.88 44.384 0.162 7.32 44.87 11.54
3/23/2021 7:15:00 AM 6.81 44.258 0.163 7.31 30.88 11.57
3/23/2021 7:30:00 AM 6.74 44.132 0.163 7.32 25.18 11.6
3/23/2021 7:45:00 AM 6.68 44.024 0.163 7.33 30.87 11.65
3/23/2021 8:00:00 AM 6.62 43.916 0.163 7.33 43.22 11.7
3/23/2021 8:15:00 AM 6.56 43.808 0.163 7.32 46.4 11.75
3/23/2021 8:30:00 AM 6.52 43.736 0.163 7.32 765.5 11.84
3/23/2021 8:45:00 AM 6.49 43.682 0.163 7.31 47.57 11.89
3/23/2021 9:00:00 AM 6.46 43.628 0.163 7.32 31.61 11.97
3/23/2021 9:15:00 AM 6.46 43.628 0.163 7.31 34.83 12.03
3/23/2021 9:30:00 AM 6.47 43.646 0.163 7.31 40.51 12.08
3/23/2021 9:45:00 AM 6.51 43.718 0.163 7.31 39.49 12.14
3/23/2021 10:00:00 AM 6.57 43.826 0.162 7.32 38.57 12.18
3/23/2021 10:15:00 AM 6.66 43.988 0.162 7.32 30.55 12.23
3/23/2021 10:30:00 AM 6.81 44.258 0.162 7.32 28.33 12.27
3/23/2021 10:45:00 AM 6.98 44.564 0.162 7.32 34.96 12.3
3/23/2021 11:00:00 AM 7.18 44.924 0.162 7.33 36.56 12.31
3/23/2021 11:15:00 AM 7.39 45.302 0.162 7.33 46.43 12.32
3/23/2021 11:30:00 AM 7.65 45.77 0.162 7.34 37.36 12.31
3/23/2021 11:45:00 AM 7.93 46.274 0.162 7.34 45.63 12.32
3/23/2021 12:00:00 PM 8.24 46.832 0.162 7.34 32.61 12.29
3/23/2021 12:15:00 PM 8.58 47.444 0.161 7.34 26.36 12.25
3/23/2021 12:30:00 PM 8.91 48.038 0.161 7.34 24.9 12.2
3/23/2021 12:45:00 PM 9.24 48.632 0.161 7.35 23.34 12.16
3/23/2021 1:00:00 PM 9.54 49.172 0.161 7.35 21.61 12.12
3/23/2021 1:15:00 PM 9.84 49.712 0.161 7.36 23.49 12.07
3/23/2021 1:30:00 PM 10.18 50.324 0.161 7.37 66.76 12.02
3/23/2021 1:45:00 PM 10.54 50.972 0.161 7.38 45.72 11.96
3/23/2021 2:00:00 PM 10.89 51.602 0.161 7.39 26.39 11.91
3/23/2021 2:15:00 PM 11.16 52.088 0.161 7.39 21.38 11.85
3/23/2021 2:30:00 PM 11.38 52.484 0.161 7.4 27.95 11.79
3/23/2021 2:45:00 PM 11.48 52.664 0.161 7.42 828.8 11.74
3/23/2021 3:00:00 PM 11.52 52.736 0.161 7.43 25.13 11.67
3/23/2021 3:15:00 PM 11.58 52.844 0.161 7.44 36.57 11.61
3/23/2021 3:30:00 PM 11.62 52.916 0.161 7.45 24.12 11.56
3/23/2021 3:45:00 PM 11.65 52.97 0.16 7.46 20.51 11.51
3/23/2021 4:00:00 PM 11.69 53.042 0.16 7.47 18.42 11.47
3/23/2021 4:15:00 PM 11.76 53.168 0.16 7.48 18.8 11.46
3/23/2021 4:30:00 PM 11.75 53.15 0.16 7.49 25.12 11.39
3/23/2021 4:45:00 PM 11.77 53.186 0.16 7.5 22.92 11.35
3/23/2021 5:00:00 PM 11.72 53.096 0.16 7.51 18.83 11.29
3/23/2021 5:15:00 PM 11.66 52.988 0.16 7.5 24.07 11.26
3/23/2021 5:30:00 PM 11.58 52.844 0.16 7.51 20.61 11.17
3/23/2021 5:45:00 PM 11.54 52.772 0.16 7.51 44.43 11.13
3/23/2021 6:00:00 PM 11.5 52.7 0.16 7.51 20.63 11.1
3/23/2021 6:15:00 PM 11.46 52.628 0.16 7.51 23.68 11.05
3/23/2021 6:30:00 PM 11.41 52.538 0.16 7.51 23.97 11.01
3/23/2021 6:45:00 PM 11.36 52.448 0.16 7.51 27.93 10.94
3/23/2021 7:00:00 PM 11.3 52.34 0.16 7.51 21.53 10.88
3/23/2021 7:15:00 PM 11.22 52.196 0.16 7.51 19.2 10.86
3/23/2021 7:30:00 PM 11.14 52.052 0.161 7.51 21.82 10.78
3/23/2021 7:45:00 PM 11.06 51.908 0.161 7.51 21.81 10.74
3/23/2021 8:00:00 PM 11 51.8 0.161 7.5 20.28 10.68
3/23/2021 8:15:00 PM 10.94 51.692 0.161 7.49 21.76 10.63
3/23/2021 8:30:00 PM 10.89 51.602 0.161 7.48 23.04 10.6
3/23/2021 8:45:00 PM 10.85 51.53 0.161 7.48 23.34 10.58
3/23/2021 9:00:00 PM 10.8 51.44 0.161 7.47 21.46 10.55
3/23/2021 9:15:00 PM 10.75 51.35 0.161 7.46 16.91 10.52
3/23/2021 9:30:00 PM 10.7 51.26 0.161 7.45 19.98 10.52
3/23/2021 9:45:00 PM 10.65 51.17 0.161 7.45 20.36 10.52
3/23/2021 10:00:00 PM 10.6 51.08 0.16 7.44 19.13 10.51
3/23/2021 10:15:00 PM 10.55 50.99 0.16 7.44 18.79 10.49
3/23/2021 10:30:00 PM 10.51 50.918 0.16 7.43 18.08 10.49
3/23/2021 10:45:00 PM 10.46 50.828 0.16 7.43 21.1 10.49
3/23/2021 11:00:00 PM 10.42 50.756 0.16 7.42 29.41 10.5
3/23/2021 11:15:00 PM 10.38 50.684 0.16 7.41 24.72 10.49
3/23/2021 11:30:00 PM 10.34 50.612 0.16 7.41 19.16 10.49
3/23/2021 11:45:00 PM 10.31 50.558 0.16 7.4 27.71 10.48
3/24/2021 12:00:00 AM 10.29 50.522 0.16 7.39 15.23 10.47
3/24/2021 12:15:00 AM 10.28 50.504 0.16 7.39 22.86 10.49
3/24/2021 12:30:00 AM 10.27 50.486 0.161 7.36 23.96 10.48
3/24/2021 12:45:00 AM 10.26 50.468 0.161 7.37 28.52 10.48
3/24/2021 1:00:00 AM 10.25 50.45 0.161 7.37 25.63 10.49
3/24/2021 1:15:00 AM 10.25 50.45 0.161 7.36 23.48 10.47
3/24/2021 1:30:00 AM 10.25 50.45 0.161 7.36 29.98 10.49
3/24/2021 1:45:00 AM 10.25 50.45 0.161 7.36 26.21 10.49
3/24/2021 2:00:00 AM 10.25 50.45 0.161 7.35 23.89 10.49
3/24/2021 2:15:00 AM 10.25 50.45 0.162 7.35 28.47 10.51
3/24/2021 2:30:00 AM 10.25 50.45 0.161 7.35 26.25 10.5
3/24/2021 2:45:00 AM 10.26 50.468 0.161 7.34 25.23 10.5
3/24/2021 3:00:00 AM 10.26 50.468 0.162 7.34 22.73 10.51
3/24/2021 3:15:00 AM 10.26 50.468 0.162 7.34 22.12 10.51
3/24/2021 3:30:00 AM 10.26 50.468 0.161 7.33 26.54 10.51
3/24/2021 3:45:00 AM 10.26 50.468 0.161 7.33 30.48 10.51
3/24/2021 4:00:00 AM 10.26 50.468 0.162 7.33 31.27 10.52
3/24/2021 4:15:00 AM 10.25 50.45 0.162 7.32 35.57 10.51
3/24/2021 4:30:00 AM 10.25 50.45 0.162 7.32 31.89 10.51
3/24/2021 4:45:00 AM 10.24 50.432 0.162 7.29 25.26 10.43
3/24/2021 5:00:00 AM 10.23 50.414 0.162 7.3 15.8 10.53
3/24/2021 5:15:00 AM 10.22 50.396 0.162 7.29 18.73 10.53
3/24/2021 5:30:00 AM 10.2 50.36 0.161 7.3 12.73 10.53
3/24/2021 5:45:00 AM 10.19 50.342 0.161 7.29 14.62 10.54
3/24/2021 6:00:00 AM 10.17 50.306 0.161 7.29 11.06 10.54
3/24/2021 6:15:00 AM 10.16 50.288 0.161 7.3 14.31 10.56
3/24/2021 6:30:00 AM 10.15 50.27 0.161 7.29 21.47 10.54
3/24/2021 6:45:00 AM 10.13 50.234 0.161 7.3 18.78 10.56
3/24/2021 7:00:00 AM 10.12 50.216 0.161 7.3 15.62 10.57
3/24/2021 7:15:00 AM 10.1 50.18 0.161 7.29 11.52 10.57
3/24/2021 7:30:00 AM 10.09 50.162 0.161 7.3 10.97 10.58
3/24/2021 7:45:00 AM 10.08 50.144 0.161 7.28 11.72 10.59
3/24/2021 8:00:00 AM 10.07 50.126 0.161 7.29 14.6 10.59
3/24/2021 8:15:00 AM 10.06 50.108 0.161 7.29 16.2 10.61
3/24/2021 8:30:00 AM 10.05 50.09 0.161 7.28 21.1 10.63
3/24/2021 8:45:00 AM 10.04 50.072 0.161 7.29 13.17 10.64
3/24/2021 9:00:00 AM 10.03 50.054 0.161 7.29 15.49 10.65
3/24/2021 9:15:00 AM 10.03 50.054 0.16 7.27 19.3 10.69
3/24/2021 9:30:00 AM 10.03 50.054 0.16 7.28 18.75 10.71
3/24/2021 9:45:00 AM 10.03 50.054 0.16 7.28 17.45 10.73
3/24/2021 10:00:00 AM 10.04 50.072 0.159 7.28 25.42 10.77
3/24/2021 10:15:00 AM 10.04 50.072 0.159 7.29 16.23 10.8
3/24/2021 10:30:00 AM 10.06 50.108 0.159 7.28 432.9 10.83
3/24/2021 10:45:00 AM 10.08 50.144 0.159 7.3 15.41 10.86
3/24/2021 11:00:00 AM 10.08 50.144 0.159 7.3 25.96 10.88
3/24/2021 11:15:00 AM 10.09 50.162 0.159 7.29 35.75 10.88
3/24/2021 11:30:00 AM 10.1 50.18 0.159 7.28 24.98 10.87
3/24/2021 11:45:00 AM 10.11 50.198 0.158 7.28 15.79 10.89
3/24/2021 12:00:00 PM 10.13 50.234 0.158 7.28 17.99 10.91
3/24/2021 12:15:00 PM 10.15 50.27 0.158 7.29 21.26 10.94
3/24/2021 12:30:00 PM 10.2 50.36 0.157 7.28 17.16 10.96
3/24/2021 12:45:00 PM 10.23 50.414 0.156 7.28 22.32 10.99
3/24/2021 1:00:00 PM 10.25 50.45 0.155 7.31 17.3 11
3/24/2021 1:15:00 PM 10.26 50.468 0.155 7.31 23.94 11.01
3/24/2021 1:30:00 PM 10.28 50.504 0.155 7.3 15.13 10.98
3/24/2021 1:45:00 PM 10.31 50.558 0.154 7.32 17.77 10.96
3/24/2021 2:00:00 PM 10.33 50.594 0.153 7.32 14.79 10.95
3/24/2021 2:15:00 PM 10.35 50.63 0.152 7.32 28.24 10.95
3/24/2021 2:30:00 PM 10.37 50.666 0.152 7.32 17.26 10.94
3/24/2021 2:45:00 PM 10.38 50.684 0.151 7.31 21.45 10.94
3/24/2021 3:00:00 PM 10.4 50.72 0.151 7.32 19.19 10.91
3/24/2021 3:15:00 PM 10.42 50.756 0.15 7.31 30.17 10.91
3/24/2021 3:30:00 PM 10.45 50.81 0.149 7.31 19.02 10.91
3/24/2021 3:45:00 PM 10.47 50.846 0.149 7.31 19.42 10.88
3/24/2021 4:00:00 PM 10.48 50.864 0.148 7.3 16.56 10.89
3/24/2021 4:15:00 PM 10.49 50.882 0.148 7.31 44.02 10.89
3/24/2021 4:30:00 PM 10.51 50.918 0.147 7.32 18.8 10.86
3/24/2021 4:45:00 PM 10.53 50.954 0.147 7.31 30.66 10.85
3/24/2021 5:00:00 PM 10.54 50.972 0.147 7.3 29.04 10.81
3/24/2021 5:15:00 PM 10.55 50.99 0.147 7.3 48.24 10.8
3/24/2021 5:30:00 PM 10.56 51.008 0.147 7.3 50.38 10.77
3/24/2021 5:45:00 PM 10.57 51.026 0.147 7.29 25.86 10.75
3/24/2021 6:00:00 PM 10.58 51.044 0.148 7.29 40.64 10.74
3/24/2021 6:15:00 PM 10.6 51.08 0.148 7.28 40.97 10.71
3/24/2021 6:30:00 PM 10.61 51.098 0.149 7.28 55.63 10.68
3/24/2021 6:45:00 PM 10.63 51.134 0.149 7.28 50.19 10.66
3/24/2021 7:00:00 PM 10.64 51.152 0.149 7.28 75.6 10.59
3/24/2021 7:15:00 PM 10.65 51.17 0.15 7.27 64.62 10.59
3/24/2021 7:30:00 PM 10.66 51.188 0.15 7.29 63.98 10.57
3/24/2021 7:45:00 PM 10.67 51.206 0.151 7.29 73.96 10.54
3/24/2021 8:00:00 PM 10.68 51.224 0.151 7.27 111.5 10.51
3/24/2021 8:15:00 PM 10.69 51.242 0.152 7.27 93.67 10.49
3/24/2021 8:30:00 PM 10.69 51.242 0.152 7.27 120.4 10.48
3/24/2021 8:45:00 PM 10.69 51.242 0.152 7.27 103.7 10.47
3/24/2021 9:00:00 PM 10.69 51.242 0.152 7.26 105.5 10.47
3/24/2021 9:15:00 PM 10.69 51.242 0.151 7.26 103.9 10.47
3/24/2021 9:30:00 PM 10.69 51.242 0.15 7.26 83.56 10.43
3/24/2021 9:45:00 PM 10.69 51.242 0.15 7.27 99.13 10.46
3/24/2021 10:00:00 PM 10.69 51.242 0.149 7.27 87.41 10.44
3/24/2021 10:15:00 PM 10.68 51.224 0.148 7.26 66.41 10.44
3/24/2021 10:30:00 PM 10.68 51.224 0.148 7.25 76.4 10.44
3/24/2021 10:45:00 PM 10.67 51.206 0.147 7.27 61.36 10.43
3/24/2021 11:00:00 PM 10.67 51.206 0.147 7.25 95.71 10.43
3/24/2021 11:15:00 PM 10.66 51.188 0.146 7.26 60.4 10.44
3/24/2021 11:30:00 PM 10.65 51.17 0.146 7.26 64.25 10.42
3/24/2021 11:45:00 PM 10.65 51.17 0.146 7.26 68.72 10.44
3/25/2021 12:00:00 AM 10.64 51.152 0.146 7.26 68.82 10.44
3/25/2021 12:15:00 AM 10.63 51.134 0.146 7.25 60.28 10.45
3/25/2021 12:30:00 AM 10.62 51.116 0.147 7.25 54.12 10.44
3/25/2021 12:45:00 AM 10.61 51.098 0.147 7.25 58.84 10.44
3/25/2021 1:00:00 AM 10.6 51.08 0.148 7.24 65.23 10.43
3/25/2021 1:15:00 AM 10.59 51.062 0.147 7.24 52.73 10.45
3/25/2021 1:30:00 AM 10.58 51.044 0.147 7.24 48.48 10.45
3/25/2021 1:45:00 AM 10.56 51.008 0.147 7.25 46.13 10.45
3/25/2021 2:00:00 AM 10.55 50.99 0.147 7.24 44.8 10.44
3/25/2021 2:15:00 AM 10.53 50.954 0.147 7.26 54.02 10.46
3/25/2021 2:30:00 AM 10.52 50.936 0.147 7.24 40.54 10.46
3/25/2021 2:45:00 AM 10.51 50.918 0.147 7.25 45.18 10.47
3/25/2021 3:00:00 AM 10.49 50.882 0.147 7.25 40.49 10.46
3/25/2021 3:15:00 AM 10.48 50.864 0.147 7.25 35.13 10.46
3/25/2021 3:30:00 AM 10.47 50.846 0.147 7.24 36.18 10.47
3/25/2021 3:45:00 AM 10.46 50.828 0.148 7.25 36.36 10.48
3/25/2021 4:00:00 AM 10.44 50.792 0.146 7.25 33.58 10.48
3/25/2021 4:15:00 AM 10.43 50.774 0.146 7.24 40.09 10.48
3/25/2021 4:30:00 AM 10.42 50.756 0.146 7.25 37.45 10.49
3/25/2021 4:45:00 AM 10.41 50.738 0.146 7.25 30.69 10.48
3/25/2021 5:00:00 AM 10.4 50.72 0.146 7.24 28.35 10.5
3/25/2021 5:15:00 AM 10.38 50.684 0.146 7.24 30.43 10.5
3/25/2021 5:30:00 AM 10.37 50.666 0.147 7.23 24.1 10.49
3/25/2021 5:45:00 AM 10.36 50.648 0.147 7.23 35.23 10.5
3/25/2021 6:00:00 AM 10.35 50.63 0.147 7.23 25.25 10.51
3/25/2021 6:15:00 AM 10.34 50.612 0.147 7.23 24.35 10.53
3/25/2021 6:30:00 AM 10.32 50.576 0.147 7.21 31.06 10.52
3/25/2021 6:45:00 AM 10.31 50.558 0.148 7.21 23.96 10.54
3/25/2021 7:00:00 AM 10.3 50.54 0.148 7.22 22.61 10.53
3/25/2021 7:15:00 AM 10.29 50.522 0.148 7.22 18.61 10.55
3/25/2021 7:30:00 AM 10.28 50.504 0.148 7.21 20.33 10.55
3/25/2021 7:45:00 AM 10.28 50.504 0.148 7.22 19.68 10.57
3/25/2021 8:00:00 AM 10.28 50.504 0.149 7.22 22.06 10.61
3/25/2021 8:15:00 AM 10.29 50.522 0.149 7.22 20.81 10.63
3/25/2021 8:30:00 AM 10.32 50.576 0.149 7.2 20.41 10.68
3/25/2021 8:45:00 AM 10.34 50.612 0.149 7.21 16.28 10.74
3/25/2021 9:00:00 AM 10.37 50.666 0.149 7.22 17.43 10.77
3/25/2021 9:15:00 AM 10.42 50.756 0.149 7.22 17.7 10.82
3/25/2021 9:30:00 AM 10.45 50.81 0.15 7.23 17.31 10.84
3/25/2021 9:45:00 AM 10.48 50.864 0.15 7.23 17.6 10.85
3/25/2021 10:00:00 AM 10.51 50.918 0.15 7.24 16.22 10.87
3/25/2021 10:15:00 AM 10.57 51.026 0.15 7.24 17.37 10.91
3/25/2021 10:30:00 AM 10.63 51.134 0.151 7.24 16.35 10.94
3/25/2021 10:45:00 AM 10.7 51.26 0.151 7.24 17.26 10.98
3/25/2021 11:00:00 AM 10.78 51.404 0.151 7.26 16.16 11.01
3/25/2021 11:15:00 AM 10.87 51.566 0.151 7.27 13.49 11.04
3/25/2021 11:30:00 AM 10.97 51.746 0.151 7.28 15.64 11.04
3/25/2021 11:45:00 AM 11.04 51.872 0.151 7.28 12.46 11.05
3/25/2021 12:00:00 PM 11.12 52.016 0.151 7.29 12.51 11.07
3/25/2021 12:15:00 PM 11.21 52.178 0.151 7.29 12.58 11.08
3/25/2021 12:30:00 PM 11.29 52.322 0.151 7.3 12.2 11.07
3/25/2021 12:45:00 PM 11.38 52.484 0.151 7.3 11.61 11.08
3/25/2021 1:00:00 PM 11.49 52.682 0.151 7.31 12.2 11.07
3/25/2021 1:15:00 PM 11.59 52.862 0.152 7.31 11.5 11.08
3/25/2021 1:30:00 PM 11.71 53.078 0.152 7.32 11.62 11.06
3/25/2021 1:45:00 PM 11.84 53.312 0.152 7.33 11.9 11.08
3/25/2021 2:00:00 PM 12 53.6 0.152 7.34 27.22 11.06
3/25/2021 2:15:00 PM 12.14 53.852 0.152 7.35 11.17 11.04
3/25/2021 2:30:00 PM 12.27 54.086 0.152 7.35 11.87 11.02
3/25/2021 2:45:00 PM 12.4 54.32 0.152 7.36 12.24 10.99
3/25/2021 3:00:00 PM 12.54 54.572 0.152 7.37 11.41 10.96
3/25/2021 3:15:00 PM 12.66 54.788 0.152 7.37 10.99 10.94
3/25/2021 3:30:00 PM 12.79 55.022 0.152 7.37 9.6 10.9
3/25/2021 3:45:00 PM 12.89 55.202 0.152 7.37 9.95 10.89
3/25/2021 4:00:00 PM 12.92 55.256 0.152 7.37 11.17 10.85
3/25/2021 4:15:00 PM 12.94 55.292 0.152 7.37 9.79 10.82
3/25/2021 4:30:00 PM 12.97 55.346 0.152 7.38 25.24 10.78
3/25/2021 4:45:00 PM 13 55.4 0.153 7.4 10.44 10.72
3/25/2021 5:00:00 PM 13.05 55.49 0.152 7.4 10.36 10.67
3/25/2021 5:15:00 PM 13.08 55.544 0.153 7.4 10.48 10.65
3/25/2021 5:30:00 PM 13.08 55.544 0.153 7.41 9.44 10.6
3/25/2021 5:45:00 PM 13.06 55.508 0.153 7.4 10.06 10.54
3/25/2021 6:00:00 PM 13.04 55.472 0.153 7.41 9.42 10.48
3/25/2021 6:15:00 PM 13.03 55.454 0.153 7.4 8.98 10.42
3/25/2021 6:30:00 PM 13.02 55.436 0.153 7.4 9.6 10.35
3/25/2021 6:45:00 PM 13.01 55.418 0.153 7.4 13.29 10.3
3/25/2021 7:00:00 PM 12.99 55.382 0.153 7.39 10.12 10.23
3/25/2021 7:15:00 PM 12.97 55.346 0.153 7.38 10.62 10.18
3/25/2021 7:30:00 PM 12.94 55.292 0.153 7.4 8.96 10.14
3/25/2021 7:45:00 PM 12.91 55.238 0.153 7.39 9.47 10.08
3/25/2021 8:00:00 PM 12.89 55.202 0.153 7.38 10.89 10.06
3/25/2021 8:15:00 PM 12.88 55.184 0.153 7.37 9.61 10.01
3/25/2021 8:30:00 PM 12.86 55.148 0.153 7.37 9.8 10
3/25/2021 8:45:00 PM 12.85 55.13 0.153 7.36 9.72 9.97
3/25/2021 9:00:00 PM 12.83 55.094 0.153 7.35 10.85 9.95
3/25/2021 9:15:00 PM 12.81 55.058 0.153 7.35 10.85 9.91
3/25/2021 9:30:00 PM 12.8 55.04 0.153 7.34 10.35 9.91
3/25/2021 9:45:00 PM 12.78 55.004 0.153 7.35 12.13 9.89
3/25/2021 10:00:00 PM 12.77 54.986 0.153 7.33 14.67 9.89
3/25/2021 10:15:00 PM 12.76 54.968 0.153 7.32 10.96 9.88
3/25/2021 10:30:00 PM 12.75 54.95 0.153 7.32 10.39 9.86
3/25/2021 10:45:00 PM 12.74 54.932 0.153 7.32 12.08 9.84
3/25/2021 11:00:00 PM 12.74 54.932 0.153 7.32 13.62 9.84
3/25/2021 11:15:00 PM 12.73 54.914 0.153 7.3 10.21 9.82
3/25/2021 11:30:00 PM 12.73 54.914 0.153 7.29 10.59 9.83
3/25/2021 11:45:00 PM 12.72 54.896 0.153 7.3 11 9.83
3/26/2021 12:00:00 AM 12.72 54.896 0.153 7.3 11.19 9.82
3/26/2021 12:15:00 AM 12.71 54.878 0.153 7.28 15.29 9.82
3/26/2021 12:30:00 AM 12.7 54.86 0.153 7.28 12.44 9.81
3/26/2021 12:45:00 AM 12.68 54.824 0.153 7.27 11.49 9.81
3/26/2021 1:00:00 AM 12.67 54.806 0.153 7.27 10.75 9.81
3/26/2021 1:15:00 AM 12.65 54.77 0.153 7.26 10.33 9.82
3/26/2021 1:30:00 AM 12.63 54.734 0.153 7.26 10 9.82
3/26/2021 1:45:00 AM 12.61 54.698 0.153 7.25 11.78 9.82
3/26/2021 2:00:00 AM 12.6 54.68 0.153 7.26 9.86 9.83
3/26/2021 2:15:00 AM 12.58 54.644 0.154 7.25 10.4 9.83
3/26/2021 2:30:00 AM 12.55 54.59 0.153 7.25 10.91 9.84
3/26/2021 2:45:00 AM 12.53 54.554 0.153 7.24 9.51 9.84
3/26/2021 3:00:00 AM 12.51 54.518 0.153 7.25 9.92 9.83
3/26/2021 3:15:00 AM 12.5 54.5 0.153 7.25 10.43 9.86
3/26/2021 3:30:00 AM 12.48 54.464 0.153 7.25 13.14 9.85
3/26/2021 3:45:00 AM 12.45 54.41 0.154 7.24 12.93 9.85
3/26/2021 4:00:00 AM 12.44 54.392 0.154 7.24 11.33 9.87
3/26/2021 4:15:00 AM 12.42 54.356 0.154 7.24 12.84 9.87
3/26/2021 4:30:00 AM 12.39 54.302 0.154 7.24 10.24 9.87
3/26/2021 4:45:00 AM 12.36 54.248 0.154 7.24 12.24 9.87
3/26/2021 5:00:00 AM 12.34 54.212 0.154 7.24 13.76 9.87
3/26/2021 5:15:00 AM 12.31 54.158 0.154 7.23 11.33 9.89
3/26/2021 5:30:00 AM 12.27 54.086 0.154 7.23 12.88 9.89
3/26/2021 5:45:00 AM 12.22 53.996 0.154 7.23 12.5 9.9
3/26/2021 6:00:00 AM 12.18 53.924 0.154 7.24 15.73 9.9
3/26/2021 6:15:00 AM 12.13 53.834 0.154 7.23 9.61 9.9
3/26/2021 6:30:00 AM 12.11 53.798 0.154 7.23 11.08 9.92
3/26/2021 6:45:00 AM 12.09 53.762 0.154 7.23 10.69 9.93
3/26/2021 7:00:00 AM 12.07 53.726 0.154 7.23 10.01 9.93
3/26/2021 7:15:00 AM 12.04 53.672 0.154 7.22 13.07 9.93
3/26/2021 7:30:00 AM 12.02 53.636 0.154 7.23 9.93 9.95
3/26/2021 7:45:00 AM 12.02 53.636 0.154 7.23 11.1 9.98
3/26/2021 8:00:00 AM 12.02 53.636 0.154 7.23 10.52 10.02
3/26/2021 8:15:00 AM 12.03 53.654 0.154 7.23 10.1 10.02
3/26/2021 8:30:00 AM 12.06 53.708 0.154 7.23 9.29 10.03
3/26/2021 8:45:00 AM 12.09 53.762 0.154 7.23 10.15 10.1
3/26/2021 9:00:00 AM 12.14 53.852 0.154 7.23 10.2 10.16
3/26/2021 9:15:00 AM 12.21 53.978 0.154 7.23 9.5 10.21
3/26/2021 9:30:00 AM 12.25 54.05 0.154 7.24 10.12 10.25
3/26/2021 9:45:00 AM 12.33 54.194 0.154 7.25 9.77 10.29
3/26/2021 10:00:00 AM 12.41 54.338 0.154 7.26 12.51 10.33
3/26/2021 10:15:00 AM 12.52 54.536 0.154 7.26 13.03 10.36
3/26/2021 10:30:00 AM 12.67 54.806 0.154 7.25 9.68 10.39
3/26/2021 10:45:00 AM 12.84 55.112 0.153 7.26 10.16 10.4
3/26/2021 11:00:00 AM 13.05 55.49 0.153 7.27 9.22 10.43
3/26/2021 11:15:00 AM 13.25 55.85 0.153 7.29 10.8 10.43
3/26/2021 11:30:00 AM 13.54 56.372 0.153 7.27 13.43 10.43
3/26/2021 11:45:00 AM 13.79 56.822 0.153 7.28 11.43 10.44
3/26/2021 12:00:00 PM 14.04 57.272 0.153 7.3 12.02 10.42
3/26/2021 12:15:00 PM 14.33 57.794 0.153 7.29 10.59 10.39
3/26/2021 12:30:00 PM 14.6 58.28 0.153 7.29 10.66 10.39
3/26/2021 12:45:00 PM 14.88 58.784 0.152 7.3 11.28 10.37
3/26/2021 1:00:00 PM 15.13 59.234 0.153 7.31 10.74 10.33
3/26/2021 1:15:00 PM 15.41 59.738 0.153 7.29 14.11 10.29
3/26/2021 1:30:00 PM 15.69 60.242 0.153 7.31 11.5 10.28
3/26/2021 1:45:00 PM 15.97 60.746 0.153 7.32 10.2 10.23
3/26/2021 2:00:00 PM 16.23 61.214 0.153 7.3 11.69 10.18
3/26/2021 2:15:00 PM 16.44 61.592 0.153 7.32 10.53 10.18
3/26/2021 2:30:00 PM 16.63 61.934 0.153 7.34 8.78 10.15
3/26/2021 2:45:00 PM 16.78 62.204 0.153 7.33 8.42 10.11
3/26/2021 3:00:00 PM 16.9 62.42 0.153 7.35 9.36 10.06
3/26/2021 3:15:00 PM 16.96 62.528 0.153 7.38 13.76 10.04
3/26/2021 3:30:00 PM 17.04 62.672 0.153 7.35 10.2 10
3/26/2021 3:45:00 PM 17.08 62.744 0.153 7.37 10.45 9.96
3/26/2021 4:00:00 PM 17.09 62.762 0.153 7.37 9.02 9.9
3/26/2021 4:15:00 PM 17.05 62.69 0.153 7.38 9.79 9.86
3/26/2021 4:30:00 PM 17.01 62.618 0.153 7.39 12.03 9.83
3/26/2021 4:45:00 PM 16.96 62.528 0.153 7.39 9.33 9.8
3/26/2021 5:00:00 PM 16.85 62.33 0.153 7.39 8.76 9.73
3/26/2021 5:15:00 PM 16.76 62.168 0.153 7.42 10.45 9.69
3/26/2021 5:30:00 PM 16.69 62.042 0.153 7.42 10.34 9.65
3/26/2021 5:45:00 PM 16.56 61.808 0.153 7.38 10.35 9.62
3/26/2021 6:00:00 PM 16.45 61.61 0.153 7.42 10.8 9.55
3/26/2021 6:15:00 PM 16.34 61.412 0.153 7.4 35.14 9.47
3/26/2021 6:30:00 PM 16.23 61.214 0.153 7.44 11.02 9.46
3/26/2021 6:45:00 PM 16.1 60.98 0.153 7.44 12.17 9.37
3/26/2021 7:00:00 PM 15.99 60.782 0.154 7.4 53.98 9.3
3/26/2021 7:15:00 PM 15.86 60.548 0.154 7.41 15.39 9.35
3/26/2021 7:30:00 PM 15.74 60.332 0.154 7.38 76.62 9.34
3/26/2021 7:45:00 PM 15.65 60.17 0.154 7.37 190 9.27
3/26/2021 8:00:00 PM 15.55 59.99 0.153 7.37 99.67 9.24
3/26/2021 8:15:00 PM 15.45 59.81 0.153 7.35 16.09 9.24
3/26/2021 8:30:00 PM 15.36 59.648 0.153 7.37 8.31 9.21
3/26/2021 8:45:00 PM 15.29 59.522 0.153 7.35 12.06 9.18
3/26/2021 9:00:00 PM 15.22 59.396 0.153 7.36 9.23 9.17
3/26/2021 9:15:00 PM 15.12 59.216 0.153 7.33 14.72 9.19
3/26/2021 9:30:00 PM 15.03 59.054 0.153 7.32 16.76 9.19
3/26/2021 9:45:00 PM 14.94 58.892 0.153 7.33 11.98 9.2
3/26/2021 10:00:00 PM 14.84 58.712 0.153 7.32 8.84 9.19
3/26/2021 10:15:00 PM 14.76 58.568 0.153 7.32 8.61 9.19
3/26/2021 10:30:00 PM 14.66 58.388 0.153 7.31 8.36 9.19
3/26/2021 10:45:00 PM 14.56 58.208 0.153 7.3 8.64 9.21
3/26/2021 11:00:00 PM 14.46 58.028 0.153 7.28 10.16 9.23
3/26/2021 11:15:00 PM 14.37 57.866 0.153 7.28 7.92 9.27
3/26/2021 11:30:00 PM 14.29 57.722 0.154 7.29 9.04 9.28
3/26/2021 11:45:00 PM 14.19 57.542 0.154 7.27 12.03 9.28
3/27/2021 12:00:00 AM 14.09 57.362 0.154 7.26 21.8 9.32
3/27/2021 12:15:00 AM 14 57.2 0.153 7.26 10.86 9.35
3/27/2021 12:30:00 AM 13.9 57.02 0.153 7.24 12.36 9.38
3/27/2021 12:45:00 AM 13.81 56.858 0.153 7.22 207.1 9.44
3/27/2021 1:00:00 AM 13.71 56.678 0.153 7.23 10.63 9.45
3/27/2021 1:15:00 AM 13.62 56.516 0.153 7.22 16.69 9.48
3/27/2021 1:30:00 AM 13.53 56.354 0.153 7.24 12.41 9.5
3/27/2021 1:45:00 AM 13.44 56.192 0.153 7.22 13.83 9.53
3/27/2021 2:00:00 AM 13.34 56.012 0.153 7.23 14 9.55
3/27/2021 2:15:00 AM 13.25 55.85 0.153 7.22 12.95 9.58
3/27/2021 2:30:00 AM 13.15 55.67 0.153 7.22 16.57 9.62
3/27/2021 2:45:00 AM 13.06 55.508 0.153 7.22 12.78 9.63
3/27/2021 3:00:00 AM 12.96 55.328 0.153 7.22 15.36 9.66
3/27/2021 3:15:00 AM 12.85 55.13 0.153 7.23 22.04 9.69
3/27/2021 3:30:00 AM 12.75 54.95 0.153 7.22 28.08 9.71
3/27/2021 3:45:00 AM 12.65 54.77 0.153 7.22 18.89 9.75
3/27/2021 4:00:00 AM 12.54 54.572 0.153 7.22 12.31 9.78
3/27/2021 4:15:00 AM 12.43 54.374 0.153 7.23 14.21 9.81
3/27/2021 4:30:00 AM 12.32 54.176 0.153 7.22 13.26 9.84
3/27/2021 4:45:00 AM 12.21 53.978 0.153 7.22 10.79 9.88
3/27/2021 5:00:00 AM 12.1 53.78 0.153 7.21 10.75 9.9
3/27/2021 5:15:00 AM 11.99 53.582 0.153 7.21 14.43 9.92
3/27/2021 5:30:00 AM 11.88 53.384 0.154 7.21 13.74 9.96
3/27/2021 5:45:00 AM 11.78 53.204 0.154 7.21 16.19 10
3/27/2021 6:00:00 AM 11.68 53.024 0.154 7.2 16.03 10.03
3/27/2021 6:15:00 AM 11.58 52.844 0.154 7.21 15.01 10.06
3/27/2021 6:30:00 AM 11.48 52.664 0.153 7.21 17.62 10.09
3/27/2021 6:45:00 AM 11.37 52.466 0.153 7.22 13.74 10.12
3/27/2021 7:00:00 AM 11.27 52.286 0.153 7.22 14.77 10.16
3/27/2021 7:15:00 AM 11.17 52.106 0.153 7.21 15.14 10.19
3/27/2021 7:30:00 AM 11.08 51.944 0.153 7.22 13.79 10.23
3/27/2021 7:45:00 AM 11 51.8 0.153 7.21 13.1 10.29
3/27/2021 8:00:00 AM 10.93 51.674 0.153 7.22 15.02 10.36
3/27/2021 8:15:00 AM 10.87 51.566 0.153 7.21 15.09 10.43
3/27/2021 8:30:00 AM 10.83 51.494 0.153 7.21 14.66 10.51
3/27/2021 8:45:00 AM 10.79 51.422 0.153 7.22 13.12 10.58
3/27/2021 9:00:00 AM 10.75 51.35 0.153 7.23 11.69 10.64
3/27/2021 9:15:00 AM 10.73 51.314 0.153 7.23 16.92 10.67
3/27/2021 9:30:00 AM 10.74 51.332 0.153 7.23 13.83 10.74
3/27/2021 9:45:00 AM 10.76 51.368 0.153 7.24 12.13 10.78
3/27/2021 10:00:00 AM 10.81 51.458 0.153 7.24 12 10.83
3/27/2021 10:15:00 AM 10.89 51.602 0.153 7.25 14.61 10.87
3/27/2021 10:30:00 AM 11.01 51.818 0.153 7.25 14.72 10.93
3/27/2021 10:45:00 AM 11.16 52.088 0.153 7.25 14.37 10.96
3/27/2021 11:00:00 AM 11.35 52.43 0.153 7.26 13.27 11
3/27/2021 11:15:00 AM 11.56 52.808 0.153 7.26 12.21 11.03
3/27/2021 11:30:00 AM 11.79 53.222 0.153 7.27 14.25 11.05
3/27/2021 11:45:00 AM 12.06 53.708 0.152 7.26 13.1 11.05
3/27/2021 12:00:00 PM 12.33 54.194 0.152 7.26 11.46 11.03
3/27/2021 12:15:00 PM 12.62 54.716 0.152 7.27 14.34 11.03
3/27/2021 12:30:00 PM 12.95 55.31 0.152 7.27 567.3 11
3/27/2021 12:45:00 PM 13.27 55.886 0.152 7.27 12.9 10.97
3/27/2021 1:00:00 PM 13.58 56.444 0.152 7.29 10.88 10.94
3/27/2021 1:15:00 PM 13.86 56.948 0.152 7.28 13.58 10.91
3/27/2021 1:30:00 PM 14.12 57.416 0.152 7.29 17.19 10.88
3/27/2021 1:45:00 PM 14.35 57.83 0.152 7.29 16.5 10.84
3/27/2021 2:00:00 PM 14.55 58.19 0.152 7.31 14.41 10.81
3/27/2021 2:15:00 PM 14.69 58.442 0.152 7.31 12.62 10.79
3/27/2021 2:30:00 PM 14.79 58.622 0.152 7.31 10.53 10.74
3/27/2021 2:45:00 PM 14.9 58.82 0.152 7.31 16.76 10.71
3/27/2021 3:00:00 PM 14.96 58.928 0.152 7.33 11.37 10.68
3/27/2021 3:15:00 PM 14.99 58.982 0.152 7.33 9.65 10.64
3/27/2021 3:30:00 PM 14.98 58.964 0.152 7.34 11.19 10.61
3/27/2021 3:45:00 PM 14.95 58.91 0.152 7.35 12.81 10.58
3/27/2021 4:00:00 PM 14.9 58.82 0.152 7.37 10.77 10.53
3/27/2021 4:15:00 PM 14.84 58.712 0.152 7.37 12.82 10.48
3/27/2021 4:30:00 PM 14.79 58.622 0.152 7.39 11.03 10.44
3/27/2021 4:45:00 PM 14.74 58.532 0.152 7.37 11.03 10.42
3/27/2021 5:00:00 PM 14.69 58.442 0.152 7.38 10.09 10.39
3/27/2021 5:15:00 PM 14.63 58.334 0.152 7.38 10.33 10.34
3/27/2021 5:30:00 PM 14.57 58.226 0.152 7.38 9.35 10.3
3/27/2021 5:45:00 PM 14.51 58.118 0.152 7.38 12.15 10.26
3/27/2021 6:00:00 PM 14.45 58.01 0.152 7.38 9.27 10.22
3/27/2021 6:15:00 PM 14.39 57.902 0.152 7.39 10.74 10.16
3/27/2021 6:30:00 PM 14.33 57.794 0.152 7.39 10.2 10.12
3/27/2021 6:45:00 PM 14.28 57.704 0.152 7.39 10.96 10.06
3/27/2021 7:00:00 PM 14.21 57.578 0.152 7.38 10.91 10
3/27/2021 7:15:00 PM 14.14 57.452 0.152 7.38 10.59 9.95
3/27/2021 7:30:00 PM 14.08 57.344 0.152 7.37 14.32 9.9
3/27/2021 7:45:00 PM 14.02 57.236 0.152 7.37 8.53 9.84
3/27/2021 8:00:00 PM 13.97 57.146 0.152 7.37 9 9.81
3/27/2021 8:15:00 PM 13.92 57.056 0.152 7.36 8.6 9.78
3/27/2021 8:30:00 PM 13.86 56.948 0.152 7.35 10.67 9.74
3/27/2021 8:45:00 PM 13.81 56.858 0.152 7.34 9.69 9.73
3/27/2021 9:00:00 PM 13.76 56.768 0.152 7.33 12.72 9.71
3/27/2021 9:15:00 PM 13.72 56.696 0.152 7.33 11.74 9.7
3/27/2021 9:30:00 PM 13.67 56.606 0.152 7.33 11.97 9.67
3/27/2021 9:45:00 PM 13.62 56.516 0.152 7.33 9.81 9.67
3/27/2021 10:00:00 PM 13.57 56.426 0.152 7.31 10.83 9.66
3/27/2021 10:15:00 PM 13.53 56.354 0.152 7.3 14.91 9.65
3/27/2021 10:30:00 PM 13.49 56.282 0.152 7.29 13.39 9.65
3/27/2021 10:45:00 PM 13.45 56.21 0.152 7.3 13.67 9.64
3/27/2021 11:00:00 PM 13.41 56.138 0.152 7.29 10.79 9.63
3/27/2021 11:15:00 PM 13.37 56.066 0.152 7.29 15.5 9.64
3/27/2021 11:30:00 PM 13.33 55.994 0.152 7.28 15 9.64
3/27/2021 11:45:00 PM 13.28 55.904 0.152 7.28 10.72 9.65
3/28/2021 12:00:00 AM 13.23 55.814 0.152 7.27 22.91 9.65
3/28/2021 12:15:00 AM 13.18 55.724 0.152 7.25 202.2 9.65
3/28/2021 12:30:00 AM 13.12 55.616 0.152 7.25 14.47 9.66
3/28/2021 12:45:00 AM 13.07 55.526 0.153 7.27 15.11 9.67
3/28/2021 1:00:00 AM 13.01 55.418 0.153 7.25 12.21 9.68
3/28/2021 1:15:00 AM 12.95 55.31 0.153 7.24 12.66 9.68
3/28/2021 1:30:00 AM 12.89 55.202 0.153 7.25 12.04 9.69
3/28/2021 1:45:00 AM 12.82 55.076 0.153 7.23 11.31 9.72
3/28/2021 2:00:00 AM 12.77 54.986 0.153 7.24 12.81 9.74
3/28/2021 2:15:00 AM 12.72 54.896 0.153 7.24 67.37 9.75
3/28/2021 2:30:00 AM 12.66 54.788 0.153 7.23 13.03 9.77
3/28/2021 2:45:00 AM 12.6 54.68 0.153 7.22 39.72 9.79
3/28/2021 3:00:00 AM 12.55 54.59 0.153 7.22 65.94 9.8
3/28/2021 3:15:00 AM 12.5 54.5 0.153 7.22 18.76 9.82
3/28/2021 3:30:00 AM 12.45 54.41 0.153 7.22 108.6 9.82
3/28/2021 3:45:00 AM 12.41 54.338 0.153 7.22 124.9 9.83
3/28/2021 4:00:00 AM 12.37 54.266 0.153 7.22 15.94 9.85
3/28/2021 4:15:00 AM 12.34 54.212 0.153 7.22 13 9.86
3/28/2021 4:30:00 AM 12.3 54.14 0.153 7.22 122.5 9.86
3/28/2021 4:45:00 AM 12.27 54.086 0.153 7.2 15.24 9.89
3/28/2021 5:00:00 AM 12.24 54.032 0.154 7.23 12.46 9.88
3/28/2021 5:15:00 AM 12.2 53.96 0.153 7.21 17.58 9.9
3/28/2021 5:30:00 AM 12.16 53.888 0.153 7.22 14.7 9.92
3/28/2021 5:45:00 AM 12.13 53.834 0.153 7.22 14.79 9.93
3/28/2021 6:00:00 AM 12.09 53.762 0.153 7.21 350.4 9.94
3/28/2021 6:15:00 AM 12.06 53.708 0.153 7.21 12.21 9.95
3/28/2021 6:30:00 AM 12.02 53.636 0.153 7.21 10.21 9.94
3/28/2021 6:45:00 AM 11.99 53.582 0.153 7.2 110.1 9.97
3/28/2021 7:00:00 AM 11.96 53.528 0.153 7.2 12.19 9.97
3/28/2021 7:15:00 AM 11.93 53.474 0.153 7.2 285.6 9.99
3/28/2021 7:30:00 AM 11.89 53.402 0.153 7.21 11.07 9.99
3/28/2021 7:45:00 AM 11.86 53.348 0.153 7.21 11.85 10.01
3/28/2021 8:00:00 AM 11.83 53.294 0.153 7.22 12.83 10.03
3/28/2021 8:15:00 AM 11.8 53.24 0.152 7.21 201.7 10.04
3/28/2021 8:30:00 AM 11.77 53.186 0.152 7.22 12.59 10.06
3/28/2021 8:45:00 AM 11.74 53.132 0.152 7.22 10.5 10.09
3/28/2021 9:00:00 AM 11.72 53.096 0.152 7.22 13.63 10.12
3/28/2021 9:15:00 AM 11.7 53.06 0.152 7.21 13.92 10.15
3/28/2021 9:30:00 AM 11.69 53.042 0.152 7.2 11.79 10.16
3/28/2021 9:45:00 AM 11.67 53.006 0.151 7.2 12.54 10.21
3/28/2021 10:00:00 AM 11.65 52.97 0.151 7.21 11.5 10.25
3/28/2021 10:15:00 AM 11.64 52.952 0.151 7.2 69.21 10.24
3/28/2021 10:30:00 AM 11.63 52.934 0.151 7.21 35 10.27
3/28/2021 10:45:00 AM 11.62 52.916 0.151 7.22 11.99 10.3
3/28/2021 11:00:00 AM 11.61 52.898 0.151 7.21 20.62 10.33
3/28/2021 11:15:00 AM 11.61 52.898 0.151 7.23 112.3 10.33
3/28/2021 11:30:00 AM 11.6 52.88 0.151 7.22 16.72 10.35
3/28/2021 11:45:00 AM 11.61 52.898 0.151 7.23 13 10.38
3/28/2021 12:00:00 PM 11.62 52.916 0.151 7.24 12.14 10.41
3/28/2021 12:15:00 PM 11.62 52.916 0.15 7.23 56.95 10.42
3/28/2021 12:30:00 PM 11.63 52.934 0.15 7.24 11.7 10.43
3/28/2021 12:45:00 PM 11.65 52.97 0.15 7.25 12.31 10.43
3/28/2021 1:00:00 PM 11.67 53.006 0.15 7.25 10 10.47
3/28/2021 1:15:00 PM 11.71 53.078 0.15 7.28 10.28 10.46
3/28/2021 1:30:00 PM 11.74 53.132 0.15 7.25 12.4 10.53
3/28/2021 1:45:00 PM 11.77 53.186 0.15 7.25 17.71 10.53
3/28/2021 2:00:00 PM 11.82 53.276 0.15 7.26 15.09 10.54
3/28/2021 2:15:00 PM 11.86 53.348 0.15 7.27 17.82 10.56
3/28/2021 2:30:00 PM 11.91 53.438 0.15 7.27 14.68 10.58
3/28/2021 2:45:00 PM 11.96 53.528 0.15 7.27 11.56 10.59
3/28/2021 3:00:00 PM 12 53.6 0.15 7.28 11.18 10.59
3/28/2021 3:15:00 PM 12.05 53.69 0.15 7.28 9.57 10.57
3/28/2021 3:30:00 PM 12.12 53.816 0.15 7.28 9.99 10.58
3/28/2021 3:45:00 PM 12.2 53.96 0.15 7.28 8.85 10.59
3/28/2021 4:00:00 PM 12.28 54.104 0.15 7.28 10.14 10.61
3/28/2021 4:15:00 PM 12.37 54.266 0.15 7.29 13.47 10.6
3/28/2021 4:30:00 PM 12.46 54.428 0.15 7.28 11.91 10.61
3/28/2021 4:45:00 PM 12.53 54.554 0.15 7.28 43.85 10.6
3/28/2021 5:00:00 PM 12.58 54.644 0.149 7.29 16 10.58
3/28/2021 5:15:00 PM 12.62 54.716 0.149 7.3 8.53 10.55
3/28/2021 5:30:00 PM 12.65 54.77 0.149 7.3 9.96 10.49
3/28/2021 5:45:00 PM 12.68 54.824 0.149 7.3 10.64 10.41
3/28/2021 6:00:00 PM 12.67 54.806 0.148 7.3 20.24 10.32
3/28/2021 6:15:00 PM 12.65 54.77 0.148 7.3 11.56 10.25
3/28/2021 6:30:00 PM 12.64 54.752 0.148 7.32 11.58 10.23
3/28/2021 6:45:00 PM 12.62 54.716 0.148 7.3 18.49 10.19
3/28/2021 7:00:00 PM 12.61 54.698 0.148 7.31 11.62 10.16
3/28/2021 7:15:00 PM 12.6 54.68 0.148 7.3 10.83 10.13
3/28/2021 7:30:00 PM 12.57 54.626 0.148 7.3 10.96 10.1
3/28/2021 7:45:00 PM 12.54 54.572 0.148 7.3 9.91 10.07
3/28/2021 8:00:00 PM 12.51 54.518 0.148 7.28 9.81 10.02
3/28/2021 8:15:00 PM 12.47 54.446 0.148 7.29 15.02 9.98
3/28/2021 8:30:00 PM 12.44 54.392 0.148 7.28 14.96 9.96
3/28/2021 8:45:00 PM 12.39 54.302 0.148 7.28 14.82 9.94
3/28/2021 9:00:00 PM 12.35 54.23 0.148 7.27 11.7 9.92
3/28/2021 9:15:00 PM 12.29 54.122 0.148 7.27 33.73 9.91
3/28/2021 9:30:00 PM 12.22 53.996 0.148 7.27 11.47 9.89
3/28/2021 9:45:00 PM 12.14 53.852 0.148 7.27 17.54 9.9
3/28/2021 10:00:00 PM 12.08 53.744 0.148 7.25 20.14 9.91
3/28/2021 10:15:00 PM 11.99 53.582 0.148 7.25 19.27 9.91
3/28/2021 10:30:00 PM 11.91 53.438 0.148 7.26 18.26 9.92
3/28/2021 10:45:00 PM 11.81 53.258 0.149 7.23 21.53 9.94
3/28/2021 11:00:00 PM 11.74 53.132 0.149 7.25 23.96 9.96
3/28/2021 11:15:00 PM 11.66 52.988 0.15 7.24 27.48 9.97
3/28/2021 11:30:00 PM 11.58 52.844 0.15 7.24 34.64 9.98
3/28/2021 11:45:00 PM 11.51 52.718 0.151 7.24 38.32 10
3/29/2021 12:00:00 AM 11.44 52.592 0.151 7.24 28.45 10.02
3/29/2021 12:15:00 AM 11.37 52.466 0.152 7.25 27.82 10.02
3/29/2021 12:30:00 AM 11.28 52.304 0.152 7.25 17.36 10.05
3/29/2021 12:45:00 AM 11.18 52.124 0.152 7.25 15.49 10.07
3/29/2021 1:00:00 AM 11.11 51.998 0.152 7.25 35.75 10.1
3/29/2021 1:15:00 AM 11.03 51.854 0.152 7.27 15.8 10.11
3/29/2021 1:30:00 AM 10.95 51.71 0.152 7.26 31.59 10.14
3/29/2021 1:45:00 AM 10.87 51.566 0.152 7.26 21.7 10.15
3/29/2021 2:00:00 AM 10.78 51.404 0.152 7.28 24.52 10.16
3/29/2021 2:15:00 AM 10.7 51.26 0.151 7.25 19.85 10.21
3/29/2021 2:30:00 AM 10.62 51.116 0.151 7.26 17.71 10.23
3/29/2021 2:45:00 AM 10.52 50.936 0.151 7.27 21.2 10.26
3/29/2021 3:00:00 AM 10.43 50.774 0.152 7.26 19.64 10.28
3/29/2021 3:15:00 AM 10.33 50.594 0.152 7.26 17.03 10.31
3/29/2021 3:30:00 AM 10.26 50.468 0.151 7.26 24.64 10.35
3/29/2021 3:45:00 AM 10.17 50.306 0.151 7.25 29.1 10.38
3/29/2021 4:00:00 AM 10.09 50.162 0.151 7.26 27.03 10.4
3/29/2021 4:15:00 AM 10 50 0.151 7.25 25.22 10.43
3/29/2021 4:30:00 AM 9.93 49.874 0.15 7.28 26.7 10.46
3/29/2021 4:45:00 AM 9.84 49.712 0.151 7.27 29.9 10.47
3/29/2021 5:00:00 AM 9.76 49.568 0.15 7.28 23.03 10.5
3/29/2021 5:15:00 AM 9.69 49.442 0.15 7.29 28.57 10.53
3/29/2021 5:30:00 AM 9.62 49.316 0.151 7.28 25.2 10.56
3/29/2021 5:45:00 AM 9.56 49.208 0.151 7.28 31.13 10.59
3/29/2021 6:00:00 AM 9.5 49.1 0.151 7.28 26.71 10.62
3/29/2021 6:15:00 AM 9.44 48.992 0.151 7.28 28.18 10.64
3/29/2021 6:30:00 AM 9.38 48.884 0.151 7.28 24.79 10.68
3/29/2021 6:45:00 AM 9.31 48.758 0.151 7.28 26.82 10.69
3/29/2021 7:00:00 AM 9.24 48.632 0.151 7.28 24.53 10.72
3/29/2021 7:15:00 AM 9.16 48.488 0.151 7.28 20.84 10.76
3/29/2021 7:30:00 AM 9.08 48.344 0.151 7.29 17.98 10.79
3/29/2021 7:45:00 AM 9 48.2 0.151 7.29 31.61 10.83
3/29/2021 8:00:00 AM 8.91 48.038 0.151 7.29 27.03 10.9
3/29/2021 8:15:00 AM 8.84 47.912 0.151 7.29 23.03 10.96
3/29/2021 8:30:00 AM 8.78 47.804 0.151 7.3 19.89 11.02
3/29/2021 8:45:00 AM 8.7 47.66 0.151 7.31 23.85 11.06
3/29/2021 9:00:00 AM 8.62 47.516 0.151 7.3 62.87 11.13
3/29/2021 9:15:00 AM 8.6 47.48 0.152 7.32 19.64 11.17
3/29/2021 9:30:00 AM 8.59 47.462 0.152 7.3 20.8 11.26
3/29/2021 9:45:00 AM 8.59 47.462 0.152 7.3 17.44 11.35
3/29/2021 10:00:00 AM 8.62 47.516 0.152 7.3 41.66 11.43
3/29/2021 10:15:00 AM 8.64 47.552 0.153 7.3 33.8 11.48
3/29/2021 10:30:00 AM 8.71 47.678 0.153 7.31 44.02 11.53
3/29/2021 10:45:00 AM 8.81 47.858 0.153 7.33 16.51 11.56
3/29/2021 11:00:00 AM 8.98 48.164 0.153 7.35 16.18 11.59
3/29/2021 11:15:00 AM 9.13 48.434 0.153 7.37 19.11 11.62
3/29/2021 11:30:00 AM 9.32 48.776 0.153 7.36 16.73 11.65
3/29/2021 11:45:00 AM 9.54 49.172 0.153 7.34 19.99 11.65
3/29/2021 12:00:00 PM 9.79 49.622 0.153 7.33 16.04 11.65
3/29/2021 12:15:00 PM 10.02 50.036 0.152 7.34 45.7 11.66
3/29/2021 12:30:00 PM 10.27 50.486 0.152 7.35 15.36 11.64
3/29/2021 12:45:00 PM 10.55 50.99 0.152 7.36 14.08 11.61
3/29/2021 1:00:00 PM 10.84 51.512 0.152 7.39 11.21 11.58
3/29/2021 1:15:00 PM 11.12 52.016 0.151 7.36 11.61 11.55
3/29/2021 1:30:00 PM 11.4 52.52 0.151 7.36 12 11.51
3/29/2021 1:45:00 PM 11.65 52.97 0.151 7.39 10.78 11.5
3/29/2021 2:00:00 PM 11.88 53.384 0.151 7.39 12.72 11.45
3/29/2021 2:15:00 PM 12.1 53.78 0.151 7.4 11.1 11.41
3/29/2021 2:30:00 PM 12.29 54.122 0.15 7.4 10.98 11.39
3/29/2021 2:45:00 PM 12.44 54.392 0.15 7.41 10.34 11.35
3/29/2021 3:00:00 PM 12.54 54.572 0.15 7.41 19.9 11.32
3/29/2021 3:15:00 PM 12.63 54.734 0.15 7.41 9.67 11.26
3/29/2021 3:30:00 PM 12.68 54.824 0.15 7.41 11.6 11.24
3/29/2021 3:45:00 PM 12.73 54.914 0.15 7.41 9.52 11.2
3/29/2021 4:00:00 PM 12.75 54.95 0.15 7.41 14.45 11.17
3/29/2021 4:15:00 PM 12.72 54.896 0.149 7.41 11.15 11.12
3/29/2021 4:30:00 PM 12.67 54.806 0.15 7.43 8.96 11.06
3/29/2021 4:45:00 PM 12.61 54.698 0.149 7.44 11.49 11.04
3/29/2021 5:00:00 PM 12.53 54.554 0.15 7.45 9.47 10.99
3/29/2021 5:15:00 PM 12.43 54.374 0.15 7.43 8.82 10.95
3/29/2021 5:30:00 PM 12.36 54.248 0.149 7.45 9.42 10.9
3/29/2021 5:45:00 PM 12.27 54.086 0.15 7.45 10.48 10.87
3/29/2021 6:00:00 PM 12.18 53.924 0.15 7.44 9.68 10.79
3/29/2021 6:15:00 PM 12.12 53.816 0.15 7.46 9.91 10.75
3/29/2021 6:30:00 PM 12.03 53.654 0.15 7.46 8.34 10.69
3/29/2021 6:45:00 PM 11.92 53.456 0.15 7.47 8.92 10.68
3/29/2021 7:00:00 PM 11.81 53.258 0.15 7.46 8.62 10.63
3/29/2021 7:15:00 PM 11.72 53.096 0.15 7.47 8.9 10.58
3/29/2021 7:30:00 PM 11.62 52.916 0.15 7.46 9.31 10.52
3/29/2021 7:45:00 PM 11.54 52.772 0.15 7.46 8.67 10.51
3/29/2021 8:00:00 PM 11.45 52.61 0.15 7.44 15.53 10.46
3/29/2021 8:15:00 PM 11.37 52.466 0.151 7.43 9.6 10.44
3/29/2021 8:30:00 PM 11.3 52.34 0.151 7.43 9.67 10.42
3/29/2021 8:45:00 PM 11.23 52.214 0.151 7.43 9.38 10.39
3/29/2021 9:00:00 PM 11.16 52.088 0.151 7.43 9.56 10.38
3/29/2021 9:15:00 PM 11.09 51.962 0.151 7.43 11.89 10.38
3/29/2021 9:30:00 PM 11 51.8 0.151 7.41 8.94 10.38
3/29/2021 9:45:00 PM 10.91 51.638 0.151 7.4 9.6 10.4
3/29/2021 10:00:00 PM 10.82 51.476 0.151 7.41 10.2 10.4
3/29/2021 10:15:00 PM 10.72 51.296 0.152 7.39 9.06 10.4
3/29/2021 10:30:00 PM 10.63 51.134 0.152 7.38 10.07 10.43
3/29/2021 10:45:00 PM 10.54 50.972 0.152 7.37 10.28 10.44
3/29/2021 11:00:00 PM 10.45 50.81 0.152 7.36 12.65 10.44
3/29/2021 11:15:00 PM 10.36 50.648 0.152 7.36 11.79 10.46
3/29/2021 11:30:00 PM 10.28 50.504 0.152 7.36 12.54 10.49
3/29/2021 11:45:00 PM 10.2 50.36 0.152 7.36 9.28 10.49
3/30/2021 12:00:00 AM 10.12 50.216 0.152 7.36 10.61 10.51
3/30/2021 12:15:00 AM 10.05 50.09 0.153 7.36 12.03 10.53
3/30/2021 12:30:00 AM 9.98 49.964 0.153 7.35 10.95 10.53
3/30/2021 12:45:00 AM 9.9 49.82 0.153 7.34 10.03 10.56
3/30/2021 1:00:00 AM 9.83 49.694 0.153 7.33 10.34 10.57
3/30/2021 1:15:00 AM 9.75 49.55 0.153 7.34 9.8 10.59
3/30/2021 1:30:00 AM 9.68 49.424 0.153 7.33 10.9 10.62
3/30/2021 1:45:00 AM 9.6 49.28 0.153 7.33 10.93 10.64
3/30/2021 2:00:00 AM 9.52 49.136 0.153 7.32 10.08 10.66
3/30/2021 2:15:00 AM 9.44 48.992 0.153 7.31 14.09 10.7
3/30/2021 2:30:00 AM 9.36 48.848 0.153 7.32 13.71 10.72
3/30/2021 2:45:00 AM 9.27 48.686 0.153 7.33 13.91 10.75
3/30/2021 3:00:00 AM 9.18 48.524 0.153 7.33 11.28 10.78
3/30/2021 3:15:00 AM 9.09 48.362 0.153 7.31 15.05 10.8
3/30/2021 3:30:00 AM 9.01 48.218 0.154 7.31 15.64 10.83
3/30/2021 3:45:00 AM 8.91 48.038 0.154 7.3 22.37 10.87
3/30/2021 4:00:00 AM 8.82 47.876 0.154 7.29 19.04 10.91
3/30/2021 4:15:00 AM 8.73 47.714 0.154 7.31 17.87 10.93
3/30/2021 4:30:00 AM 8.63 47.534 0.154 7.3 18.94 10.96
3/30/2021 4:45:00 AM 8.55 47.39 0.154 7.3 16.47 11
3/30/2021 5:00:00 AM 8.46 47.228 0.154 7.31 14.98 11.03
3/30/2021 5:15:00 AM 8.36 47.048 0.154 7.3 17.88 11.06
3/30/2021 5:30:00 AM 8.28 46.904 0.154 7.3 14.3 11.09
3/30/2021 5:45:00 AM 8.19 46.742 0.154 7.29 16.69 11.12
3/30/2021 6:00:00 AM 8.1 46.58 0.154 7.3 14.06 11.16
3/30/2021 6:15:00 AM 8.01 46.418 0.155 7.28 15 11.19
3/30/2021 6:30:00 AM 7.94 46.292 0.155 7.3 16.21 11.21
3/30/2021 6:45:00 AM 7.85 46.13 0.155 7.3 17.2 11.23
3/30/2021 7:00:00 AM 7.76 45.968 0.155 7.3 14.74 11.29
3/30/2021 7:15:00 AM 7.68 45.824 0.155 7.31 13.68 11.32
3/30/2021 7:30:00 AM 7.6 45.68 0.155 7.29 13.44 11.35
3/30/2021 7:45:00 AM 7.52 45.536 0.155 7.3 12.03 11.41
3/30/2021 8:00:00 AM 7.45 45.41 0.155 7.29 13.49 11.47
3/30/2021 8:15:00 AM 7.39 45.302 0.155 7.3 13.64 11.52
3/30/2021 8:30:00 AM 7.32 45.176 0.155 7.3 11.37 11.58
3/30/2021 8:45:00 AM 7.28 45.104 0.155 7.3 13.11 11.64
3/30/2021 9:00:00 AM 7.24 45.032 0.155 7.3 10.23 11.7
3/30/2021 9:15:00 AM 7.23 45.014 0.155 7.31 10.38 11.74
3/30/2021 9:30:00 AM 7.25 45.05 0.155 7.3 12.39 11.8
3/30/2021 9:45:00 AM 7.29 45.122 0.155 7.3 10.37 11.85
3/30/2021 10:00:00 AM 7.37 45.266 0.155 7.31 10.37 11.91
3/30/2021 10:15:00 AM 7.49 45.482 0.155 7.31 12.32 11.95
3/30/2021 10:30:00 AM 7.64 45.752 0.155 7.32 13.45 11.97
3/30/2021 10:45:00 AM 7.84 46.112 0.155 7.31 11.52 12.01
3/30/2021 11:00:00 AM 8.07 46.526 0.155 7.31 11.33 12.04
3/30/2021 11:15:00 AM 8.34 47.012 0.154 7.32 12.31 12.03
3/30/2021 11:30:00 AM 8.62 47.516 0.155 7.31 13.03 12.02
3/30/2021 11:45:00 AM 8.91 48.038 0.154 7.31 10.22 12.03
3/30/2021 12:00:00 PM 9.22 48.596 0.154 7.31 10.78 11.99
3/30/2021 12:15:00 PM 9.57 49.226 0.154 7.31 10.59 11.96
3/30/2021 12:30:00 PM 9.93 49.874 0.155 7.32 10.21 11.92
3/30/2021 12:45:00 PM 10.32 50.576 0.155 7.32 9.3 11.86
3/30/2021 1:00:00 PM 10.68 51.224 0.155 7.33 11.53 11.81
3/30/2021 1:15:00 PM 11.03 51.854 0.154 7.31 12.71 11.77
3/30/2021 1:30:00 PM 11.38 52.484 0.155 7.32 11.85 11.72
3/30/2021 1:45:00 PM 11.74 53.132 0.155 7.32 9.03 11.64
3/30/2021 2:00:00 PM 12.05 53.69 0.155 7.32 9.03 11.6
3/30/2021 2:15:00 PM 12.33 54.194 0.155 7.33 9.81 11.54
3/30/2021 2:30:00 PM 12.59 54.662 0.155 7.32 9.84 11.48
3/30/2021 2:45:00 PM 12.79 55.022 0.156 7.33 8.92 11.43
3/30/2021 3:00:00 PM 12.94 55.292 0.155 7.34 10.33 11.38
3/30/2021 3:15:00 PM 13.04 55.472 0.155 7.34 9.44 11.32
3/30/2021 3:30:00 PM 13.14 55.652 0.155 7.34 10.04 11.28
3/30/2021 3:45:00 PM 13.21 55.778 0.155 7.35 10.04 11.22
3/30/2021 4:00:00 PM 13.26 55.868 0.155 7.34 10.24 11.16
3/30/2021 4:15:00 PM 13.27 55.886 0.156 7.35 10.26 11.13
3/30/2021 4:30:00 PM 13.25 55.85 0.156 7.36 9.95 11.06
3/30/2021 4:45:00 PM 13.23 55.814 0.155 7.37 9.86 11.03
3/30/2021 5:00:00 PM 13.17 55.706 0.155 7.38 9.93 10.95
3/30/2021 5:15:00 PM 13.1 55.58 0.155 7.38 10 10.89
3/30/2021 5:30:00 PM 13.05 55.49 0.155 7.39 10.48 10.84
3/30/2021 5:45:00 PM 12.99 55.382 0.155 7.4 11.12 10.78
3/30/2021 6:00:00 PM 12.93 55.274 0.155 7.4 9.8 10.74
3/30/2021 6:15:00 PM 12.85 55.13 0.155 7.39 10.48 10.69
3/30/2021 6:30:00 PM 12.77 54.986 0.155 7.4 9.17 10.64
3/30/2021 6:45:00 PM 12.66 54.788 0.155 7.41 9.37 10.57
3/30/2021 7:00:00 PM 12.57 54.626 0.155 7.41 9.93 10.51
3/30/2021 7:15:00 PM 12.47 54.446 0.155 7.4 9.63 10.46
3/30/2021 7:30:00 PM 12.39 54.302 0.155 7.4 9.56 10.42
3/30/2021 7:45:00 PM 12.32 54.176 0.155 7.4 10.69 10.36
3/30/2021 8:00:00 PM 12.25 54.05 0.155 7.4 10.03 10.32
3/30/2021 8:15:00 PM 12.2 53.96 0.155 7.39 11.04 10.26
3/30/2021 8:30:00 PM 12.15 53.87 0.155 7.38 9.64 10.23
3/30/2021 8:45:00 PM 12.11 53.798 0.155 7.38 12.64 10.2
3/30/2021 9:00:00 PM 12.07 53.726 0.155 7.38 11.09 10.18
3/30/2021 9:15:00 PM 12.02 53.636 0.155 7.37 12.66 10.17
3/30/2021 9:30:00 PM 11.98 53.564 0.155 7.37 13.55 10.15
3/30/2021 9:45:00 PM 11.93 53.474 0.155 7.36 12.62 10.14
3/30/2021 10:00:00 PM 11.88 53.384 0.155 7.36 19.28 10.08
3/30/2021 10:15:00 PM 11.83 53.294 0.155 7.36 13.17 10.12
3/30/2021 10:30:00 PM 11.78 53.204 0.155 7.36 11.83 10.13
3/30/2021 10:45:00 PM 11.73 53.114 0.155 7.35 12.51 10.13
3/30/2021 11:00:00 PM 11.69 53.042 0.155 7.35 13.31 10.12
3/30/2021 11:15:00 PM 11.64 52.952 0.155 7.34 11.45 10.14
3/30/2021 11:30:00 PM 11.6 52.88 0.155 7.33 12.95 10.12
3/30/2021 11:45:00 PM 11.57 52.826 0.155 7.33 11.08 10.13
3/31/2021 12:00:00 AM 11.53 52.754 0.155 7.33 14.16 10.13
3/31/2021 12:15:00 AM 11.5 52.7 0.155 7.33 12.61 10.13
3/31/2021 12:30:00 AM 11.48 52.664 0.155 7.32 12.13 10.12
3/31/2021 12:45:00 AM 11.45 52.61 0.155 7.31 11.97 10.13
3/31/2021 1:00:00 AM 11.43 52.574 0.155 7.31 12.82 10.13
3/31/2021 1:15:00 AM 11.39 52.502 0.155 7.3 23.02 10.13
3/31/2021 1:30:00 AM 11.37 52.466 0.156 7.31 13.31 10.16
3/31/2021 1:45:00 AM 11.34 52.412 0.156 7.3 13.5 10.15
3/31/2021 2:00:00 AM 11.31 52.358 0.156 7.31 12.75 10.15
3/31/2021 2:15:00 AM 11.27 52.286 0.156 7.3 12.7 10.16
3/31/2021 2:30:00 AM 11.23 52.214 0.156 7.3 13.76 10.17
3/31/2021 2:45:00 AM 11.18 52.124 0.156 7.3 12.7 10.19
3/31/2021 3:00:00 AM 11.13 52.034 0.156 7.3 10.92 10.21
3/31/2021 3:15:00 AM 11.08 51.944 0.156 7.29 11.77 10.22
3/31/2021 3:30:00 AM 11.03 51.854 0.156 7.29 11.93 10.24
3/31/2021 3:45:00 AM 10.97 51.746 0.156 7.28 12.91 10.24
3/31/2021 4:00:00 AM 10.91 51.638 0.156 7.28 13.14 10.26
3/31/2021 4:15:00 AM 10.86 51.548 0.156 7.28 12.96 10.27
3/31/2021 4:30:00 AM 10.8 51.44 0.156 7.28 13.77 10.3
3/31/2021 4:45:00 AM 10.74 51.332 0.156 7.28 12.73 10.32
3/31/2021 5:00:00 AM 10.68 51.224 0.156 7.28 13.12 10.33
3/31/2021 5:15:00 AM 10.61 51.098 0.156 7.28 12.52 10.35
3/31/2021 5:30:00 AM 10.55 50.99 0.156 7.28 12.51 10.36
3/31/2021 5:45:00 AM 10.48 50.864 0.157 7.27 11.57 10.38
3/31/2021 6:00:00 AM 10.42 50.756 0.157 7.27 11.47 10.41
3/31/2021 6:15:00 AM 10.36 50.648 0.157 7.27 11.89 10.42
3/31/2021 6:30:00 AM 10.3 50.54 0.157 7.27 14.79 10.44
3/31/2021 6:45:00 AM 10.25 50.45 0.157 7.27 12.89 10.45
3/31/2021 7:00:00 AM 10.19 50.342 0.157 7.27 12.77 10.48
3/31/2021 7:15:00 AM 10.14 50.252 0.157 7.26 14 10.49
3/31/2021 7:30:00 AM 10.11 50.198 0.157 7.27 10.99 10.53
3/31/2021 7:45:00 AM 10.1 50.18 0.157 7.27 11.86 10.58
3/31/2021 8:00:00 AM 10.1 50.18 0.157 7.26 12.92 10.64
3/31/2021 8:15:00 AM 10.1 50.18 0.157 7.26 11.43 10.7
3/31/2021 8:30:00 AM 10.12 50.216 0.157 7.26 12.08 10.74
3/31/2021 8:45:00 AM 10.15 50.27 0.157 7.26 11.97 10.81
3/31/2021 9:00:00 AM 10.2 50.36 0.157 7.27 11.9 10.84
3/31/2021 9:15:00 AM 10.24 50.432 0.157 7.28 13.24 10.89
3/31/2021 9:30:00 AM 10.3 50.54 0.157 7.28 10.91 10.94
3/31/2021 9:45:00 AM 10.35 50.63 0.157 7.28 13.31 10.98
3/31/2021 10:00:00 AM 10.41 50.738 0.157 7.28 13.35 11.02
3/31/2021 10:15:00 AM 10.48 50.864 0.157 7.29 11.96 11.05
3/31/2021 10:30:00 AM 10.54 50.972 0.157 7.3 12.91 11.09
3/31/2021 10:45:00 AM 10.6 51.08 0.156 7.3 12.5 11.1
3/31/2021 11:00:00 AM 10.65 51.17 0.157 7.3 12.41 11.11
3/31/2021 11:15:00 AM 10.7 51.26 0.156 7.31 12.39 11.1
3/31/2021 11:30:00 AM 10.79 51.422 0.156 7.32 11.17 11.12
3/31/2021 11:45:00 AM 10.9 51.62 0.156 7.31 12.5 11.16
3/31/2021 12:00:00 PM 10.98 51.764 0.156 7.32 12.85 11.19
3/31/2021 12:15:00 PM 11.04 51.872 0.156 7.33 13.54 11.17
3/31/2021 12:30:00 PM 11.09 51.962 0.156 7.33 11.98 11.14
3/31/2021 12:45:00 PM 11.16 52.088 0.156 7.33 10.67 11.13
3/31/2021 1:00:00 PM 11.22 52.196 0.156 7.33 10.33 11.14
3/31/2021 1:15:00 PM 11.31 52.358 0.156 7.33 9.86 11.14
3/31/2021 1:30:00 PM 11.37 52.466 0.156 7.34 12.08 11.16
3/31/2021 1:45:00 PM 11.44 52.592 0.155 7.34 15.03 11.15
3/31/2021 2:00:00 PM 11.5 52.7 0.155 7.35 10.88 11.11
3/31/2021 2:15:00 PM 11.57 52.826 0.155 7.36 10.48 11.11
3/31/2021 2:30:00 PM 11.63 52.934 0.154 7.36 13.54 11.09
3/31/2021 2:45:00 PM 11.69 53.042 0.154 7.37 11.57 11.08
3/31/2021 3:00:00 PM 11.73 53.114 0.154 7.36 8.81 11.04
3/31/2021 3:15:00 PM 11.76 53.168 0.154 7.37 2285 10.98
3/31/2021 3:30:00 PM 11.8 53.24 0.154 7.38 9.3 10.93
3/31/2021 3:45:00 PM 11.82 53.276 0.154 7.39 15.2 10.87
3/31/2021 4:00:00 PM 11.84 53.312 0.154 7.38 13.14 10.82
3/31/2021 4:15:00 PM 11.85 53.33 0.153 7.38 9.44 10.78
3/31/2021 4:30:00 PM 11.87 53.366 0.153 7.38 21.08 10.74
3/31/2021 4:45:00 PM 11.89 53.402 0.153 7.38 25.09 10.69
3/31/2021 5:00:00 PM 11.91 53.438 0.153 7.38 19.62 10.66
3/31/2021 5:15:00 PM 11.91 53.438 0.153 7.38 23.56 10.62
3/31/2021 5:30:00 PM 11.92 53.456 0.153 7.38 13.93 10.58
3/31/2021 5:45:00 PM 11.93 53.474 0.153 7.39 13.92 10.53
3/31/2021 6:00:00 PM 11.94 53.492 0.153 7.38 13 10.49
3/31/2021 6:15:00 PM 11.94 53.492 0.153 7.38 11.93 10.42
3/31/2021 6:30:00 PM 11.95 53.51 0.153 7.38 10.93 10.4
3/31/2021 6:45:00 PM 11.96 53.528 0.153 7.37 17.63 10.36
3/31/2021 7:00:00 PM 11.97 53.546 0.153 7.37 13.87 10.32
3/31/2021 7:15:00 PM 11.97 53.546 0.153 7.36 13.2 10.3
3/31/2021 7:30:00 PM 11.97 53.546 0.153 7.36 11.21 10.26
3/31/2021 7:45:00 PM 11.97 53.546 0.153 7.36 12.29 10.22
3/31/2021 8:00:00 PM 11.97 53.546 0.153 7.35 13.54 10.18
3/31/2021 8:15:00 PM 11.97 53.546 0.153 7.35 15.38 10.13
3/31/2021 8:30:00 PM 11.97 53.546 0.153 7.34 10.44 10.13
3/31/2021 8:45:00 PM 11.97 53.546 0.153 7.34 11.53 10.08
3/31/2021 9:00:00 PM 11.97 53.546 0.153 7.33 11.27 10.08
3/31/2021 9:15:00 PM 11.98 53.564 0.153 7.33 14.82 10.05
3/31/2021 9:30:00 PM 11.99 53.582 0.154 7.32 11.4 10.03
3/31/2021 9:45:00 PM 12 53.6 0.154 7.31 11.62 10.02
3/31/2021 10:00:00 PM 12.01 53.618 0.154 7.31 11.08 10
3/31/2021 10:15:00 PM 12.01 53.618 0.154 7.29 8.94 10
3/31/2021 10:30:00 PM 12.01 53.618 0.154 7.28 8.89 9.98
3/31/2021 10:45:00 PM 12.01 53.618 0.154 7.29 9.32 9.98
3/31/2021 11:00:00 PM 12.01 53.618 0.154 7.29 9.66 9.98
3/31/2021 11:15:00 PM 12.01 53.618 0.154 7.28 10.05 9.95
3/31/2021 11:30:00 PM 12.01 53.618 0.154 7.27 14.13 9.95
3/31/2021 11:45:00 PM 12.01 53.618 0.154 7.27 10.92 9.95
4/1/2021 12:00:00 AM 12 53.6 0.154 7.26 13.34 9.93
4/1/2021 12:15:00 AM 12 53.6 0.154 7.26 9.94 9.95
4/1/2021 12:30:00 AM 11.98 53.564 0.154 7.26 10.54 9.94
4/1/2021 12:45:00 AM 11.96 53.528 0.154 7.26 11.23 9.93
4/1/2021 1:00:00 AM 11.92 53.456 0.154 7.25 10.2 9.94
4/1/2021 1:15:00 AM 11.87 53.366 0.154 7.25 10.91 9.94
4/1/2021 1:30:00 AM 11.81 53.258 0.154 7.25 11.03 9.94
4/1/2021 1:45:00 AM 11.75 53.15 0.154 7.26 15.39 9.94
4/1/2021 2:00:00 AM 11.69 53.042 0.154 7.25 12.81 9.95
4/1/2021 2:15:00 AM 11.63 52.934 0.154 7.25 11.77 9.97
4/1/2021 2:30:00 AM 11.57 52.826 0.154 7.24 10.73 10.01
4/1/2021 2:45:00 AM 11.5 52.7 0.154 7.24 12.36 10.02
4/1/2021 3:00:00 AM 11.42 52.556 0.154 7.25 12.72 10.04
4/1/2021 3:15:00 AM 11.36 52.448 0.154 7.25 13.74 10.06
4/1/2021 3:30:00 AM 11.29 52.322 0.154 7.25 13.46 10.07
4/1/2021 3:45:00 AM 11.22 52.196 0.154 7.25 10.62 10.08
4/1/2021 4:00:00 AM 11.14 52.052 0.154 7.25 11.85 10.11
4/1/2021 4:15:00 AM 11.06 51.908 0.153 7.24 10.15 10.13
4/1/2021 4:30:00 AM 10.98 51.764 0.153 7.25 10.74 10.15
4/1/2021 4:45:00 AM 10.9 51.62 0.153 7.24 10.52 10.18
4/1/2021 5:00:00 AM 10.81 51.458 0.153 7.25 12.16 10.2
4/1/2021 5:15:00 AM 10.72 51.296 0.153 7.26 13.17 10.23
4/1/2021 5:30:00 AM 10.63 51.134 0.153 7.25 14.64 10.26
4/1/2021 5:45:00 AM 10.55 50.99 0.152 7.25 10.46 10.29
4/1/2021 6:00:00 AM 10.47 50.846 0.152 7.25 10.69 10.31
4/1/2021 6:15:00 AM 10.41 50.738 0.152 7.26 10.53 10.34
4/1/2021 6:30:00 AM 10.34 50.612 0.152 7.26 14.61 10.36
4/1/2021 6:45:00 AM 10.27 50.486 0.152 7.25 15.98 10.39
4/1/2021 7:00:00 AM 10.21 50.378 0.152 7.25 9.81 10.41
4/1/2021 7:15:00 AM 10.14 50.252 0.152 7.25 12.27 10.41
4/1/2021 7:30:00 AM -99999.99 -179968 -99999.99 -99999.99 -99999.99 -99999.99
4/1/2021 7:45:00 AM 9.98 49.964 0 7 0 0
4/1/2021 8:00:00 AM 9.91 49.838 0.153 7.06 16.19 10.88
4/1/2021 8:15:00 AM 9.87 49.766 0.153 7.11 6.15 10.87
4/1/2021 8:30:00 AM 9.84 49.712 0.153 7.14 4.41 10.92
4/1/2021 8:45:00 AM 9.81 49.658 0.153 7.16 6.35 11
4/1/2021 9:00:00 AM 9.78 49.604 0.153 7.19 5.41 11.08
4/1/2021 9:15:00 AM 9.75 49.55 0.153 7.21 3.58 11.14
4/1/2021 9:30:00 AM 9.72 49.496 0.153 7.24 2.92 11.2
4/1/2021 9:45:00 AM 9.7 49.46 0.153 7.26 4.04 11.25
4/1/2021 10:00:00 AM 9.69 49.442 0.153 7.27 6.94 11.28
4/1/2021 10:15:00 AM 9.69 49.442 0.153 7.29 8.76 11.36
4/1/2021 10:30:00 AM 9.7 49.46 0.153 7.31 6.73 11.41
4/1/2021 10:45:00 AM 9.76 49.568 0.153 7.33 5.77 11.47
4/1/2021 11:00:00 AM 9.87 49.766 0.153 7.35 7.28 11.52
4/1/2021 11:15:00 AM 9.95 49.91 0.154 7.36 6.74 11.55
4/1/2021 11:30:00 AM 10.07 50.126 0.153 7.38 3.41 11.58
4/1/2021 11:45:00 AM 10.19 50.342 0.153 7.39 4.98 11.58
4/1/2021 12:00:00 PM 10.39 50.702 0.153 7.4 7.12 11.62
4/1/2021 12:15:00 PM 10.53 50.954 0.153 7.41 6.86 11.63
4/1/2021 12:30:00 PM 10.57 51.026 0.153 7.43 5.65 11.63
4/1/2021 12:45:00 PM 10.59 51.062 0.153 7.44 5.72 11.62
4/1/2021 1:00:00 PM 10.61 51.098 0.153 7.45 6.13 11.6
4/1/2021 1:15:00 PM 10.69 51.242 0.153 7.46 5.97 11.61
4/1/2021 1:30:00 PM 10.71 51.278 0.153 7.47 5.24 11.61
4/1/2021 1:45:00 PM 10.78 51.404 0.152 7.49 5.07 11.62
4/1/2021 2:00:00 PM 10.79 51.422 0.152 7.49 5.05 11.61
4/1/2021 2:15:00 PM 10.8 51.44 0.152 7.5 4.43 11.62
4/1/2021 2:30:00 PM 10.79 51.422 0.152 7.51 5.28 11.61
4/1/2021 2:45:00 PM 10.77 51.386 0.152 7.52 2.73 11.6
4/1/2021 3:00:00 PM 10.83 51.494 0.152 7.53 3.95 11.61
4/1/2021 3:15:00 PM 10.81 51.458 0.152 7.54 5.35 11.6
4/1/2021 3:30:00 PM 10.75 51.35 0.152 7.54 3.89 11.58
4/1/2021 3:45:00 PM 10.69 51.242 0.152 7.55 3.01 11.53
4/1/2021 4:00:00 PM 10.63 51.134 0.152 7.55 4.28 11.47
4/1/2021 4:15:00 PM 10.6 51.08 0.152 7.56 5.73 11.47
4/1/2021 4:30:00 PM 10.53 50.954 0.152 7.55 4.27 11.43
4/1/2021 4:45:00 PM 10.48 50.864 0.152 7.55 6.04 11.39
4/1/2021 5:00:00 PM 10.4 50.72 0.153 7.55 4.42 11.36
4/1/2021 5:15:00 PM 10.31 50.558 0.153 7.56 3.22 11.33
4/1/2021 5:30:00 PM 10.25 50.45 0.153 7.56 3.9 11.34
4/1/2021 5:45:00 PM 10.17 50.306 0.153 7.54 3.61 11.37
4/1/2021 6:00:00 PM 10.12 50.216 0.153 7.55 4.69 11.37
4/1/2021 6:15:00 PM 10.06 50.108 0.153 7.54 4.2 11.38
4/1/2021 6:30:00 PM 10 50 0.153 7.55 4.21 11.36
4/1/2021 6:45:00 PM 9.88 49.784 0.154 7.54 3.91 11.36
4/1/2021 7:00:00 PM 9.78 49.604 0.154 7.54 4.1 11.35
4/1/2021 7:15:00 PM 9.64 49.352 0.154 7.54 4.94 11.32
4/1/2021 7:30:00 PM 9.53 49.154 0.154 7.53 5.04 11.28
4/1/2021 7:45:00 PM 9.43 48.974 0.155 7.52 3.8 11.25
4/1/2021 8:00:00 PM 9.33 48.794 0.155 7.51 3.94 11.22
4/1/2021 8:15:00 PM 9.22 48.596 0.155 7.51 3.23 11.21
4/1/2021 8:30:00 PM 9.13 48.434 0.155 7.49 4.99 11.19
4/1/2021 8:45:00 PM 9.05 48.29 0.155 7.49 3.66 11.18
4/1/2021 9:00:00 PM 8.96 48.128 0.156 7.48 5.86 11.18
4/1/2021 9:15:00 PM 8.88 47.984 0.156 7.47 5.66 11.19
4/1/2021 9:30:00 PM 8.79 47.822 0.156 7.46 5.88 11.19
4/1/2021 9:45:00 PM 8.71 47.678 0.156 7.46 5.92 11.21
4/1/2021 10:00:00 PM 8.63 47.534 0.156 7.45 4.3 11.2
4/1/2021 10:15:00 PM 8.54 47.372 0.156 7.44 4.04 11.22
4/1/2021 10:30:00 PM 8.45 47.21 0.156 7.44 4.05 11.24
4/1/2021 10:45:00 PM 8.38 47.084 0.156 7.43 5.66 11.24
4/1/2021 11:00:00 PM 8.29 46.922 0.156 7.43 4.61 11.26
4/1/2021 11:15:00 PM 8.21 46.778 0.156 7.43 3.06 11.29
4/1/2021 11:30:00 PM 8.12 46.616 0.156 7.43 6 11.3
4/1/2021 11:45:00 PM 8.04 46.472 0.156 7.43 3.26 11.32
4/2/2021 12:00:00 AM 7.95 46.31 0.155 7.41 10.72 11.34
4/2/2021 12:15:00 AM 7.86 46.148 0.155 7.41 7.46 11.36
4/2/2021 12:30:00 AM 7.78 46.004 0.155 7.4 4.94 11.37
4/2/2021 12:45:00 AM 7.7 45.86 0.155 7.41 4.29 11.41
4/2/2021 1:00:00 AM 7.62 45.716 0.154 7.4 3.96 11.45
4/2/2021 1:15:00 AM 7.53 45.554 0.154 7.4 3.01 11.48
4/2/2021 1:30:00 AM 7.43 45.374 0.154 7.4 2.97 11.51
4/2/2021 1:45:00 AM 7.35 45.23 0.154 7.4 3.2 11.54
4/2/2021 2:00:00 AM 7.27 45.086 0.154 7.39 2.92 11.56
4/2/2021 2:15:00 AM 7.19 44.942 0.154 7.39 3.28 11.61
4/2/2021 2:30:00 AM 7.11 44.798 0.153 7.38 3.46 11.63
4/2/2021 2:45:00 AM 7.03 44.654 0.154 7.39 3.36 11.65
4/2/2021 3:00:00 AM 6.97 44.546 0.154 7.39 4.83 11.68
4/2/2021 3:15:00 AM 6.89 44.402 0.154 7.39 3.94 11.72
4/2/2021 3:30:00 AM 6.8 44.24 0.154 7.39 2.75 11.75
4/2/2021 3:45:00 AM 6.74 44.132 0.154 7.37 3.53 11.78
4/2/2021 4:00:00 AM 6.67 44.006 0.154 7.38 3.07 11.79
4/2/2021 4:15:00 AM 6.58 43.844 0.154 7.38 3.46 11.84
4/2/2021 4:30:00 AM 6.51 43.718 0.154 7.38 3.73 11.87
4/2/2021 4:45:00 AM 6.45 43.61 0.154 7.38 5.08 11.89
4/2/2021 5:00:00 AM 6.38 43.484 0.154 7.38 2.85 11.91
4/2/2021 5:15:00 AM 6.28 43.304 0.154 7.38 2.76 11.96
4/2/2021 5:30:00 AM 6.21 43.178 0.154 7.38 3.61 11.99
4/2/2021 5:45:00 AM 6.12 43.016 0.154 7.38 2.91 12.02
4/2/2021 6:00:00 AM 6.03 42.854 0.154 7.38 2.4 12.05
4/2/2021 6:15:00 AM 5.94 42.692 0.154 7.37 2.89 12.09
4/2/2021 6:30:00 AM 5.85 42.53 0.155 7.37 2.41 12.1
4/2/2021 6:45:00 AM 5.75 42.35 0.155 7.37 2.87 12.14
4/2/2021 7:00:00 AM 5.67 42.206 0.155 7.37 3.35 12.18
4/2/2021 7:15:00 AM 5.59 42.062 0.155 7.37 2.29 12.22
4/2/2021 7:30:00 AM 5.54 41.972 0.155 7.37 2.09 12.29
4/2/2021 7:45:00 AM 5.49 41.882 0.155 7.37 2.57 12.36
4/2/2021 8:00:00 AM 5.43 41.774 0.155 7.38 3.1 12.4
4/2/2021 8:15:00 AM 5.36 41.648 0.155 7.38 3.79 12.49
4/2/2021 8:30:00 AM 5.31 41.558 0.155 7.39 1.83 12.54
4/2/2021 8:45:00 AM 5.26 41.468 0.155 7.39 2.18 12.62
4/2/2021 9:00:00 AM 5.22 41.396 0.155 7.4 2.75 12.65
4/2/2021 9:15:00 AM 5.21 41.378 0.156 7.41 3.46 12.73
4/2/2021 9:30:00 AM 5.21 41.378 0.156 7.42 1.87 12.81
4/2/2021 9:45:00 AM 5.21 41.378 0.156 7.42 1.8 12.86
4/2/2021 10:00:00 AM 5.21 41.378 0.156 7.43 1.94 12.91
4/2/2021 10:15:00 AM 5.2 41.36 0.156 7.42 1.85 12.96
4/2/2021 10:30:00 AM 5.25 41.45 0.156 7.43 1.81 12.99
4/2/2021 10:45:00 AM 5.35 41.63 0.156 7.44 2.53 13.03
4/2/2021 11:00:00 AM 5.49 41.882 0.156 7.44 1.51 13.03
4/2/2021 11:15:00 AM 5.64 42.152 0.156 7.44 2.26 13.05
4/2/2021 11:30:00 AM 5.86 42.548 0.156 7.45 2.47 13.04
4/2/2021 11:45:00 AM 6.14 43.052 0.156 7.45 1.81 13
4/2/2021 12:00:00 PM 6.38 43.484 0.155 7.45 1.79 13.01
4/2/2021 12:15:00 PM 6.67 44.006 0.155 7.46 1.44 12.98
4/2/2021 12:30:00 PM 6.97 44.546 0.155 7.48 1.21 12.94
4/2/2021 12:45:00 PM 7.31 45.158 0.155 7.48 1.55 12.9
4/2/2021 1:00:00 PM 7.65 45.77 0.155 7.47 2.55 12.83
4/2/2021 1:15:00 PM 7.98 46.364 0.155 7.47 1.28 12.75
4/2/2021 1:30:00 PM 8.28 46.904 0.155 7.47 1.51 12.7
4/2/2021 1:45:00 PM 8.56 47.408 0.155 7.48 2.39 12.63
4/2/2021 2:00:00 PM 8.82 47.876 0.155 7.49 2.02 12.57
4/2/2021 2:15:00 PM 9.12 48.416 0.155 7.49 2.1 12.52
4/2/2021 2:30:00 PM 9.36 48.848 0.155 7.48 1.24 12.45
4/2/2021 2:45:00 PM 9.54 49.172 0.155 7.49 1.59 12.4
4/2/2021 3:00:00 PM 9.57 49.226 0.155 7.51 1.75 12.35
4/2/2021 3:15:00 PM 9.64 49.352 0.155 7.51 1.66 12.29
4/2/2021 3:30:00 PM 9.67 49.406 0.155 7.51 1.25 12.27
4/2/2021 3:45:00 PM 9.76 49.568 0.154 7.52 3.2 12.21
4/2/2021 4:00:00 PM 9.75 49.55 0.154 7.52 1.04 12.19
4/2/2021 4:15:00 PM 9.68 49.424 0.154 7.53 2.01 12.16
4/2/2021 4:30:00 PM 9.57 49.226 0.154 7.54 1.17 12.14
4/2/2021 4:45:00 PM 9.52 49.136 0.154 7.54 1.51 12.1
4/2/2021 5:00:00 PM 9.41 48.938 0.154 7.53 2.56 12.07
4/2/2021 5:15:00 PM 9.26 48.668 0.154 7.54 1.55 12.03
4/2/2021 5:30:00 PM 9.19 48.542 0.154 7.54 0.97 11.98
4/2/2021 5:45:00 PM 9.12 48.416 0.154 7.55 1.78 11.95
4/2/2021 6:00:00 PM 9 48.2 0.154 7.54 1.57 11.92
4/2/2021 6:15:00 PM 8.9 48.02 0.154 7.54 2.22 11.89
4/2/2021 6:30:00 PM 8.8 47.84 0.154 7.55 1.87 11.85
4/2/2021 6:45:00 PM 8.69 47.642 0.154 7.53 2.24 11.81
4/2/2021 7:00:00 PM 8.56 47.408 0.154 7.54 2.8 11.78
4/2/2021 7:15:00 PM 8.44 47.192 0.154 7.52 1.43 11.77
4/2/2021 7:30:00 PM 8.34 47.012 0.154 7.53 1.31 11.76
4/2/2021 7:45:00 PM 8.26 46.868 0.154 7.52 1.2 11.72
4/2/2021 8:00:00 PM 8.17 46.706 0.155 7.51 1.86 11.69
4/2/2021 8:15:00 PM 8.11 46.598 0.155 7.5 2.08 11.67
4/2/2021 8:30:00 PM 8.05 46.49 0.155 7.49 1.47 11.64
4/2/2021 8:45:00 PM 7.99 46.382 0.155 7.47 1.49 11.63
4/2/2021 9:00:00 PM 7.94 46.292 0.155 7.48 1.75 11.61
4/2/2021 9:15:00 PM 7.87 46.166 0.155 7.46 1.84 11.6
4/2/2021 9:30:00 PM 7.82 46.076 0.155 7.45 1.56 11.59
4/2/2021 9:45:00 PM 7.74 45.932 0.155 7.44 2.23 11.6
4/2/2021 10:00:00 PM 7.67 45.806 0.155 7.43 1.86 11.6
4/2/2021 10:15:00 PM 7.59 45.662 0.155 7.44 1.68 11.62
4/2/2021 10:30:00 PM 7.52 45.536 0.155 7.43 1.95 11.63
4/2/2021 10:45:00 PM 7.44 45.392 0.155 7.42 1.92 11.64
4/2/2021 11:00:00 PM 7.36 45.248 0.155 7.42 1.69 11.64
4/2/2021 11:15:00 PM 7.29 45.122 0.155 7.41 4.47 11.66
4/2/2021 11:30:00 PM 7.22 44.996 0.155 7.41 5.26 11.67
4/2/2021 11:45:00 PM 7.14 44.852 0.156 7.4 3.03 11.7
4/3/2021 12:00:00 AM 7.07 44.726 0.156 7.39 2.76 11.72
4/3/2021 12:15:00 AM 7.01 44.618 0.156 7.38 2.61 11.73
4/3/2021 12:30:00 AM 6.94 44.492 0.156 7.38 3.03 11.76
4/3/2021 12:45:00 AM 6.88 44.384 0.156 7.38 2.06 11.75
4/3/2021 1:00:00 AM 6.82 44.276 0.156 7.38 3.69 11.78
4/3/2021 1:15:00 AM 6.76 44.168 0.156 7.37 2.29 11.81
4/3/2021 1:30:00 AM 6.7 44.06 0.156 7.37 2.98 11.82
4/3/2021 1:45:00 AM 6.63 43.934 0.156 7.36 3.54 11.85
4/3/2021 2:00:00 AM 6.57 43.826 0.156 7.36 2.67 11.87
4/3/2021 2:15:00 AM 6.5 43.7 0.156 7.35 1.83 11.89
4/3/2021 2:30:00 AM 6.43 43.574 0.156 7.36 1.45 11.92
4/3/2021 2:45:00 AM 6.37 43.466 0.156 7.36 1.83 11.95
4/3/2021 3:00:00 AM 6.29 43.322 0.156 7.35 1.5 11.96
4/3/2021 3:15:00 AM 6.21 43.178 0.156 7.35 2.65 12.01
4/3/2021 3:30:00 AM 6.13 43.034 0.156 7.35 2.35 12.03
4/3/2021 3:45:00 AM 6.06 42.908 0.157 7.35 1.85 12.06
4/3/2021 4:00:00 AM 5.99 42.782 0.157 7.35 1.86 12.1
4/3/2021 4:15:00 AM 5.91 42.638 0.157 7.35 1.7 12.1
4/3/2021 4:30:00 AM 5.83 42.494 0.157 7.35 2.04 12.15
4/3/2021 4:45:00 AM 5.74 42.332 0.157 7.35 2.27 12.18
4/3/2021 5:00:00 AM 5.66 42.188 0.157 7.34 1.65 12.22
4/3/2021 5:15:00 AM 5.58 42.044 0.157 7.35 1.76 12.24
4/3/2021 5:30:00 AM 5.5 41.9 0.157 7.35 2.09 12.28
4/3/2021 5:45:00 AM 5.42 41.756 0.157 7.34 1.81 12.32
4/3/2021 6:00:00 AM 5.33 41.594 0.157 7.35 1.87 12.35
4/3/2021 6:15:00 AM 5.26 41.468 0.157 7.34 2.9 12.37
4/3/2021 6:30:00 AM 5.18 41.324 0.157 7.35 1.87 12.41
4/3/2021 6:45:00 AM 5.1 41.18 0.158 7.34 2.22 12.44
4/3/2021 7:00:00 AM 5.03 41.054 0.158 7.34 1.84 12.48
4/3/2021 7:15:00 AM 4.96 40.928 0.158 7.34 1.46 12.51
4/3/2021 7:30:00 AM 4.89 40.802 0.157 7.34 1.39 12.56
4/3/2021 7:45:00 AM 4.82 40.676 0.158 7.35 1.66 12.62
4/3/2021 8:00:00 AM 4.76 40.568 0.157 7.35 1.81 12.68
4/3/2021 8:15:00 AM 4.7 40.46 0.158 7.35 3.08 12.75
4/3/2021 8:30:00 AM 4.66 40.388 0.158 7.36 4.42 12.79
4/3/2021 8:45:00 AM 4.63 40.334 0.158 7.36 1.49 12.87
4/3/2021 9:00:00 AM 4.61 40.298 0.158 7.36 1.58 12.92
4/3/2021 9:15:00 AM 4.61 40.298 0.158 7.36 1.44 12.96
4/3/2021 9:30:00 AM 4.64 40.352 0.158 7.37 1.34 13.02
4/3/2021 9:45:00 AM 4.67 40.406 0.158 7.37 2.08 13.07
4/3/2021 10:00:00 AM 4.72 40.496 0.157 7.39 2.55 13.11
4/3/2021 10:15:00 AM 4.82 40.676 0.157 7.38 2.07 13.13
4/3/2021 10:30:00 AM 4.96 40.928 0.157 7.39 2.04 13.18
4/3/2021 10:45:00 AM 5.16 41.288 0.157 7.39 2.24 13.18
4/3/2021 11:00:00 AM 5.39 41.702 0.157 7.39 3.15 13.21
4/3/2021 11:15:00 AM 5.64 42.152 0.157 7.41 2.12 13.22
4/3/2021 11:30:00 AM 5.92 42.656 0.157 7.41 1.87 13.21
4/3/2021 11:45:00 AM 6.21 43.178 0.156 7.4 2.95 13.16
4/3/2021 12:00:00 PM 6.5 43.7 0.156 7.41 1.54 13.12
4/3/2021 12:15:00 PM 6.85 44.33 0.156 7.42 2.1 13.09
4/3/2021 12:30:00 PM 7.22 44.996 0.156 7.42 1.92 13.04
4/3/2021 12:45:00 PM 7.61 45.698 0.156 7.43 4.35 12.97
4/3/2021 1:00:00 PM 7.93 46.274 0.156 7.44 2.14 12.91
4/3/2021 1:15:00 PM 8.31 46.958 0.156 7.43 1.89 12.83
4/3/2021 1:30:00 PM 8.66 47.588 0.156 7.44 2.25 12.76
4/3/2021 1:45:00 PM 8.95 48.11 0.156 7.44 1.64 12.65
4/3/2021 2:00:00 PM 9.23 48.614 0.156 7.45 1.93 12.63
4/3/2021 2:15:00 PM 9.51 49.118 0.155 7.44 2.26 12.56
4/3/2021 2:30:00 PM 9.73 49.514 0.155 7.45 1.35 12.5
4/3/2021 2:45:00 PM 9.96 49.928 0.155 7.45 1.84 12.43
4/3/2021 3:00:00 PM 10.11 50.198 0.155 7.46 1.28 12.37
4/3/2021 3:15:00 PM 10.23 50.414 0.155 7.46 1.36 12.33
4/3/2021 3:30:00 PM 10.27 50.486 0.155 7.49 6.77 12.25
4/3/2021 3:45:00 PM 10.33 50.594 0.155 7.49 1.7 12.23
4/3/2021 4:00:00 PM 10.33 50.594 0.155 7.49 2.4 12.17
4/3/2021 4:15:00 PM 10.32 50.576 0.155 7.5 2.15 12.13
4/3/2021 4:30:00 PM 10.29 50.522 0.155 7.51 1.25 12.07
4/3/2021 4:45:00 PM 10.24 50.432 0.155 7.51 2.53 12.04
4/3/2021 5:00:00 PM 10.18 50.324 0.155 7.51 2.22 11.96
4/3/2021 5:15:00 PM 10.11 50.198 0.155 7.52 5.71 11.93
4/3/2021 5:30:00 PM 10.07 50.126 0.155 7.52 3.03 11.87
4/3/2021 5:45:00 PM 10.01 50.018 0.155 7.52 1.3 11.83
4/3/2021 6:00:00 PM 9.93 49.874 0.155 7.52 2.22 11.79
4/3/2021 6:15:00 PM 9.86 49.748 0.155 7.52 1.92 11.72
4/3/2021 6:30:00 PM 9.78 49.604 0.155 7.52 1.24 11.68
4/3/2021 6:45:00 PM 9.68 49.424 0.155 7.51 2.06 11.64
4/3/2021 7:00:00 PM 9.59 49.262 0.155 7.51 2.3 11.6
4/3/2021 7:15:00 PM 9.5 49.1 0.155 7.5 1.12 11.55
4/3/2021 7:30:00 PM 9.41 48.938 0.155 7.5 1.9 11.51
4/3/2021 7:45:00 PM 9.33 48.794 0.155 7.49 1.66 11.46
4/3/2021 8:00:00 PM 9.25 48.65 0.155 7.48 1.61 11.4
4/3/2021 8:15:00 PM 9.18 48.524 0.155 7.48 1.96 11.37
4/3/2021 8:30:00 PM 9.12 48.416 0.155 7.47 1.28 11.35
4/3/2021 8:45:00 PM 9.06 48.308 0.155 7.46 2.22 11.32
4/3/2021 9:00:00 PM 9 48.2 0.155 7.45 1.35 11.3
4/3/2021 9:15:00 PM 8.95 48.11 0.155 7.44 1.72 11.28
4/3/2021 9:30:00 PM 8.89 48.002 0.155 7.43 1.24 11.29
4/3/2021 9:45:00 PM 8.84 47.912 0.155 7.42 1.91 11.26
4/3/2021 10:00:00 PM 8.79 47.822 0.155 7.43 1.43 11.26
4/3/2021 10:15:00 PM 8.72 47.696 0.155 7.42 1.18 11.25
4/3/2021 10:30:00 PM 8.67 47.606 0.155 7.4 1.57 11.27
4/3/2021 10:45:00 PM 8.62 47.516 0.155 7.4 1.94 11.25
4/3/2021 11:00:00 PM 8.57 47.426 0.155 7.39 2.79 11.28
4/3/2021 11:15:00 PM 8.53 47.354 0.155 7.38 1.58 11.27
4/3/2021 11:30:00 PM 8.49 47.282 0.155 7.38 2.2 11.27
4/3/2021 11:45:00 PM 8.47 47.246 0.155 7.37 2.08 11.24
4/4/2021 12:00:00 AM 8.44 47.192 0.156 7.37 1.43 11.29
4/4/2021 12:15:00 AM 8.42 47.156 0.156 7.36 2.95 11.28
4/4/2021 12:30:00 AM 8.39 47.102 0.156 7.36 2.02 11.29
4/4/2021 12:45:00 AM 8.38 47.084 0.156 7.35 2.42 11.29
4/4/2021 1:00:00 AM 8.36 47.048 0.156 7.34 2.93 11.29
4/4/2021 1:15:00 AM 8.35 47.03 0.156 7.35 2.55 11.29
4/4/2021 1:30:00 AM 8.34 47.012 0.156 7.35 2.32 11.3
4/4/2021 1:45:00 AM 8.32 46.976 0.156 7.34 2.09 11.29
4/4/2021 2:00:00 AM 8.31 46.958 0.156 7.33 3.26 11.29
4/4/2021 2:15:00 AM 8.29 46.922 0.156 7.33 2.44 11.31
4/4/2021 2:30:00 AM 8.27 46.886 0.156 7.33 3.97 11.31
4/4/2021 2:45:00 AM 8.25 46.85 0.156 7.33 2.32 11.32
4/4/2021 3:00:00 AM 8.23 46.814 0.156 7.32 2.72 11.33
4/4/2021 3:15:00 AM 8.2 46.76 0.156 7.32 2.7 11.33
4/4/2021 3:30:00 AM 8.17 46.706 0.156 7.32 2.15 11.36
4/4/2021 3:45:00 AM 8.14 46.652 0.156 7.32 3.04 11.36
4/4/2021 4:00:00 AM 8.1 46.58 0.156 7.31 2.51 11.37
4/4/2021 4:15:00 AM 8.07 46.526 0.157 7.31 1.93 11.39
4/4/2021 4:30:00 AM 8.03 46.454 0.157 7.31 2.13 11.39
4/4/2021 4:45:00 AM 8 46.4 0.157 7.31 3.01 11.41
4/4/2021 5:00:00 AM 7.96 46.328 0.157 7.3 1.85 11.41
4/4/2021 5:15:00 AM 7.92 46.256 0.157 7.31 6.14 11.43
4/4/2021 5:30:00 AM 7.88 46.184 0.157 7.31 3.1 11.44
4/4/2021 5:45:00 AM 7.83 46.094 0.157 7.32 1.83 11.45
4/4/2021 6:00:00 AM 7.78 46.004 0.157 7.31 1.89 11.46
4/4/2021 6:15:00 AM 7.74 45.932 0.157 7.31 2.53 11.48
4/4/2021 6:30:00 AM 7.7 45.86 0.15 7.3 2.97 11.49
4/4/2021 6:45:00 AM 7.67 45.806 0.15 7.31 1.55 11.51
4/4/2021 7:00:00 AM 7.63 45.734 0.15 7.3 3.99 11.5
4/4/2021 7:15:00 AM 7.59 45.662 0.157 7.3 1.89 11.55
4/4/2021 7:30:00 AM 7.56 45.608 0.153 7.3 1.82 11.57
4/4/2021 7:45:00 AM 7.53 45.554 0.155 7.3 3.01 11.6
4/4/2021 8:00:00 AM 7.51 45.518 0.156 7.31 1.85 11.66
4/4/2021 8:15:00 AM 7.5 45.5 0.157 7.31 1.69 11.72
4/4/2021 8:30:00 AM 7.5 45.5 0.157 7.32 1.67 11.77
4/4/2021 8:45:00 AM 7.5 45.5 0.157 7.32 1.63 11.82
4/4/2021 9:00:00 AM 7.51 45.518 0.158 7.32 1.97 11.87
4/4/2021 9:15:00 AM 7.51 45.518 0.157 7.33 1.74 11.93
4/4/2021 9:30:00 AM 7.51 45.518 0.157 7.33 1.54 11.98
4/4/2021 9:45:00 AM 7.54 45.572 0.158 7.35 1.75 12.02
4/4/2021 10:00:00 AM 7.61 45.698 0.158 7.35 2.21 12.08
4/4/2021 10:15:00 AM 7.72 45.896 0.158 7.36 2.89 12.1
4/4/2021 10:30:00 AM 7.85 46.13 0.157 7.37 2.66 12.14
4/4/2021 10:45:00 AM 8.02 46.436 0.157 7.38 1.18 12.16
4/4/2021 11:00:00 AM 8.25 46.85 0.157 7.38 2.37 12.18
4/4/2021 11:15:00 AM 8.5 47.3 0.156 7.4 1.35 12.18
4/4/2021 11:30:00 AM 8.76 47.768 0.155 7.41 1.88 12.18
4/4/2021 11:45:00 AM 9.05 48.29 0.155 7.41 1.53 12.17
4/4/2021 12:00:00 PM 9.35 48.83 0.155 7.42 1.88 12.14
4/4/2021 12:15:00 PM 9.71 49.478 0.151 7.44 1.57 12.1
4/4/2021 12:30:00 PM 10.06 50.108 0.149 7.43 1.76 12.07
4/4/2021 12:45:00 PM 10.43 50.774 0.149 7.43 1.62 12.03
4/4/2021 1:00:00 PM 10.77 51.386 0.149 7.45 1.54 11.98
4/4/2021 1:15:00 PM 11.16 52.088 0.149 7.45 1.77 11.91
4/4/2021 1:30:00 PM 11.47 52.646 0.15 7.47 2.43 11.85
4/4/2021 1:45:00 PM 11.85 53.33 0.15 7.46 1.74 11.79
4/4/2021 2:00:00 PM 12.2 53.96 0.15 7.48 2.89 11.74
4/4/2021 2:15:00 PM 12.5 54.5 0.152 7.47 1.67 11.68
4/4/2021 2:30:00 PM 12.77 54.986 0.152 7.48 1.48 11.59
4/4/2021 2:45:00 PM 12.96 55.328 0.154 7.49 2.94 11.55
4/4/2021 3:00:00 PM 13.11 55.598 0.155 7.5 1.96 11.49
4/4/2021 3:15:00 PM 13.19 55.742 0.155 7.5 1.67 11.43
4/4/2021 3:30:00 PM 13.31 55.958 0.155 7.52 1.51 11.37
4/4/2021 3:45:00 PM 13.32 55.976 0.155 7.53 1.19 11.3
4/4/2021 4:00:00 PM 13.32 55.976 0.155 7.53 1.1 11.26
4/4/2021 4:15:00 PM 13.34 56.012 0.155 7.54 1.94 11.19
4/4/2021 4:30:00 PM 13.31 55.958 0.155 7.55 1.97 11.13
4/4/2021 4:45:00 PM 13.29 55.922 0.155 7.56 1.17 11.09
4/4/2021 5:00:00 PM 13.23 55.814 0.155 7.56 7.46 11.07
4/4/2021 5:15:00 PM 13.15 55.67 0.155 7.57 2.25 11
4/4/2021 5:30:00 PM 13.06 55.508 0.155 7.57 1.13 10.94
4/4/2021 5:45:00 PM 13.04 55.472 0.148 7.57 2.11 10.89
4/4/2021 6:00:00 PM 12.98 55.364 0.152 7.56 1.56 10.85
4/4/2021 6:15:00 PM 12.93 55.274 0.149 7.56 1.16 10.8
4/4/2021 6:30:00 PM 12.88 55.184 0.15 7.56 1.74 10.74
4/4/2021 6:45:00 PM 12.8 55.04 0.155 7.55 1.49 10.68
4/4/2021 7:00:00 PM 12.71 54.878 0.157 7.55 1.95 10.63
4/4/2021 7:15:00 PM 12.61 54.698 0.152 7.53 1.71 10.59
4/4/2021 7:30:00 PM 12.52 54.536 0.152 7.53 1.65 10.52
4/4/2021 7:45:00 PM 12.44 54.392 0.154 7.52 2.74 10.46
4/4/2021 8:00:00 PM 12.37 54.266 0.146 7.5 2.55 10.41
4/4/2021 8:15:00 PM 12.3 54.14 0.154 7.49 2.2 10.37
4/4/2021 8:30:00 PM 12.23 54.014 0.154 7.47 1.45 10.33
4/4/2021 8:45:00 PM 12.16 53.888 0.154 7.46 1.7 10.31
4/4/2021 9:00:00 PM 12.08 53.744 0.154 7.44 1.88 10.28
4/4/2021 9:15:00 PM 12.01 53.618 0.154 7.43 1.73 10.27
4/4/2021 9:30:00 PM 11.94 53.492 0.154 7.42 1.55 10.27
4/4/2021 9:45:00 PM 11.86 53.348 0.154 7.41 2.66 10.27
4/4/2021 10:00:00 PM 11.78 53.204 0.154 7.4 2.16 10.26
4/4/2021 10:15:00 PM 11.7 53.06 0.154 7.4 3.79 10.26
4/4/2021 10:30:00 PM 11.62 52.916 0.155 7.38 2.39 10.25
4/4/2021 10:45:00 PM 11.53 52.754 0.155 7.38 3.22 10.27
4/4/2021 11:00:00 PM 11.45 52.61 0.155 7.37 3.48 10.26
4/4/2021 11:15:00 PM 11.37 52.466 0.155 7.36 4.03 10.28
4/4/2021 11:30:00 PM 11.28 52.304 0.155 7.35 4.14 10.29
4/4/2021 11:45:00 PM 11.21 52.178 0.155 7.34 6.15 10.31
4/5/2021 12:00:00 AM 11.13 52.034 0.155 7.34 4.48 10.32
4/5/2021 12:15:00 AM 11.05 51.89 0.155 7.34 3.88 10.34
4/5/2021 12:30:00 AM 10.99 51.782 0.155 7.33 3.68 10.35
4/5/2021 12:45:00 AM 10.92 51.656 0.155 7.33 2.04 10.37
4/5/2021 1:00:00 AM 10.86 51.548 0.155 7.31 3.75 10.37
4/5/2021 1:15:00 AM 10.8 51.44 0.156 7.32 2.95 10.39
4/5/2021 1:30:00 AM 10.74 51.332 0.156 7.32 2.28 10.4
4/5/2021 1:45:00 AM 10.67 51.206 0.156 7.31 3.7 10.41
4/5/2021 2:00:00 AM 10.6 51.08 0.156 7.3 1.84 10.44
4/5/2021 2:15:00 AM 10.53 50.954 0.156 7.3 2.98 10.47
4/5/2021 2:30:00 AM 10.46 50.828 0.156 7.3 1.9 10.47
4/5/2021 2:45:00 AM 10.38 50.684 0.156 7.31 4.13 10.49
4/5/2021 3:00:00 AM 10.3 50.54 0.156 7.31 4.52 10.51
4/5/2021 3:15:00 AM 10.22 50.396 0.156 7.29 3.28 10.54
4/5/2021 3:30:00 AM 10.14 50.252 0.156 7.3 3.31 10.56
4/5/2021 3:45:00 AM 10.04 50.072 0.156 7.29 3.24 10.58
4/5/2021 4:00:00 AM 9.96 49.928 0.156 7.29 2.35 10.63
4/5/2021 4:15:00 AM 9.87 49.766 0.156 7.3 2.05 10.65
4/5/2021 4:30:00 AM 9.77 49.586 0.156 7.3 4.42 10.69
4/5/2021 4:45:00 AM 9.69 49.442 0.157 7.3 4.79 10.71
4/5/2021 5:00:00 AM 9.6 49.28 0.157 7.3 1.99 10.74
4/5/2021 5:15:00 AM 9.51 49.118 0.157 7.3 2.98 10.77
4/5/2021 5:30:00 AM 9.42 48.956 0.157 7.31 2.89 10.79
4/5/2021 5:45:00 AM 9.32 48.776 0.157 7.3 2.27 10.82
4/5/2021 6:00:00 AM 9.23 48.614 0.157 7.3 4.38 10.85
4/5/2021 6:15:00 AM 9.14 48.452 0.157 7.3 5.33 10.88
4/5/2021 6:30:00 AM 9.05 48.29 0.157 7.3 1.55 10.91
4/5/2021 6:45:00 AM 8.95 48.11 0.157 7.3 2.21 10.96
4/5/2021 7:00:00 AM 8.87 47.966 0.157 7.3 2.52 10.98
4/5/2021 7:15:00 AM 8.78 47.804 0.157 7.31 1.77 11.04
4/5/2021 7:30:00 AM 8.7 47.66 0.157 7.3 2.89 11.08
4/5/2021 7:45:00 AM 8.63 47.534 0.157 7.31 2.53 11.14
4/5/2021 8:00:00 AM 8.55 47.39 0.157 7.31 1.18 11.21
4/5/2021 8:15:00 AM 8.48 47.264 0.157 7.31 1.56 11.29
4/5/2021 8:30:00 AM 8.44 47.192 0.157 7.32 5.83 11.33
4/5/2021 8:45:00 AM 8.4 47.12 0.157 7.33 2.09 11.41
4/5/2021 9:00:00 AM 8.38 47.084 0.157 7.33 2.06 11.49
4/5/2021 9:15:00 AM 8.4 47.12 0.157 7.34 1.84 11.55
4/5/2021 9:30:00 AM 8.44 47.192 0.157 7.35 1.86 11.6
4/5/2021 9:45:00 AM 8.49 47.282 0.157 7.36 1.47 11.66
4/5/2021 10:00:00 AM 8.56 47.408 0.157 7.37 2.18 11.71
4/5/2021 10:15:00 AM 8.66 47.588 0.157 7.38 1.85 11.77
4/5/2021 10:30:00 AM 8.8 47.84 0.157 7.38 1.89 11.82
4/5/2021 10:45:00 AM 8.99 48.182 0.157 7.39 1.76 11.86
4/5/2021 11:00:00 AM 9.23 48.614 0.157 7.4 2.11 11.87
4/5/2021 11:15:00 AM 9.47 49.046 0.156 7.41 2.55 11.89
4/5/2021 11:30:00 AM 9.76 49.568 0.156 7.42 1.42 11.9
4/5/2021 11:45:00 AM 10.02 50.036 0.156 7.43 2.23 11.89
4/5/2021 12:00:00 PM 10.31 50.558 0.156 7.44 1.47 11.87
4/5/2021 12:15:00 PM 10.67 51.206 0.156 7.46 1.49 11.84
4/5/2021 12:30:00 PM 11.03 51.854 0.156 7.46 2.1 11.8
4/5/2021 12:45:00 PM 11.41 52.538 0.156 7.46 1.81 11.78
4/5/2021 1:00:00 PM 11.75 53.15 0.156 7.48 6.05 11.72
4/5/2021 1:15:00 PM 12.1 53.78 0.156 7.49 1.66 11.68
4/5/2021 1:30:00 PM 12.46 54.428 0.155 7.5 1.4 11.62
4/5/2021 1:45:00 PM 12.79 55.022 0.155 7.51 5.83 11.56
4/5/2021 2:00:00 PM 13.12 55.616 0.155 7.51 1.28 11.51
4/5/2021 2:15:00 PM 13.39 56.102 0.155 7.52 1.48 11.46
4/5/2021 2:30:00 PM 13.63 56.534 0.155 7.53 2.25 11.4
4/5/2021 2:45:00 PM 13.73 56.714 0.155 7.54 2.54 11.35
4/5/2021 3:00:00 PM 13.83 56.894 0.155 7.55 2.28 11.3
4/5/2021 3:15:00 PM 13.9 57.02 0.155 7.56 2.26 11.24
4/5/2021 3:30:00 PM 14 57.2 0.155 7.57 4.81 11.19
4/5/2021 3:45:00 PM 14.09 57.362 0.155 7.57 1.75 11.16
4/5/2021 4:00:00 PM 14.09 57.362 0.155 7.59 6.59 11.11
4/5/2021 4:15:00 PM 14.06 57.308 0.155 7.6 1.8 11.08
4/5/2021 4:30:00 PM 14.03 57.254 0.155 7.6 1.35 11.04
4/5/2021 4:45:00 PM 14 57.2 0.155 7.6 2.12 11.01
4/5/2021 5:00:00 PM 13.92 57.056 0.155 7.61 7.03 10.92
4/5/2021 5:15:00 PM 13.84 56.912 0.155 7.62 2.63 10.87
4/5/2021 5:30:00 PM 13.79 56.822 0.155 7.61 1.56 10.8
4/5/2021 5:45:00 PM 13.72 56.696 0.155 7.61 1.37 10.78
4/5/2021 6:00:00 PM 13.65 56.57 0.155 7.62 1.67 10.69
4/5/2021 6:15:00 PM 13.56 56.408 0.155 7.61 2.1 10.66
4/5/2021 6:30:00 PM 13.5 56.3 0.154 7.6 2.03 10.61
4/5/2021 6:45:00 PM 13.42 56.156 0.154 7.59 2.43 10.56
4/5/2021 7:00:00 PM 13.34 56.012 0.154 7.58 2.7 10.52
4/5/2021 7:15:00 PM 13.24 55.832 0.154 7.58 1.44 10.48
4/5/2021 7:30:00 PM 13.14 55.652 0.154 7.56 1.36 10.42
4/5/2021 7:45:00 PM 13.05 55.49 0.154 7.55 2.16 10.36
4/5/2021 8:00:00 PM 12.97 55.346 0.154 7.53 1.58 10.29
4/5/2021 8:15:00 PM 12.91 55.238 0.154 7.51 1.24 10.24
4/5/2021 8:30:00 PM 12.86 55.148 0.154 7.5 2.98 10.18
4/5/2021 8:45:00 PM 12.82 55.076 0.154 7.48 2.59 10.16
4/5/2021 9:00:00 PM 12.79 55.022 0.154 7.46 1.83 10.12
4/5/2021 9:15:00 PM 12.75 54.95 0.155 7.45 2.14 10.09
4/5/2021 9:30:00 PM 12.72 54.896 0.155 7.43 2.46 10.09
4/5/2021 9:45:00 PM 12.68 54.824 0.154 7.42 2.6 10.07
4/5/2021 10:00:00 PM 12.64 54.752 0.155 7.4 1.84 10.05
4/5/2021 10:15:00 PM 12.59 54.662 0.155 7.4 1.81 10.05
4/5/2021 10:30:00 PM 12.55 54.59 0.155 7.38 2.32 10.04
4/5/2021 10:45:00 PM 12.49 54.482 0.155 7.38 2.02 10.04
4/5/2021 11:00:00 PM 12.42 54.356 0.155 7.37 2.79 10.04
4/5/2021 11:15:00 PM 12.37 54.266 0.155 7.36 4.78 10.03
4/5/2021 11:30:00 PM 12.32 54.176 0.155 7.35 7.91 10.03
4/5/2021 11:45:00 PM 12.28 54.104 0.155 7.34 5.1 10.03
4/6/2021 12:00:00 AM 12.25 54.05 0.155 7.34 1.66 10.04
4/6/2021 12:15:00 AM 12.22 53.996 0.155 7.33 3.97 10.02
4/6/2021 12:30:00 AM 12.19 53.942 0.155 7.32 2.89 10.04
4/6/2021 12:45:00 AM 12.17 53.906 0.156 7.31 2.12 10.02
4/6/2021 1:00:00 AM 12.15 53.87 0.156 7.31 1.76 10.05
4/6/2021 1:15:00 AM 12.13 53.834 0.156 7.31 3.68 10.04
4/6/2021 1:30:00 AM 12.11 53.798 0.156 7.3 3.16 10.04
4/6/2021 1:45:00 AM 12.08 53.744 0.156 7.3 2.02 10.04
4/6/2021 2:00:00 AM 12.06 53.708 0.156 7.29 2.19 10.04
4/6/2021 2:15:00 AM 12.04 53.672 0.156 7.3 1.51 10.05
4/6/2021 2:30:00 AM 12.02 53.636 0.156 7.29 2.94 10.05
4/6/2021 2:45:00 AM 12 53.6 0.156 7.28 2.08 10.07
4/6/2021 3:00:00 AM 11.98 53.564 0.156 7.28 4.27 10.07
4/6/2021 3:15:00 AM 11.95 53.51 0.156 7.28 2.25 10.08
4/6/2021 3:30:00 AM 11.92 53.456 0.156 7.28 3.14 10.09
4/6/2021 3:45:00 AM 11.89 53.402 0.156 7.27 3.11 10.11
4/6/2021 4:00:00 AM 11.86 53.348 0.156 7.28 2.1 10.12
4/6/2021 4:15:00 AM 11.83 53.294 0.157 7.27 2.38 10.13
4/6/2021 4:30:00 AM 11.78 53.204 0.157 7.28 2.57 10.15
4/6/2021 4:45:00 AM 11.72 53.096 0.157 7.27 2.47 10.16
4/6/2021 5:00:00 AM 11.65 52.97 0.157 7.27 4.6 10.17
4/6/2021 5:15:00 AM 11.58 52.844 0.157 7.27 2.44 10.18
4/6/2021 5:30:00 AM 11.51 52.718 0.157 7.28 3.31 10.21
4/6/2021 5:45:00 AM 11.43 52.574 0.157 7.27 2.34 10.23
4/6/2021 6:00:00 AM 11.35 52.43 0.157 7.27 1.75 10.24
4/6/2021 6:15:00 AM 11.27 52.286 0.157 7.27 2.38 10.28
4/6/2021 6:30:00 AM 11.19 52.142 0.157 7.28 2.35 10.27
4/6/2021 6:45:00 AM 11.09 51.962 0.157 7.27 1.85 10.31
4/6/2021 7:00:00 AM 11.01 51.818 0.158 7.27 1.8 10.33
4/6/2021 7:15:00 AM 10.93 51.674 0.158 7.27 2.82 10.38
4/6/2021 7:30:00 AM 10.85 51.53 0.158 7.29 3.68 10.42
4/6/2021 7:45:00 AM 10.78 51.404 0.158 7.28 3.47 10.48
4/6/2021 8:00:00 AM 10.7 51.26 0.158 7.29 2.08 10.54
4/6/2021 8:15:00 AM 10.65 51.17 0.158 7.3 2.44 10.62
4/6/2021 8:30:00 AM 10.61 51.098 0.158 7.3 2.35 10.68
4/6/2021 8:45:00 AM 10.57 51.026 0.158 7.31 4.8 10.75
4/6/2021 9:00:00 AM 10.56 51.008 0.158 7.32 2.38 10.82
4/6/2021 9:15:00 AM 10.56 51.008 0.158 7.33 2.33 10.92
4/6/2021 9:30:00 AM 10.59 51.062 0.158 7.34 2.63 10.97
4/6/2021 9:45:00 AM 10.64 51.152 0.158 7.36 2.14 11.05
4/6/2021 10:00:00 AM 10.75 51.35 0.157 7.36 2.03 11.12
4/6/2021 10:15:00 AM 10.91 51.638 0.157 7.38 1.96 11.22
4/6/2021 10:30:00 AM 11.02 51.836 0.157 7.4 1.96 11.26
4/6/2021 10:45:00 AM 11.12 52.016 0.157 7.41 0.85 11.3
4/6/2021 11:00:00 AM 11.3 52.34 0.157 7.41 1.59 11.32
4/6/2021 11:15:00 AM 11.52 52.736 0.157 7.44 1.56 11.32
4/6/2021 11:30:00 AM 11.78 53.204 0.157 7.45 1.76 11.35
4/6/2021 11:45:00 AM 12.02 53.636 0.157 7.46 1.81 11.36
4/6/2021 12:00:00 PM 12.26 54.068 0.157 7.47 3.12 11.35
4/6/2021 12:15:00 PM 12.57 54.626 0.157 7.49 2.65 11.35
4/6/2021 12:30:00 PM 12.92 55.256 0.157 7.49 2.11 11.31
4/6/2021 12:45:00 PM 13.24 55.832 0.157 7.51 1.75 11.28
4/6/2021 1:00:00 PM 13.59 56.462 0.156 7.53 1.83 11.25
4/6/2021 1:15:00 PM 13.94 57.092 0.156 7.54 1.9 11.22
4/6/2021 1:30:00 PM 14.3 57.74 0.156 7.54 1.45 11.18
4/6/2021 1:45:00 PM 14.64 58.352 0.156 7.56 1.53 11.13
4/6/2021 2:00:00 PM 14.96 58.928 0.156 7.57 1.92 11.08
4/6/2021 2:15:00 PM 15.24 59.432 0.156 7.58 2.38 11.02
4/6/2021 2:30:00 PM 15.47 59.846 0.156 7.59 1.21 10.99
4/6/2021 2:45:00 PM 15.66 60.188 0.156 7.6 1.81 10.95
4/6/2021 3:00:00 PM 15.77 60.386 0.156 7.62 2.87 10.89
4/6/2021 3:15:00 PM 15.9 60.62 0.156 7.63 1.93 10.83
4/6/2021 3:30:00 PM 15.98 60.764 0.156 7.64 4.19 10.8
4/6/2021 3:45:00 PM 16.04 60.872 0.156 7.64 3.42 10.74
4/6/2021 4:00:00 PM 16.05 60.89 0.156 7.67 2.52 10.7
4/6/2021 4:15:00 PM 16.03 60.854 0.155 7.67 7.23 10.64
4/6/2021 4:30:00 PM 15.97 60.746 0.155 7.68 2.23 10.6
4/6/2021 4:45:00 PM 15.92 60.656 0.155 7.68 2.46 10.57
4/6/2021 5:00:00 PM 15.82 60.476 0.155 7.69 1.62 10.52
4/6/2021 5:15:00 PM 15.74 60.332 0.156 7.69 1.32 10.46
4/6/2021 5:30:00 PM 15.66 60.188 0.155 7.68 1.8 10.39
4/6/2021 5:45:00 PM 15.58 60.044 0.156 7.69 3.46 10.32
4/6/2021 6:00:00 PM 15.49 59.882 0.155 7.67 2.64 10.27
4/6/2021 6:15:00 PM 15.4 59.72 0.155 7.67 1.57 10.23
4/6/2021 6:30:00 PM 15.3 59.54 0.155 7.66 1.8 10.16
4/6/2021 6:45:00 PM 15.19 59.342 0.155 7.64 2.05 10.09
4/6/2021 7:00:00 PM 15.08 59.144 0.155 7.63 2.53 10.04
4/6/2021 7:15:00 PM 14.97 58.946 0.155 7.61 1.67 9.98
4/6/2021 7:30:00 PM 14.85 58.73 0.155 7.59 3.72 9.92
4/6/2021 7:45:00 PM 14.75 58.55 0.155 7.57 1.16 9.85
4/6/2021 8:00:00 PM 14.64 58.352 0.155 7.55 1.87 9.81
4/6/2021 8:15:00 PM 14.55 58.19 0.155 7.54 2.47 9.76
4/6/2021 8:30:00 PM 14.47 58.046 0.155 7.51 1.76 9.72
4/6/2021 8:45:00 PM 14.38 57.884 0.155 7.5 1.87 9.7
4/6/2021 9:00:00 PM 14.31 57.758 0.155 7.47 3.11 9.67
4/6/2021 9:15:00 PM 14.24 57.632 0.155 7.46 2.55 9.66
4/6/2021 9:30:00 PM 14.16 57.488 0.155 7.44 2.14 9.63
4/6/2021 9:45:00 PM 14.08 57.344 0.155 7.42 5.62 9.63
4/6/2021 10:00:00 PM 13.99 57.182 0.155 7.41 2.64 9.61
4/6/2021 10:15:00 PM 13.91 57.038 0.155 7.4 3.31 9.62
4/6/2021 10:30:00 PM 13.83 56.894 0.156 7.39 2.86 9.62
4/6/2021 10:45:00 PM 13.74 56.732 0.156 7.38 2.99 9.63
4/6/2021 11:00:00 PM 13.66 56.588 0.156 7.37 2.02 9.65
4/6/2021 11:15:00 PM 13.58 56.444 0.156 7.35 3.32 9.64
4/6/2021 11:30:00 PM 13.5 56.3 0.156 7.35 3.19 9.66
4/6/2021 11:45:00 PM 13.44 56.192 0.156 7.34 2.46 9.66
4/7/2021 12:00:00 AM 13.38 56.084 0.156 7.34 1.88 9.68
4/7/2021 12:15:00 AM 13.32 55.976 0.156 7.32 2.25 9.68
4/7/2021 12:30:00 AM 13.27 55.886 0.156 7.32 2.13 9.69
4/7/2021 12:45:00 AM 13.22 55.796 0.156 7.32 2.23 9.7
4/7/2021 1:00:00 AM 13.18 55.724 0.157 7.31 2.04 9.71
4/7/2021 1:15:00 AM 13.14 55.652 0.157 7.31 1.43 9.73
4/7/2021 1:30:00 AM 13.11 55.598 0.156 7.3 2.08 9.73
4/7/2021 1:45:00 AM 13.08 55.544 0.157 7.29 3.14 9.73
4/7/2021 2:00:00 AM 13.04 55.472 0.157 7.29 2.57 9.75
4/7/2021 2:15:00 AM 13.01 55.418 0.157 7.29 2.51 9.76
4/7/2021 2:30:00 AM 12.96 55.328 0.157 7.29 2.9 9.75
4/7/2021 2:45:00 AM 12.91 55.238 0.157 7.28 2.36 9.76
4/7/2021 3:00:00 AM 12.85 55.13 0.157 7.28 2.92 9.78
4/7/2021 3:15:00 AM 12.79 55.022 0.157 7.28 4.68 9.82
4/7/2021 3:30:00 AM 12.72 54.896 0.157 7.28 2.26 9.82
4/7/2021 3:45:00 AM 12.66 54.788 0.157 7.27 2.54 9.83
4/7/2021 4:00:00 AM 12.6 54.68 0.157 7.28 2.53 9.83
4/7/2021 4:15:00 AM 12.55 54.59 0.157 7.27 2.56 9.86
4/7/2021 4:30:00 AM 12.49 54.482 0.157 7.28 4.2 9.89
4/7/2021 4:45:00 AM 12.43 54.374 0.158 7.26 2.7 9.9
4/7/2021 5:00:00 AM 12.37 54.266 0.158 7.27 2.41 9.92
4/7/2021 5:15:00 AM 12.3 54.14 0.158 7.27 4.53 9.95
4/7/2021 5:30:00 AM 12.23 54.014 0.158 7.27 7.04 9.96
4/7/2021 5:45:00 AM 12.14 53.852 0.158 7.27 2.11 9.99
4/7/2021 6:00:00 AM 12.07 53.726 0.158 7.27 2.39 10
4/7/2021 6:15:00 AM 11.99 53.582 0.158 7.26 3.16 10
4/7/2021 6:30:00 AM 11.91 53.438 0.159 7.27 2.77 10.03
4/7/2021 6:45:00 AM 11.83 53.294 0.159 7.26 2.77 10.07
4/7/2021 7:00:00 AM 11.77 53.186 0.159 7.27 3.52 10.1
4/7/2021 7:15:00 AM 11.7 53.06 0.159 7.26 2.36 10.13
4/7/2021 7:30:00 AM 11.65 52.97 0.159 7.26 2.08 10.19
4/7/2021 7:45:00 AM 11.61 52.898 0.159 7.27 1.52 10.24
4/7/2021 8:00:00 AM 11.57 52.826 0.159 7.27 2.38 10.3
4/7/2021 8:15:00 AM 11.55 52.79 0.159 7.28 1.7 10.4
4/7/2021 8:30:00 AM 11.55 52.79 0.159 7.28 1.73 10.51
4/7/2021 8:45:00 AM 11.55 52.79 0.159 7.29 2.31 10.59
4/7/2021 9:00:00 AM 11.55 52.79 0.159 7.31 2.05 10.67
4/7/2021 9:15:00 AM 11.57 52.826 0.159 7.31 2.06 10.75
4/7/2021 9:30:00 AM 11.64 52.952 0.159 7.32 2.1 10.85
4/7/2021 9:45:00 AM 11.72 53.096 0.159 7.34 1.56 10.93
4/7/2021 10:00:00 AM 11.77 53.186 0.159 7.36 1.89 11
4/7/2021 10:15:00 AM 11.83 53.294 0.158 7.38 1.71 11.05
4/7/2021 10:30:00 AM 11.93 53.474 0.158 7.4 1.41 11.09
4/7/2021 10:45:00 AM 12.06 53.708 0.158 7.42 2.47 11.13
4/7/2021 11:00:00 AM 12.19 53.942 0.158 7.43 1.75 11.16
4/7/2021 11:15:00 AM 12.36 54.248 0.158 7.44 1.91 11.18
4/7/2021 11:30:00 AM 12.57 54.626 0.158 7.46 2.57 11.2
4/7/2021 11:45:00 AM 12.81 55.058 0.158 7.46 13.61 11.19
4/7/2021 12:00:00 PM 13.03 55.454 0.158 7.48 1.56 11.21
4/7/2021 12:15:00 PM 13.34 56.012 0.158 7.5 3.85 11.2
4/7/2021 12:30:00 PM 13.64 56.552 0.158 7.51 1.8 11.2
4/7/2021 12:45:00 PM 13.95 57.11 0.158 7.53 2.24 11.18
4/7/2021 1:00:00 PM 14.2 57.56 0.158 7.53 2.58 11.16
4/7/2021 1:15:00 PM 14.47 58.046 0.158 7.55 2.06 11.12
4/7/2021 1:30:00 PM 14.77 58.586 0.157 7.55 2.54 11.1
4/7/2021 1:45:00 PM 15.14 59.252 0.157 7.56 1.52 11.06
4/7/2021 2:00:00 PM 15.44 59.792 0.157 7.59 1.8 11.01
4/7/2021 2:15:00 PM 15.77 60.386 0.157 7.59 1.89 10.96
4/7/2021 2:30:00 PM 16 60.8 0.157 7.6 2.57 10.92
4/7/2021 2:45:00 PM 16.26 61.268 0.157 7.61 2 10.87
4/7/2021 3:00:00 PM 16.42 61.556 0.157 7.63 1.91 10.82
4/7/2021 3:15:00 PM 16.53 61.754 0.157 7.65 1.68 10.76
4/7/2021 3:30:00 PM 16.61 61.898 0.157 7.65 2.16 10.72
4/7/2021 3:45:00 PM 16.69 62.042 0.157 7.66 2.23 10.67
4/7/2021 4:00:00 PM 16.74 62.132 0.157 7.66 1.88 10.62
4/7/2021 4:15:00 PM 16.7 62.06 0.157 7.67 8.21 10.54
4/7/2021 4:30:00 PM 16.69 62.042 0.157 7.68 1.74 10.46
4/7/2021 4:45:00 PM 16.7 62.06 0.157 7.69 1.95 10.42
4/7/2021 5:00:00 PM 16.65 61.97 0.157 7.7 1.99 10.38
4/7/2021 5:15:00 PM 16.57 61.826 0.156 7.7 2.07 10.3
4/7/2021 5:30:00 PM 16.51 61.718 0.156 7.69 3.19 10.22
4/7/2021 5:45:00 PM 16.44 61.592 0.156 7.69 2.01 10.15
4/7/2021 6:00:00 PM 16.35 61.43 0.156 7.69 2.56 10.09
4/7/2021 6:15:00 PM 16.26 61.268 0.156 7.69 1.54 10.03
4/7/2021 6:30:00 PM 16.18 61.124 0.156 7.66 3.56 9.95
4/7/2021 6:45:00 PM 16.09 60.962 0.156 7.66 2.23 9.9
4/7/2021 7:00:00 PM 16.01 60.818 0.156 7.64 1.6 9.81
4/7/2021 7:15:00 PM 15.9 60.62 0.156 7.62 1.43 9.77
4/7/2021 7:30:00 PM 15.78 60.404 0.156 7.6 3.68 9.68
4/7/2021 7:45:00 PM 15.67 60.206 0.156 7.58 2.36 9.61
4/7/2021 8:00:00 PM 15.56 60.008 0.156 7.56 2.82 9.59
4/7/2021 8:15:00 PM 15.47 59.846 0.156 7.54 1.54 9.52
4/7/2021 8:30:00 PM 15.39 59.702 0.156 7.51 2.74 9.47
4/7/2021 8:45:00 PM 15.33 59.594 0.156 7.5 2.79 9.45
4/7/2021 9:00:00 PM 15.27 59.486 0.156 7.48 2.25 9.42
4/7/2021 9:15:00 PM 15.2 59.36 0.156 7.46 1.93 9.4
4/7/2021 9:30:00 PM 15.14 59.252 0.155 7.45 2.44 9.37
4/7/2021 9:45:00 PM 15.06 59.108 0.156 7.42 1.66 9.38
4/7/2021 10:00:00 PM 15 59 0.156 7.41 1.92 9.36
4/7/2021 10:15:00 PM 14.94 58.892 0.156 7.39 2.54 9.36
4/7/2021 10:30:00 PM 14.87 58.766 0.156 7.39 2.87 9.36
4/7/2021 10:45:00 PM 14.79 58.622 0.156 7.37 3.4 9.36
4/7/2021 11:00:00 PM 14.7 58.46 0.156 7.36 2.77 9.34
4/7/2021 11:15:00 PM 14.61 58.298 0.156 7.36 1.91 9.35
4/7/2021 11:30:00 PM 14.52 58.136 0.156 7.34 10.04 9.36
4/7/2021 11:45:00 PM 14.43 57.974 0.156 7.34 5.24 9.38
4/8/2021 12:00:00 AM 14.35 57.83 0.157 7.33 2.3 9.4
4/8/2021 12:15:00 AM 14.28 57.704 0.157 7.33 5.17 9.41
4/8/2021 12:30:00 AM 14.2 57.56 0.157 7.31 2.71 9.43
4/8/2021 12:45:00 AM 14.13 57.434 0.157 7.31 2.94 9.42
4/8/2021 1:00:00 AM 14.07 57.326 0.157 7.3 2.4 9.44
4/8/2021 1:15:00 AM 14 57.2 0.157 7.3 3.49 9.46
4/8/2021 1:30:00 AM 13.94 57.092 0.157 7.3 3.09 9.46
4/8/2021 1:45:00 AM 13.88 56.984 0.157 7.3 3.52 9.48
4/8/2021 2:00:00 AM 13.81 56.858 0.157 7.3 5.8 9.48
4/8/2021 2:15:00 AM 13.76 56.768 0.158 7.29 16.75 9.48
4/8/2021 2:30:00 AM 13.69 56.642 0.158 7.29 3.82 9.53
4/8/2021 2:45:00 AM 13.62 56.516 0.158 7.29 2.65 9.54
4/8/2021 3:00:00 AM 13.55 56.39 0.158 7.28 6.65 9.55
4/8/2021 3:15:00 AM 13.47 56.246 0.158 7.28 2.39 9.57
4/8/2021 3:30:00 AM 13.4 56.12 0.158 7.28 2.88 9.61
4/8/2021 3:45:00 AM 13.32 55.976 0.158 7.28 3.28 9.62
4/8/2021 4:00:00 AM 13.25 55.85 0.158 7.28 3.14 9.66
4/8/2021 4:15:00 AM 13.17 55.706 0.158 7.29 2.7 9.67
4/8/2021 4:30:00 AM 13.09 55.562 0.158 7.28 3.38 9.69
4/8/2021 4:45:00 AM 13.01 55.418 0.158 7.28 3.32 9.73
4/8/2021 5:00:00 AM 12.93 55.274 0.158 7.29 3.92 9.75
4/8/2021 5:15:00 AM 12.84 55.112 0.159 7.28 2.32 9.76
4/8/2021 5:30:00 AM 12.75 54.95 0.159 7.29 2.42 9.78
4/8/2021 5:45:00 AM 12.67 54.806 0.159 7.28 2.26 9.83
4/8/2021 6:00:00 AM 12.58 54.644 0.159 7.29 2.13 9.85
4/8/2021 6:15:00 AM 12.49 54.482 0.159 7.29 4.69 9.86
4/8/2021 6:30:00 AM 12.4 54.32 0.159 7.28 4.63 9.88
4/8/2021 6:45:00 AM 12.31 54.158 0.159 7.29 2.79 9.92
4/8/2021 7:00:00 AM 12.23 54.014 0.159 7.28 2.44 9.95
4/8/2021 7:15:00 AM 12.15 53.87 0.159 7.28 2.39 9.98
4/8/2021 7:30:00 AM 12.08 53.744 0.16 7.28 2.68 10.05
4/8/2021 7:45:00 AM 12.01 53.618 0.159 7.29 1.97 10.12
4/8/2021 8:00:00 AM 11.95 53.51 0.159 7.28 2.38 10.19
4/8/2021 8:15:00 AM 11.89 53.402 0.159 7.29 1.81 10.27
4/8/2021 8:30:00 AM 11.85 53.33 0.159 7.3 1.88 10.36
4/8/2021 8:45:00 AM 11.81 53.258 0.159 7.31 1.83 10.43
4/8/2021 9:00:00 AM 11.79 53.222 0.159 7.32 2.02 10.52
4/8/2021 9:15:00 AM 11.8 53.24 0.159 7.33 1.79 10.59
4/8/2021 9:30:00 AM 11.83 53.294 0.159 7.33 2.64 10.68
4/8/2021 9:45:00 AM 11.88 53.384 0.159 7.35 2.05 10.77
4/8/2021 10:00:00 AM 11.95 53.51 0.159 7.36 2.26 10.84
4/8/2021 10:15:00 AM 12.04 53.672 0.159 7.38 2.56 10.89
4/8/2021 10:30:00 AM 12.18 53.924 0.158 7.4 1.73 10.95
4/8/2021 10:45:00 AM 12.35 54.23 0.158 7.41 4.39 11.02
4/8/2021 11:00:00 AM 12.56 54.608 0.158 7.42 1.46 11.05
4/8/2021 11:15:00 AM 12.8 55.04 0.158 7.44 1.37 11.09
4/8/2021 11:30:00 AM 13.06 55.508 0.158 7.44 1.94 11.09
4/8/2021 11:45:00 AM 13.34 56.012 0.158 7.46 1.43 11.12
4/8/2021 12:00:00 PM 13.62 56.516 0.157 7.47 1.82 11.12
4/8/2021 12:15:00 PM 13.95 57.11 0.157 7.49 2.01 11.12
4/8/2021 12:30:00 PM 14.28 57.704 0.157 7.51 4.89 11.1
4/8/2021 12:45:00 PM 14.65 58.37 0.157 7.52 23.7 11.08
4/8/2021 1:00:00 PM 14.99 58.982 0.157 7.53 1.45 11.04
4/8/2021 1:15:00 PM 15.32 59.576 0.157 7.54 1.87 10.98
4/8/2021 1:30:00 PM 15.65 60.17 0.157 7.55 1.48 10.96
4/8/2021 1:45:00 PM 15.98 60.764 0.157 7.56 2.86 10.93
4/8/2021 2:00:00 PM 16.33 61.394 0.157 7.57 1.78 10.87
4/8/2021 2:15:00 PM 16.6 61.88 0.157 7.6 2.15 10.85
4/8/2021 2:30:00 PM 16.83 62.294 0.157 7.6 2.29 10.8
4/8/2021 2:45:00 PM 17.03 62.654 0.157 7.61 2.51 10.74
4/8/2021 3:00:00 PM 17.16 62.888 0.157 7.63 2.3 10.72
4/8/2021 3:15:00 PM 17.24 63.032 0.157 7.64 1.93 10.67
4/8/2021 3:30:00 PM 17.31 63.158 0.157 7.65 1.95 10.63
4/8/2021 3:45:00 PM 17.38 63.284 0.157 7.65 2.12 10.59
4/8/2021 4:00:00 PM 17.37 63.266 0.157 7.67 1.88 10.56
4/8/2021 4:15:00 PM 17.34 63.212 0.157 7.67 2.12 10.5
4/8/2021 4:30:00 PM 17.28 63.104 0.157 7.69 1.8 10.46
4/8/2021 4:45:00 PM 17.21 62.978 0.157 7.69 2.03 10.39
4/8/2021 5:00:00 PM 17.13 62.834 0.157 7.69 1.82 10.35
4/8/2021 5:15:00 PM 16.99 62.582 0.157 7.71 1.91 10.27
4/8/2021 5:30:00 PM 16.9 62.42 0.157 7.71 2.34 10.2
4/8/2021 5:45:00 PM 16.79 62.222 0.157 7.71 2.41 10.13
4/8/2021 6:00:00 PM 16.66 61.988 0.156 7.7 2.22 10.1
4/8/2021 6:15:00 PM 16.54 61.772 0.156 7.7 3.61 10.02
4/8/2021 6:30:00 PM 16.42 61.556 0.156 7.69 2.14 9.96
4/8/2021 6:45:00 PM 16.28 61.304 0.156 7.67 3.16 9.86
4/8/2021 7:00:00 PM 16.15 61.07 0.156 7.66 2.04 9.78
4/8/2021 7:15:00 PM 16 60.8 0.157 7.65 1.7 9.71
4/8/2021 7:30:00 PM 15.86 60.548 0.157 7.63 1.62 9.66
4/8/2021 7:45:00 PM 15.73 60.314 0.157 7.61 1.71 9.54
4/8/2021 8:00:00 PM 15.6 60.08 0.157 7.6 1.89 9.58
4/8/2021 8:15:00 PM 15.48 59.864 0.157 7.58 2.37 9.53
4/8/2021 8:30:00 PM 15.37 59.666 0.157 7.55 2.77 9.47
4/8/2021 8:45:00 PM 15.28 59.504 0.157 7.54 3.35 9.44
4/8/2021 9:00:00 PM 15.19 59.342 0.157 7.52 1.91 9.44
4/8/2021 9:15:00 PM 15.11 59.198 0.157 7.5 2.34 9.4
4/8/2021 9:30:00 PM 15.03 59.054 0.157 7.49 4.36 9.4
4/8/2021 9:45:00 PM 14.94 58.892 0.157 7.47 3.14 9.38
4/8/2021 10:00:00 PM 14.85 58.73 0.157 7.46 2.67 9.38
4/8/2021 10:15:00 PM 14.77 58.586 0.157 7.44 4.04 9.38
4/8/2021 10:30:00 PM 14.68 58.424 0.157 7.43 2.04 9.39
4/8/2021 10:45:00 PM 14.59 58.262 0.157 7.41 2.47 9.39
4/8/2021 11:00:00 PM 14.51 58.118 0.157 7.4 3.76 9.38
4/8/2021 11:15:00 PM 14.42 57.956 0.157 7.39 2.35 9.39
4/8/2021 11:30:00 PM 14.34 57.812 0.157 7.39 2.99 9.42
4/8/2021 11:45:00 PM 14.25 57.65 0.157 7.37 4.5 9.42
4/9/2021 12:00:00 AM 14.18 57.524 0.157 7.37 2.4 9.41
4/9/2021 12:15:00 AM 14.1 57.38 0.157 7.36 5.13 9.45
4/9/2021 12:30:00 AM 14.03 57.254 0.157 7.34 5.63 9.46
4/9/2021 12:45:00 AM 13.96 57.128 0.158 7.34 2.51 9.48
4/9/2021 1:00:00 AM 13.89 57.002 0.158 7.33 2.46 9.49
4/9/2021 1:15:00 AM 13.82 56.876 0.158 7.33 3.16 9.5
4/9/2021 1:30:00 AM 13.77 56.786 0.158 7.32 2.57 9.52
4/9/2021 1:45:00 AM 13.71 56.678 0.158 7.32 2.47 9.53
4/9/2021 2:00:00 AM 13.65 56.57 0.158 7.31 9.17 9.54
4/9/2021 2:15:00 AM 13.6 56.48 0.158 7.31 4.59 9.55
4/9/2021 2:30:00 AM 13.55 56.39 0.158 7.3 3.15 9.57
4/9/2021 2:45:00 AM 13.5 56.3 0.158 7.3 3.22 9.58
4/9/2021 3:00:00 AM 13.45 56.21 0.158 7.3 2.82 9.6
4/9/2021 3:15:00 AM 13.4 56.12 0.158 7.3 2.56 9.61
4/9/2021 3:30:00 AM 13.35 56.03 0.158 7.29 2.67 9.63
4/9/2021 3:45:00 AM 13.31 55.958 0.158 7.29 3.76 9.66
4/9/2021 4:00:00 AM 13.27 55.886 0.159 7.28 4.41 9.68
4/9/2021 4:15:00 AM 13.23 55.814 0.159 7.29 2.67 9.68
4/9/2021 4:30:00 AM 13.18 55.724 0.159 7.29 3.69 9.71
4/9/2021 4:45:00 AM 13.14 55.652 0.159 7.29 5.19 9.74
4/9/2021 5:00:00 AM 13.09 55.562 0.159 7.28 2.66 9.75
4/9/2021 5:15:00 AM 13.04 55.472 0.159 7.28 5.14 9.77
4/9/2021 5:30:00 AM 12.99 55.382 0.159 7.28 5.3 9.79
4/9/2021 5:45:00 AM 12.95 55.31 0.159 7.28 3.11 9.81
4/9/2021 6:00:00 AM 12.9 55.22 0.159 7.27 4.54 9.83
4/9/2021 6:15:00 AM 12.85 55.13 0.159 7.27 2.43 9.85
4/9/2021 6:30:00 AM 12.8 55.04 0.159 7.28 2.48 9.86
4/9/2021 6:45:00 AM 12.75 54.95 0.159 7.27 2.41 9.88
4/9/2021 7:00:00 AM 12.7 54.86 0.159 7.28 2.66 9.89
4/9/2021 7:15:00 AM 12.67 54.806 0.159 7.28 3.11 9.92
4/9/2021 7:30:00 AM 12.63 54.734 0.159 7.28 2.43 9.96
4/9/2021 7:45:00 AM 12.6 54.68 0.159 7.29 2.97 10.03
4/9/2021 8:00:00 AM 12.57 54.626 0.159 7.29 1.72 10.09
4/9/2021 8:15:00 AM 12.55 54.59 0.159 7.29 2.4 10.14
4/9/2021 8:30:00 AM 12.52 54.536 0.159 7.3 1.76 10.17
4/9/2021 8:45:00 AM 12.51 54.518 0.159 7.29 2.42 10.23
4/9/2021 9:00:00 AM 12.5 54.5 0.159 7.31 1.59 10.3
4/9/2021 9:15:00 AM 12.49 54.482 0.159 7.31 1.84 10.38
4/9/2021 9:30:00 AM 12.48 54.464 0.159 7.32 2.13 10.44
4/9/2021 9:45:00 AM 12.46 54.428 0.159 7.32 2.43 10.49
4/9/2021 10:00:00 AM 12.45 54.41 0.159 7.33 1.93 10.5
4/9/2021 10:15:00 AM 12.43 54.374 0.159 7.34 2.16 10.53
4/9/2021 10:30:00 AM 12.43 54.374 0.159 7.34 2.36 10.58
4/9/2021 10:45:00 AM 12.44 54.392 0.159 7.35 2.04 10.65
4/9/2021 11:00:00 AM 12.45 54.41 0.159 7.35 1.61 10.71
4/9/2021 11:15:00 AM 12.48 54.464 0.159 7.37 1.88 10.8
4/9/2021 11:30:00 AM 12.51 54.518 0.159 7.37 2.37 10.86
4/9/2021 11:45:00 AM 12.53 54.554 0.159 7.38 2.18 10.92
4/9/2021 12:00:00 PM 12.56 54.608 0.159 7.4 1.83 10.97
4/9/2021 12:15:00 PM 12.59 54.662 0.159 7.4 2.3 10.98
4/9/2021 12:30:00 PM 12.61 54.698 0.159 7.42 2.08 11.02
4/9/2021 12:45:00 PM 12.64 54.752 0.159 7.44 2.74 11.04
4/9/2021 1:00:00 PM 12.67 54.806 0.159 7.44 2.38 11.07
4/9/2021 1:15:00 PM 12.7 54.86 0.159 7.45 2.65 11.06
4/9/2021 1:30:00 PM 12.74 54.932 0.159 7.46 1.92 11.09
4/9/2021 1:45:00 PM 12.77 54.986 0.158 7.47 1.45 11.11
4/9/2021 2:00:00 PM 12.79 55.022 0.158 7.48 4.13 11.1
4/9/2021 2:15:00 PM 12.8 55.04 0.158 7.5 1.94 11.1
4/9/2021 2:30:00 PM 12.79 55.022 0.158 7.52 4.91 11.07
4/9/2021 2:45:00 PM 12.79 55.022 0.158 7.52 1.66 11.02
4/9/2021 3:00:00 PM 12.79 55.022 0.158 7.52 1.75 11.02
4/9/2021 3:15:00 PM 12.78 55.004 0.158 7.53 2 10.97
4/9/2021 3:30:00 PM 12.8 55.04 0.158 7.52 2.67 10.98
4/9/2021 3:45:00 PM 12.81 55.058 0.158 7.54 2.79 10.96
4/9/2021 4:00:00 PM 12.83 55.094 0.157 7.53 2.13 11
4/9/2021 4:15:00 PM 12.83 55.094 0.157 7.54 1.93 10.99
4/9/2021 4:30:00 PM 12.82 55.076 0.157 7.54 1.98 10.96
4/9/2021 4:45:00 PM 12.81 55.058 0.157 7.54 1.94 10.92
4/9/2021 5:00:00 PM 12.78 55.004 0.157 7.55 3.24 10.86
4/9/2021 5:15:00 PM 12.76 54.968 0.157 7.55 1.28 10.81
4/9/2021 5:30:00 PM 12.74 54.932 0.157 7.55 1.57 10.76
4/9/2021 5:45:00 PM 12.71 54.878 0.157 7.54 1.42 10.73
4/9/2021 6:00:00 PM 12.68 54.824 0.157 7.53 1.32 10.65
4/9/2021 6:15:00 PM 12.65 54.77 0.157 7.52 2.33 10.61
4/9/2021 6:30:00 PM 12.63 54.734 0.157 7.53 1.66 10.57
4/9/2021 6:45:00 PM 12.61 54.698 0.157 7.52 2.9 10.56
4/9/2021 7:00:00 PM 12.6 54.68 0.157 7.51 2.14 10.55
4/9/2021 7:15:00 PM 12.58 54.644 0.157 7.51 2.05 10.53
4/9/2021 7:30:00 PM 12.56 54.608 0.157 7.5 1.3 10.49
4/9/2021 7:45:00 PM 12.53 54.554 0.157 7.48 2.82 10.44
4/9/2021 8:00:00 PM 12.51 54.518 0.157 7.48 1.91 10.39
4/9/2021 8:15:00 PM 12.48 54.464 0.157 7.48 1.6 10.35
4/9/2021 8:30:00 PM 12.46 54.428 0.157 7.47 1.76 10.31
4/9/2021 8:45:00 PM 12.43 54.374 0.157 7.46 2.19 10.3
4/9/2021 9:00:00 PM 12.41 54.338 0.157 7.45 2.27 10.26
4/9/2021 9:15:00 PM 12.38 54.284 0.157 7.44 1.76 10.24
4/9/2021 9:30:00 PM 12.36 54.248 0.157 7.43 3.34 10.22
4/9/2021 9:45:00 PM 12.34 54.212 0.157 7.42 2.42 10.22
4/9/2021 10:00:00 PM 12.32 54.176 0.157 7.41 1.77 10.18
4/9/2021 10:15:00 PM 12.3 54.14 0.157 7.41 1.94 10.18
4/9/2021 10:30:00 PM 12.28 54.104 0.157 7.4 2.93 10.17
4/9/2021 10:45:00 PM 12.26 54.068 0.157 7.38 1.96 10.17
4/9/2021 11:00:00 PM 12.24 54.032 0.157 7.37 2.05 10.16
4/9/2021 11:15:00 PM 12.22 53.996 0.157 7.37 1.58 10.14
4/9/2021 11:30:00 PM 12.21 53.978 0.157 7.37 3.62 10.14
4/9/2021 11:45:00 PM 12.19 53.942 0.157 7.35 4.15 10.13
4/10/2021 12:00:00 AM 12.17 53.906 0.157 7.35 3.96 10.14
4/10/2021 12:15:00 AM 12.16 53.888 0.157 7.35 2.4 10.14
4/10/2021 12:30:00 AM 12.14 53.852 0.157 7.35 2.03 10.13
4/10/2021 12:45:00 AM 12.12 53.816 0.157 7.33 3.06 10.14
4/10/2021 1:00:00 AM 12.11 53.798 0.157 7.33 2.68 10.13
4/10/2021 1:15:00 AM 12.09 53.762 0.158 7.33 4.78 10.13
4/10/2021 1:30:00 AM 12.07 53.726 0.158 7.33 6.37 10.12
4/10/2021 1:45:00 AM 12.05 53.69 0.158 7.33 2.01 10.15
4/10/2021 2:00:00 AM 12.03 53.654 0.158 7.32 3.19 10.14
4/10/2021 2:15:00 AM 12.01 53.618 0.158 7.32 3.97 10.15
4/10/2021 2:30:00 AM 11.99 53.582 0.158 7.31 2.74 10.16
4/10/2021 2:45:00 AM 11.98 53.564 0.158 7.3 2.91 10.14
4/10/2021 3:00:00 AM 11.96 53.528 0.158 7.3 4.76 10.16
4/10/2021 3:15:00 AM 11.94 53.492 0.158 7.29 4.06 10.16
4/10/2021 3:30:00 AM 11.92 53.456 0.158 7.3 2.57 10.15
4/10/2021 3:45:00 AM 11.91 53.438 0.157 7.3 4.4 10.17
4/10/2021 4:00:00 AM 11.89 53.402 0.157 7.31 3.13 10.17
4/10/2021 4:15:00 AM 11.87 53.366 0.157 7.3 2.93 10.17
4/10/2021 4:30:00 AM 11.85 53.33 0.157 7.3 3.63 10.18
4/10/2021 4:45:00 AM 11.83 53.294 0.157 7.3 2.84 10.19
4/10/2021 5:00:00 AM 11.82 53.276 0.157 7.3 4.41 10.19
4/10/2021 5:15:00 AM 11.8 53.24 0.157 7.29 4.22 10.18
4/10/2021 5:30:00 AM 11.78 53.204 0.157 7.29 4.13 10.19
4/10/2021 5:45:00 AM 11.77 53.186 0.158 7.3 2.3 10.21
4/10/2021 6:00:00 AM 11.75 53.15 0.158 7.3 3.64 10.2
4/10/2021 6:15:00 AM 11.74 53.132 0.158 7.3 7.23 10.2
4/10/2021 6:30:00 AM 11.72 53.096 0.158 7.29 1.94 10.2
4/10/2021 6:45:00 AM 11.7 53.06 0.158 7.29 1.85 10.2
4/10/2021 7:00:00 AM 11.69 53.042 0.158 7.29 1.56 10.22
4/10/2021 7:15:00 AM 11.68 53.024 0.158 7.29 1.94 10.23
4/10/2021 7:30:00 AM 11.67 53.006 0.158 7.28 2.01 10.28
4/10/2021 7:45:00 AM 11.67 53.006 0.158 7.28 3.18 10.28
4/10/2021 8:00:00 AM 11.67 53.006 0.159 7.29 2.11 10.35
4/10/2021 8:15:00 AM 11.67 53.006 0.159 7.29 2.2 10.4
4/10/2021 8:30:00 AM 11.69 53.042 0.159 7.3 1.6 10.48
4/10/2021 8:45:00 AM 11.7 53.06 0.159 7.3 2.82 10.55
4/10/2021 9:00:00 AM 11.72 53.096 0.159 7.3 2.92 10.59
4/10/2021 9:15:00 AM 11.75 53.15 0.158 7.31 2.56 10.64
4/10/2021 9:30:00 AM 11.78 53.204 0.158 7.31 1.38 10.74
4/10/2021 9:45:00 AM 11.83 53.294 0.158 7.32 1.86 10.82
4/10/2021 10:00:00 AM 11.87 53.366 0.158 7.32 2.42 10.86
4/10/2021 10:15:00 AM 11.91 53.438 0.158 7.34 1.76 10.92
4/10/2021 10:30:00 AM 11.96 53.528 0.158 7.34 2.3 10.95
4/10/2021 10:45:00 AM 12.01 53.618 0.158 7.36 1.06 10.99
4/10/2021 11:00:00 AM 12.07 53.726 0.158 7.37 1.41 11.03
4/10/2021 11:15:00 AM 12.14 53.852 0.158 7.37 1.79 11.05
4/10/2021 11:30:00 AM 12.2 53.96 0.158 7.38 1.81 11.1
4/10/2021 11:45:00 AM 12.28 54.104 0.158 7.39 2.37 11.11
4/10/2021 12:00:00 PM 12.35 54.23 0.158 7.39 1.61 11.13
4/10/2021 12:15:00 PM 12.41 54.338 0.158 7.41 2.85 11.12
4/10/2021 12:30:00 PM 12.46 54.428 0.158 7.4 2.67 11.14
4/10/2021 12:45:00 PM 12.53 54.554 0.158 7.42 2.33 11.16
4/10/2021 1:00:00 PM 12.65 54.77 0.158 7.44 1.99 11.17
4/10/2021 1:15:00 PM 12.82 55.076 0.157 7.46 1.82 11.21
4/10/2021 1:30:00 PM 12.99 55.382 0.157 7.47 2.28 11.21
4/10/2021 1:45:00 PM 13.23 55.814 0.157 7.49 2.49 11.22
4/10/2021 2:00:00 PM 13.52 56.336 0.157 7.51 1.3 11.22
4/10/2021 2:15:00 PM 13.67 56.606 0.157 7.52 1.72 11.2
4/10/2021 2:30:00 PM 13.77 56.786 0.157 7.52 1.72 11.16
4/10/2021 2:45:00 PM 13.89 57.002 0.157 7.54 1.74 11.13
4/10/2021 3:00:00 PM 14.06 57.308 0.157 7.54 2.04 11.12
4/10/2021 3:15:00 PM 14.16 57.488 0.157 7.56 1.32 11.09
4/10/2021 3:30:00 PM 14.33 57.794 0.157 7.57 1.96 11.06
4/10/2021 3:45:00 PM 14.47 58.046 0.157 7.58 2.89 11.04
4/10/2021 4:00:00 PM 14.62 58.316 0.157 7.58 1.71 10.98
4/10/2021 4:15:00 PM 14.76 58.568 0.157 7.59 3.33 10.94
4/10/2021 4:30:00 PM 14.84 58.712 0.156 7.59 2 10.9
4/10/2021 4:45:00 PM 14.94 58.892 0.157 7.59 1.16 10.86
4/10/2021 5:00:00 PM 15.01 59.018 0.156 7.59 2.37 10.81
4/10/2021 5:15:00 PM 15.03 59.054 0.156 7.61 1.07 10.76
4/10/2021 5:30:00 PM 15.01 59.018 0.156 7.62 1.29 10.69
4/10/2021 5:45:00 PM 14.97 58.946 0.156 7.62 2.88 10.64
4/10/2021 6:00:00 PM 14.93 58.874 0.156 7.62 1.23 10.57
4/10/2021 6:15:00 PM 14.9 58.82 0.156 7.62 2.25 10.52
4/10/2021 6:30:00 PM 14.87 58.766 0.156 7.62 2.33 10.45
4/10/2021 6:45:00 PM 14.85 58.73 0.156 7.63 1.82 10.39
4/10/2021 7:00:00 PM 14.81 58.658 0.157 7.63 1.53 10.34
4/10/2021 7:15:00 PM 14.74 58.532 0.157 7.61 3.64 10.21
4/10/2021 7:30:00 PM 14.68 58.424 0.157 7.62 2.27 10.1
4/10/2021 7:45:00 PM 14.6 58.28 0.157 7.61 2.05 10.01
4/10/2021 8:00:00 PM 14.53 58.154 0.157 7.59 1.85 9.94
4/10/2021 8:15:00 PM 14.46 58.028 0.157 7.58 1.44 9.88
4/10/2021 8:30:00 PM 14.39 57.902 0.157 7.55 2.92 9.81
4/10/2021 8:45:00 PM 14.33 57.794 0.157 7.54 2.04 9.76
4/10/2021 9:00:00 PM 14.26 57.668 0.157 7.53 1.41 9.73
4/10/2021 9:15:00 PM 14.19 57.542 0.157 7.51 1.22 9.71
4/10/2021 9:30:00 PM 14.13 57.434 0.156 7.49 2.38 9.66
4/10/2021 9:45:00 PM 14.06 57.308 0.157 7.47 2.48 9.62
4/10/2021 10:00:00 PM 13.99 57.182 0.157 7.45 2.24 9.61
4/10/2021 10:15:00 PM 13.92 57.056 0.157 7.44 1.76 9.61
4/10/2021 10:30:00 PM 13.85 56.93 0.157 7.43 2.82 9.58
4/10/2021 10:45:00 PM 13.79 56.822 0.157 7.42 2.65 9.58
4/10/2021 11:00:00 PM 13.73 56.714 0.157 7.41 2.3 9.57
4/10/2021 11:15:00 PM 13.68 56.624 0.157 7.38 2.73 9.56
4/10/2021 11:30:00 PM 13.63 56.534 0.157 7.38 2.52 9.55
4/10/2021 11:45:00 PM 13.59 56.462 0.157 7.37 1.65 9.56
4/11/2021 12:00:00 AM 13.54 56.372 0.157 7.36 2.15 9.56
4/11/2021 12:15:00 AM 13.51 56.318 0.157 7.34 4.74 9.56
4/11/2021 12:30:00 AM 13.47 56.246 0.157 7.34 1.74 9.56
4/11/2021 12:45:00 AM 13.45 56.21 0.158 7.33 2.8 9.56
4/11/2021 1:00:00 AM 13.42 56.156 0.158 7.33 3.2 9.55
4/11/2021 1:15:00 AM 13.4 56.12 0.158 7.32 3.59 9.56
4/11/2021 1:30:00 AM 13.38 56.084 0.158 7.31 1.65 9.57
4/11/2021 1:45:00 AM 13.36 56.048 0.158 7.31 4.03 9.57
4/11/2021 2:00:00 AM 13.34 56.012 0.158 7.29 2.18 9.57
4/11/2021 2:15:00 AM 13.33 55.994 0.158 7.29 2.18 9.58
4/11/2021 2:30:00 AM 13.32 55.976 0.158 7.28 2.7 9.57
4/11/2021 2:45:00 AM 13.31 55.958 0.158 7.26 1.57 9.59
4/11/2021 3:00:00 AM 13.29 55.922 0.157 7.26 3.6 9.59
4/11/2021 3:15:00 AM 13.27 55.886 0.157 7.26 2.15 9.6
4/11/2021 3:30:00 AM 13.26 55.868 0.157 7.26 2.34 9.59
4/11/2021 3:45:00 AM 13.26 55.868 0.157 7.26 3.22 9.6
4/11/2021 4:00:00 AM 13.25 55.85 0.157 7.25 2.48 9.59
4/11/2021 4:15:00 AM 13.24 55.832 0.157 7.26 3.21 9.6
4/11/2021 4:30:00 AM 13.22 55.796 0.157 7.24 2.28 9.6
4/11/2021 4:45:00 AM 13.21 55.778 0.157 7.24 2.6 9.6
4/11/2021 5:00:00 AM 13.19 55.742 0.156 7.24 6.71 9.62
4/11/2021 5:15:00 AM 13.17 55.706 0.155 7.24 3.9 9.63
4/11/2021 5:30:00 AM 13.16 55.688 0.154 7.23 6.62 9.64
4/11/2021 5:45:00 AM 13.15 55.67 0.154 7.24 3.12 9.64
4/11/2021 6:00:00 AM 13.14 55.652 0.153 7.23 5.43 9.65
4/11/2021 6:15:00 AM 13.12 55.616 0.153 7.22 5.11 9.6
4/11/2021 6:30:00 AM 13.11 55.598 0.153 7.23 13.64 9.63
4/11/2021 6:45:00 AM 13.1 55.58 0.152 7.24 4.74 9.64
4/11/2021 7:00:00 AM 13.08 55.544 0.152 7.24 5.29 9.66
4/11/2021 7:15:00 AM 13.07 55.526 0.152 7.24 9.93 9.66
4/11/2021 7:30:00 AM 13.05 55.49 0.153 7.24 4.89 9.66
4/11/2021 7:45:00 AM 13.04 55.472 0.153 7.25 3.94 9.68
4/11/2021 8:00:00 AM 13.02 55.436 0.153 7.25 5.84 9.69
4/11/2021 8:15:00 AM 13.01 55.418 0.152 7.25 5.39 9.7
4/11/2021 8:30:00 AM 13 55.4 0.152 7.25 7.2 9.75
4/11/2021 8:45:00 AM 12.99 55.382 0.152 7.26 5.7 9.76
4/11/2021 9:00:00 AM 12.98 55.364 0.152 7.26 6.84 9.82
4/11/2021 9:15:00 AM 12.97 55.346 0.152 7.27 9.42 9.85
4/11/2021 9:30:00 AM 12.97 55.346 0.151 7.28 6.21 9.87
4/11/2021 9:45:00 AM 12.99 55.382 0.151 7.28 6.96 9.91
4/11/2021 10:00:00 AM 13.02 55.436 0.151 7.29 7.01 9.98
4/11/2021 10:15:00 AM 13.06 55.508 0.151 7.3 6.93 10.09
4/11/2021 10:30:00 AM 13.1 55.58 0.151 7.31 5.12 10.15
4/11/2021 10:45:00 AM 13.13 55.634 0.151 7.33 8.23 10.15
4/11/2021 11:00:00 AM 13.15 55.67 0.151 7.34 7.4 10.2
4/11/2021 11:15:00 AM 13.19 55.742 0.151 7.36 7.17 10.24
4/11/2021 11:30:00 AM 13.24 55.832 0.151 7.37 13.32 10.27
4/11/2021 11:45:00 AM 13.3 55.94 0.151 7.39 7.2 10.31
4/11/2021 12:00:00 PM 13.42 56.156 0.151 7.39 6.89 10.37
4/11/2021 12:15:00 PM 13.5 56.3 0.151 7.41 10.35 10.42
4/11/2021 12:30:00 PM 13.58 56.444 0.15 7.43 12.53 10.47
4/11/2021 12:45:00 PM 13.69 56.642 0.15 7.44 7.09 10.47
4/11/2021 1:00:00 PM 13.91 57.038 0.15 7.46 8.61 10.47
4/11/2021 1:15:00 PM 14.24 57.632 0.15 7.47 20.28 10.54
4/11/2021 1:30:00 PM 14.5 58.1 0.15 7.49 10.68 10.53
4/11/2021 1:45:00 PM 14.54 58.172 0.149 7.51 11.48 10.51
4/11/2021 2:00:00 PM 14.57 58.226 0.149 7.51 9.8 10.45
4/11/2021 2:15:00 PM 14.83 58.694 0.149 7.52 8.31 10.44
4/11/2021 2:30:00 PM 15.06 59.108 0.149 7.53 28.72 10.44
4/11/2021 2:45:00 PM 15.38 59.684 0.149 7.52 8.72 10.45
4/11/2021 3:00:00 PM 15.56 60.008 0.149 7.54 8.09 10.45
4/11/2021 3:15:00 PM 15.8 60.44 0.149 7.55 8.39 10.42
4/11/2021 3:30:00 PM 15.95 60.71 0.149 7.56 15.07 10.4
4/11/2021 3:45:00 PM 16.07 60.926 0.149 7.57 10.09 10.38
4/11/2021 4:00:00 PM 16.24 61.232 0.149 7.58 8.47 10.38
4/11/2021 4:15:00 PM 16.35 61.43 0.149 7.59 7.52 10.33
4/11/2021 4:30:00 PM 16.45 61.61 0.149 7.6 8.92 10.29
4/11/2021 4:45:00 PM 16.53 61.754 0.15 7.62 10.35 10.24
4/11/2021 5:00:00 PM 16.54 61.772 0.15 7.63 7.21 10.17
4/11/2021 5:15:00 PM 16.55 61.79 0.15 7.63 7.44 10.13
4/11/2021 5:30:00 PM 16.53 61.754 0.151 7.64 13.39 10.05
4/11/2021 5:45:00 PM 16.54 61.772 0.151 7.63 7.19 9.97
4/11/2021 6:00:00 PM 16.54 61.772 0.151 7.64 8.67 9.93
4/11/2021 6:15:00 PM 16.49 61.682 0.151 7.63 6.3 9.88
4/11/2021 6:30:00 PM 16.42 61.556 0.152 7.62 6.34 9.76
4/11/2021 6:45:00 PM 16.34 61.412 0.152 7.6 16.83 9.68
4/11/2021 7:00:00 PM 16.26 61.268 0.152 7.6 5.44 9.59
4/11/2021 7:15:00 PM 16.19 61.142 0.152 7.58 5.22 9.56
4/11/2021 7:30:00 PM 16.13 61.034 0.152 7.57 9.83 9.51
4/11/2021 7:45:00 PM 16.08 60.944 0.152 7.55 9.78 9.44
4/11/2021 8:00:00 PM 16.04 60.872 0.153 7.54 4.06 9.37
4/11/2021 8:15:00 PM 16.01 60.818 0.153 7.52 4.91 9.3
4/11/2021 8:30:00 PM 15.98 60.764 0.153 7.5 4.02 9.25
4/11/2021 8:45:00 PM 15.94 60.692 0.154 7.49 9.77 9.19
4/11/2021 9:00:00 PM 15.91 60.638 0.154 7.47 4.91 9.15
4/11/2021 9:15:00 PM 15.9 60.62 0.154 7.45 7.47 9.12
4/11/2021 9:30:00 PM 15.88 60.584 0.155 7.43 4.86 9.08
4/11/2021 9:45:00 PM 15.87 60.566 0.155 7.42 6.55 9.05
4/11/2021 10:00:00 PM 15.84 60.512 0.154 7.41 10.06 9.06
4/11/2021 10:15:00 PM 15.81 60.458 0.154 7.4 5.47 9.03
4/11/2021 10:30:00 PM 15.78 60.404 0.154 7.39 7.78 9.01
4/11/2021 10:45:00 PM 15.73 60.314 0.154 7.38 8.39 9
4/11/2021 11:00:00 PM 15.67 60.206 0.153 7.36 13.71 8.99
4/11/2021 11:15:00 PM 15.62 60.116 0.151 7.36 8.22 9.04
4/11/2021 11:30:00 PM 15.57 60.026 0.151 7.35 8.63 9.02
4/11/2021 11:45:00 PM 15.52 59.936 0.151 7.34 9.01 9.01
4/12/2021 12:00:00 AM 15.47 59.846 0.151 7.34 7.61 9.01
4/12/2021 12:15:00 AM 15.42 59.756 0.151 7.33 7.81 9.01
4/12/2021 12:30:00 AM 15.38 59.684 0.151 7.32 9.91 9
4/12/2021 12:45:00 AM 15.33 59.594 0.151 7.32 8.08 9
4/12/2021 1:00:00 AM 15.28 59.504 0.151 7.31 8.2 9.02
4/12/2021 1:15:00 AM 15.22 59.396 0.15 7.31 7.55 9.01
4/12/2021 1:30:00 AM 15.17 59.306 0.15 7.31 11.73 9.04
4/12/2021 1:45:00 AM 15.11 59.198 0.149 7.3 8.16 9.06
4/12/2021 2:00:00 AM 15.05 59.09 0.149 7.3 6.58 9.1
4/12/2021 2:15:00 AM 14.98 58.964 0.148 7.3 10.35 9.12
4/12/2021 2:30:00 AM 14.92 58.856 0.148 7.3 9.21 9.14
4/12/2021 2:45:00 AM 14.86 58.748 0.148 7.32 11.19 9.18
4/12/2021 3:00:00 AM 14.79 58.622 0.149 7.32 15.13 9.2
4/12/2021 3:15:00 AM 14.72 58.496 0.149 7.33 13.94 9.23
4/12/2021 3:30:00 AM 14.64 58.352 0.149 7.32 17.83 9.27
4/12/2021 3:45:00 AM 14.57 58.226 0.149 7.33 16.08 9.28
4/12/2021 4:00:00 AM 14.51 58.118 0.15 7.33 19.44 9.31
4/12/2021 4:15:00 AM 14.44 57.992 0.15 7.34 19.52 9.35
4/12/2021 4:30:00 AM 14.36 57.848 0.15 7.34 20.04 9.37
4/12/2021 4:45:00 AM 14.28 57.704 0.15 7.35 22.88 9.39
4/12/2021 5:00:00 AM 14.18 57.524 0.15 7.35 21.14 9.42
4/12/2021 5:15:00 AM 14.08 57.344 0.15 7.36 18.73 9.46
4/12/2021 5:30:00 AM 13.99 57.182 0.15 7.36 30.79 9.47
4/12/2021 5:45:00 AM 13.9 57.02 0.15 7.36 27.21 9.49
4/12/2021 6:00:00 AM 13.81 56.858 0.151 7.36 35.26 9.51
4/12/2021 6:15:00 AM 13.72 56.696 0.152 7.36 42.82 9.54
4/12/2021 6:30:00 AM 13.63 56.534 0.154 7.36 74.27 9.55
4/12/2021 6:45:00 AM 13.53 56.354 0.156 7.36 69.49 9.57
4/12/2021 7:00:00 AM 13.44 56.192 0.157 7.37 86.08 9.59
4/12/2021 7:15:00 AM 13.36 56.048 0.158 7.37 112.1 9.61
4/12/2021 7:30:00 AM 13.29 55.922 0.157 7.37 170.4 9.63
4/12/2021 7:45:00 AM 13.22 55.796 0.157 7.38 103.6 9.65
4/12/2021 8:00:00 AM 13.15 55.67 0.156 7.38 88 9.67
4/12/2021 8:15:00 AM 13.1 55.58 0.154 7.39 103.1 9.7
4/12/2021 8:30:00 AM 13.04 55.472 0.153 7.39 121.6 9.73
4/12/2021 8:45:00 AM 12.99 55.382 0.152 7.39 90.3 9.75
4/12/2021 9:00:00 AM 12.94 55.292 0.152 7.39 87.02 9.78
4/12/2021 9:15:00 AM 12.91 55.238 0.151 7.4 86.77 9.82
4/12/2021 9:30:00 AM 12.88 55.184 0.15 7.4 79.86 9.85
4/12/2021 9:45:00 AM 12.87 55.166 0.15 7.41 67.01 9.9
4/12/2021 10:00:00 AM 12.87 55.166 0.149 7.41 54.85 9.95
4/12/2021 10:15:00 AM 12.89 55.202 0.148 7.41 45.59 10.02
4/12/2021 10:30:00 AM 12.88 55.184 0.147 7.42 48.43 10.07
4/12/2021 10:45:00 AM 12.87 55.166 0.147 7.43 55 10.11
4/12/2021 11:00:00 AM 12.84 55.112 0.146 7.43 46.57 10.13
4/12/2021 11:15:00 AM 12.84 55.112 0.146 7.44 40.48 10.18
4/12/2021 11:30:00 AM 12.83 55.094 0.146 7.44 41.54 10.22
4/12/2021 11:45:00 AM 12.84 55.112 0.146 7.45 31.23 10.27
4/12/2021 12:00:00 PM 12.83 55.094 0.146 7.46 35.3 10.33
4/12/2021 12:15:00 PM 12.82 55.076 0.146 7.47 37.76 10.36
4/12/2021 12:30:00 PM 12.81 55.058 0.146 7.47 33.24 10.39
4/12/2021 12:45:00 PM 12.83 55.094 0.146 7.48 24.55 10.43
4/12/2021 1:00:00 PM 12.84 55.112 0.146 7.49 24.38 10.49
4/12/2021 1:15:00 PM 12.88 55.184 0.146 7.5 24.16 10.54
4/12/2021 1:30:00 PM 12.91 55.238 0.147 7.51 24.43 10.58
4/12/2021 1:45:00 PM 12.94 55.292 0.147 7.52 19.09 10.64
4/12/2021 2:00:00 PM 12.94 55.292 0.147 7.53 16.59 10.66
4/12/2021 2:15:00 PM 12.94 55.292 0.147 7.54 14.61 10.67
4/12/2021 2:30:00 PM 12.96 55.328 0.147 7.55 16.25 10.68
4/12/2021 2:45:00 PM 12.97 55.346 0.147 7.56 15.81 10.71
4/12/2021 3:00:00 PM 12.95 55.31 0.147 7.57 14.43 10.7
4/12/2021 3:15:00 PM 12.92 55.256 0.148 7.58 12.79 10.67
4/12/2021 3:30:00 PM 12.9 55.22 0.148 7.58 11.47 10.64
4/12/2021 3:45:00 PM 12.89 55.202 0.148 7.58 15.03 10.64
4/12/2021 4:00:00 PM 12.88 55.184 0.148 7.59 10.86 10.63
4/12/2021 4:15:00 PM 12.86 55.148 0.148 7.59 9.14 10.64
4/12/2021 4:30:00 PM 12.84 55.112 0.148 7.59 13.83 10.62
4/12/2021 4:45:00 PM 12.82 55.076 0.148 7.59 10.73 10.62
4/12/2021 5:00:00 PM 12.8 55.04 0.148 7.59 9.91 10.6
4/12/2021 5:15:00 PM 12.77 54.986 0.149 7.6 8.82 10.56
4/12/2021 5:30:00 PM 12.73 54.914 0.149 7.59 9.09 10.52
4/12/2021 5:45:00 PM 12.7 54.86 0.149 7.59 6.67 10.47
4/12/2021 6:00:00 PM 12.65 54.77 0.149 7.58 8.14 10.44
4/12/2021 6:15:00 PM 12.6 54.68 0.149 7.58 7.98 10.39
4/12/2021 6:30:00 PM 12.57 54.626 0.149 7.57 8.87 10.37
4/12/2021 6:45:00 PM 12.53 54.554 0.149 7.55 7.55 10.35
4/12/2021 7:00:00 PM 12.48 54.464 0.149 7.55 8.48 10.32
4/12/2021 7:15:00 PM 12.44 54.392 0.15 7.53 7.47 10.29
4/12/2021 7:30:00 PM 12.39 54.302 0.15 7.52 5.23 10.26
4/12/2021 7:45:00 PM 12.35 54.23 0.15 7.51 14.9 10.19
4/12/2021 8:00:00 PM 12.31 54.158 0.15 7.5 8.28 10.18
4/12/2021 8:15:00 PM 12.27 54.086 0.15 7.49 6.28 10.15
4/12/2021 8:30:00 PM 12.22 53.996 0.15 7.48 8.95 10.16
4/12/2021 8:45:00 PM 12.18 53.924 0.15 7.48 6.61 10.14
4/12/2021 9:00:00 PM 12.14 53.852 0.15 7.47 7.49 10.13
4/12/2021 9:15:00 PM 12.1 53.78 0.15 7.46 8.52 10.11
4/12/2021 9:30:00 PM 12.06 53.708 0.151 7.45 11.24 10.12
4/12/2021 9:45:00 PM 12.03 53.654 0.151 7.45 6.94 10.13
4/12/2021 10:00:00 PM 11.99 53.582 0.151 7.45 8.38 10.12
4/12/2021 10:15:00 PM 11.96 53.528 0.151 7.44 6.39 10.13
4/12/2021 10:30:00 PM 11.93 53.474 0.151 7.43 8.22 10.14
4/12/2021 10:45:00 PM 11.9 53.42 0.152 7.42 5.81 10.13
4/12/2021 11:00:00 PM 11.86 53.348 0.152 7.42 5.9 10.14
4/12/2021 11:15:00 PM 11.82 53.276 0.152 7.42 7.02 10.15
4/12/2021 11:30:00 PM 11.79 53.222 0.152 7.41 11.29 10.15
4/12/2021 11:45:00 PM 11.76 53.168 0.152 7.41 6.25 10.14
4/13/2021 12:00:00 AM 11.73 53.114 0.152 7.4 7.96 10.17
4/13/2021 12:15:00 AM 11.7 53.06 0.153 7.41 7.25 10.17
4/13/2021 12:30:00 AM 11.67 53.006 0.153 7.39 7.14 10.19
4/13/2021 12:45:00 AM 11.64 52.952 0.153 7.39 8.61 10.18
4/13/2021 1:00:00 AM 11.61 52.898 0.153 7.39 10.42 10.2
4/13/2021 1:15:00 AM 11.58 52.844 0.153 7.39 7.96 10.21
4/13/2021 1:30:00 AM 11.55 52.79 0.153 7.38 9.43 10.23
4/13/2021 1:45:00 AM 11.51 52.718 0.153 7.39 5.49 10.24
4/13/2021 2:00:00 AM 11.48 52.664 0.153 7.38 8.49 10.25
4/13/2021 2:15:00 AM 11.45 52.61 0.154 7.38 9.5 10.25
4/13/2021 2:30:00 AM 11.42 52.556 0.154 7.38 6.3 10.26
4/13/2021 2:45:00 AM 11.39 52.502 0.154 7.38 6.52 10.28
4/13/2021 3:00:00 AM 11.36 52.448 0.154 7.38 5.48 10.29
4/13/2021 3:15:00 AM 11.34 52.412 0.154 7.38 9.64 10.31
4/13/2021 3:30:00 AM 11.31 52.358 0.154 7.37 8.18 10.31
4/13/2021 3:45:00 AM 11.28 52.304 0.154 7.37 5.64 10.32
4/13/2021 4:00:00 AM 11.25 52.25 0.155 7.37 6.55 10.32
4/13/2021 4:15:00 AM 11.22 52.196 0.155 7.37 6.55 10.33
4/13/2021 4:30:00 AM 11.19 52.142 0.155 7.37 6.01 10.35
4/13/2021 4:45:00 AM 11.16 52.088 0.155 7.37 8.56 10.36
4/13/2021 5:00:00 AM 11.13 52.034 0.155 7.37 7.87 10.37
4/13/2021 5:15:00 AM 11.1 51.98 0.155 7.37 6.01 10.36
4/13/2021 5:30:00 AM 11.06 51.908 0.155 7.37 6.85 10.37
4/13/2021 5:45:00 AM 11.03 51.854 0.155 7.37 5.49 10.4
4/13/2021 6:00:00 AM 11 51.8 0.155 7.37 6.08 10.39
4/13/2021 6:15:00 AM 10.98 51.764 0.155 7.36 6.59 10.39
4/13/2021 6:30:00 AM 10.95 51.71 0.155 7.36 5.25 10.37
4/13/2021 6:45:00 AM 10.91 51.638 0.156 7.36 6.26 10.42
4/13/2021 7:00:00 AM 10.89 51.602 0.156 7.36 5.83 10.46
4/13/2021 7:15:00 AM 10.87 51.566 0.156 7.36 3.32 10.49
4/13/2021 7:30:00 AM 10.85 51.53 0.156 7.36 4.5 10.53
4/13/2021 7:45:00 AM 10.83 51.494 0.156 7.36 7.38 10.56
4/13/2021 8:00:00 AM 10.82 51.476 0.155 7.36 4.95 10.58
4/13/2021 8:15:00 AM 10.81 51.458 0.156 7.37 3.94 10.63
4/13/2021 8:30:00 AM 10.8 51.44 0.156 7.37 4.38 10.67
4/13/2021 8:45:00 AM 10.8 51.44 0.155 7.37 5.36 10.7
4/13/2021 9:00:00 AM 10.8 51.44 0.156 7.38 3.7 10.76
4/13/2021 9:15:00 AM 10.81 51.458 0.156 7.39 4.08 10.81
4/13/2021 9:30:00 AM 10.83 51.494 0.156 7.39 4.42 10.9
4/13/2021 9:45:00 AM 10.86 51.548 0.156 7.4 3.74 10.99
4/13/2021 10:00:00 AM 10.9 51.62 0.155 7.42 3.19 11.06
4/13/2021 10:15:00 AM 10.93 51.674 0.155 7.42 4.54 11.12
4/13/2021 10:30:00 AM 10.99 51.782 0.155 7.44 3.6 11.18
4/13/2021 10:45:00 AM 11.08 51.944 0.155 7.45 2.86 11.24
4/13/2021 11:00:00 AM 11.15 52.07 0.155 7.45 2.93 11.28
4/13/2021 11:15:00 AM 11.23 52.214 0.155 7.47 7.03 11.31
4/13/2021 11:30:00 AM 11.35 52.43 0.155 7.48 2.98 11.34
4/13/2021 11:45:00 AM 11.52 52.736 0.155 7.49 3.37 11.36
4/13/2021 12:00:00 PM 11.75 53.15 0.155 7.5 5.02 11.41
4/13/2021 12:15:00 PM 12.08 53.744 0.154 7.51 6.72 11.4
4/13/2021 12:30:00 PM 12.36 54.248 0.154 7.51 2.88 11.41
4/13/2021 12:45:00 PM 12.54 54.572 0.154 7.52 3.22 11.4
4/13/2021 1:00:00 PM 12.79 55.022 0.154 7.53 2.49 11.35
4/13/2021 1:15:00 PM 13.08 55.544 0.154 7.53 3.24 11.35
4/13/2021 1:30:00 PM 13.44 56.192 0.154 7.53 3.04 11.31
4/13/2021 1:45:00 PM 13.82 56.876 0.154 7.54 3.08 11.29
4/13/2021 2:00:00 PM 14.14 57.452 0.154 7.55 3.56 11.27
4/13/2021 2:15:00 PM 14.26 57.668 0.155 7.55 3.51 11.2
4/13/2021 2:30:00 PM 14.13 57.434 0.155 7.56 3.16 11.16
4/13/2021 2:45:00 PM 14.01 57.218 0.155 7.57 15.46 11.07
4/13/2021 3:00:00 PM 14.04 57.272 0.155 7.58 3.85 11.07
4/13/2021 3:15:00 PM 14.22 57.596 0.154 7.59 2.55 11.08
4/13/2021 3:30:00 PM 14.31 57.758 0.155 7.6 20.78 11.03
4/13/2021 3:45:00 PM 14.33 57.794 0.154 7.6 4.14 11.01
4/13/2021 4:00:00 PM 14.3 57.74 0.154 7.59 3.12 10.95
4/13/2021 4:15:00 PM 14.26 57.668 0.154 7.6 2.57 10.9
4/13/2021 4:30:00 PM 14.16 57.488 0.154 7.6 2.09 10.86
4/13/2021 4:45:00 PM 14.11 57.398 0.154 7.61 2.58 10.81
4/13/2021 5:00:00 PM 14.12 57.416 0.154 7.61 2.7 10.78
4/13/2021 5:15:00 PM 14.17 57.506 0.154 7.61 2.49 10.79
4/13/2021 5:30:00 PM 14.19 57.542 0.154 7.61 2.48 10.78
4/13/2021 5:45:00 PM 14.17 57.506 0.154 7.62 3.41 10.77
4/13/2021 6:00:00 PM 14.12 57.416 0.154 7.62 2.38 10.72
4/13/2021 6:15:00 PM 14.04 57.272 0.154 7.62 4.91 10.64
4/13/2021 6:30:00 PM 13.98 57.164 0.154 7.62 2.37 10.59
4/13/2021 6:45:00 PM 13.9 57.02 0.154 7.62 3.57 10.52
4/13/2021 7:00:00 PM 13.83 56.894 0.154 7.62 1.85 10.44
4/13/2021 7:15:00 PM 13.74 56.732 0.154 7.6 4.69 10.39
4/13/2021 7:30:00 PM 13.66 56.588 0.154 7.59 2.61 10.33
4/13/2021 7:45:00 PM 13.58 56.444 0.155 7.57 2.41 10.28
4/13/2021 8:00:00 PM 13.5 56.3 0.155 7.55 3.85 10.21
4/13/2021 8:15:00 PM 13.41 56.138 0.155 7.54 5.41 10.13
4/13/2021 8:30:00 PM 13.33 55.994 0.155 7.52 3.23 10.11
4/13/2021 8:45:00 PM 13.25 55.85 0.155 7.5 5.7 10.08
4/13/2021 9:00:00 PM 13.19 55.742 0.155 7.49 4.32 10.03
4/13/2021 9:15:00 PM 13.13 55.634 0.155 7.47 3.63 10
4/13/2021 9:30:00 PM 13.09 55.562 0.155 7.45 4.09 9.97
4/13/2021 9:45:00 PM 13.04 55.472 0.155 7.43 5.9 9.94
4/13/2021 10:00:00 PM 12.99 55.382 0.155 7.42 3.37 9.92
4/13/2021 10:15:00 PM 12.94 55.292 0.155 7.41 5.05 9.91
4/13/2021 10:30:00 PM 12.88 55.184 0.155 7.39 4.51 9.9
4/13/2021 10:45:00 PM 12.83 55.094 0.155 7.38 3.69 9.89
4/13/2021 11:00:00 PM 12.76 54.968 0.155 7.37 3.97 9.89
4/13/2021 11:15:00 PM 12.71 54.878 0.155 7.35 6.17 9.89
4/13/2021 11:30:00 PM 12.64 54.752 0.155 7.35 10.18 9.87
4/13/2021 11:45:00 PM 12.58 54.644 0.155 7.34 3.1 9.89
4/14/2021 12:00:00 AM 12.53 54.554 0.155 7.33 7.25 9.9
4/14/2021 12:15:00 AM 12.46 54.428 0.156 7.32 8.95 9.91
4/14/2021 12:30:00 AM 12.4 54.32 0.156 7.31 4.5 9.92
4/14/2021 12:45:00 AM 12.34 54.212 0.156 7.31 7.45 9.92
4/14/2021 1:00:00 AM 12.27 54.086 0.156 7.3 5.21 9.94
4/14/2021 1:15:00 AM 12.21 53.978 0.156 7.3 3.92 9.96
4/14/2021 1:30:00 AM 12.15 53.87 0.156 7.29 3.88 9.96
4/14/2021 1:45:00 AM 12.08 53.744 0.156 7.29 6.09 9.99
4/14/2021 2:00:00 AM 12.02 53.636 0.156 7.29 3.26 10
4/14/2021 2:15:00 AM 11.96 53.528 0.156 7.27 5.23 10.03
4/14/2021 2:30:00 AM 11.89 53.402 0.156 7.27 7.45 10.03
4/14/2021 2:45:00 AM 11.82 53.276 0.156 7.27 5.83 10.06
4/14/2021 3:00:00 AM 11.76 53.168 0.156 7.27 4.85 10.07
4/14/2021 3:15:00 AM 11.69 53.042 0.156 7.27 5.57 10.1
4/14/2021 3:30:00 AM 11.62 52.916 0.156 7.26 4.79 10.12
4/14/2021 3:45:00 AM 11.55 52.79 0.156 7.26 6.29 10.13
4/14/2021 4:00:00 AM 11.48 52.664 0.156 7.26 3.13 10.15
4/14/2021 4:15:00 AM 11.4 52.52 0.157 7.25 4.57 10.18
4/14/2021 4:30:00 AM 11.32 52.376 0.157 7.26 7.28 10.21
4/14/2021 4:45:00 AM 11.25 52.25 0.157 7.26 5.43 10.21
4/14/2021 5:00:00 AM 11.18 52.124 0.157 7.26 6.71 10.25
4/14/2021 5:15:00 AM 11.12 52.016 0.157 7.25 4.79 10.27
4/14/2021 5:30:00 AM 11.07 51.926 0.157 7.26 4.35 10.29
4/14/2021 5:45:00 AM 11.01 51.818 0.157 7.25 6.54 10.33
4/14/2021 6:00:00 AM 10.96 51.728 0.157 7.26 6.28 10.31
4/14/2021 6:15:00 AM 10.91 51.638 0.157 7.26 9.12 10.34
4/14/2021 6:30:00 AM 10.85 51.53 0.157 7.26 4.21 10.37
4/14/2021 6:45:00 AM 10.81 51.458 0.157 7.27 3.03 10.39
4/14/2021 7:00:00 AM 10.76 51.368 0.157 7.26 3.76 10.41
4/14/2021 7:15:00 AM 10.72 51.296 0.157 7.27 2.63 10.46
4/14/2021 7:30:00 AM 10.69 51.242 0.157 7.26 3.23 10.49
4/14/2021 7:45:00 AM 10.66 51.188 0.157 7.26 3.21 10.57
4/14/2021 8:00:00 AM 10.66 51.188 0.157 7.27 6.59 10.67
4/14/2021 8:15:00 AM 10.65 51.17 0.157 7.28 3.62 10.75
4/14/2021 8:30:00 AM 10.65 51.17 0.157 7.3 5.23 10.83
4/14/2021 8:45:00 AM 10.68 51.224 0.157 7.3 2.76 10.91
4/14/2021 9:00:00 AM 10.73 51.314 0.157 7.31 3.27 11.04
4/14/2021 9:15:00 AM 10.79 51.422 0.157 7.33 3.65 11.14
4/14/2021 9:30:00 AM 10.86 51.548 0.157 7.34 4.12 11.18
4/14/2021 9:45:00 AM 10.93 51.674 0.157 7.35 2.82 11.26
4/14/2021 10:00:00 AM 11.03 51.854 0.157 7.36 2.44 11.31
4/14/2021 10:15:00 AM 11.13 52.034 0.157 7.37 3.73 11.36
4/14/2021 10:30:00 AM 11.24 52.232 0.156 7.37 2.61 11.41
4/14/2021 10:45:00 AM 11.35 52.43 0.157 7.38 1.92 11.46
4/14/2021 11:00:00 AM 11.41 52.538 0.156 7.39 2.28 11.44
4/14/2021 11:15:00 AM 11.46 52.628 0.156 7.42 3.02 11.43
4/14/2021 11:30:00 AM 11.52 52.736 0.156 7.43 2.92 11.41
4/14/2021 11:45:00 AM 11.6 52.88 0.156 7.43 2.78 11.42
4/14/2021 12:00:00 PM 11.7 53.06 0.156 7.45 2.51 11.46
4/14/2021 12:15:00 PM 11.82 53.276 0.156 7.45 6.31 11.49
4/14/2021 12:30:00 PM 11.92 53.456 0.156 7.46 2.84 11.53
4/14/2021 12:45:00 PM 12 53.6 0.156 7.47 1.97 11.5
4/14/2021 1:00:00 PM 12.1 53.78 0.156 7.48 3.25 11.51
4/14/2021 1:15:00 PM 12.23 54.014 0.155 7.48 3.85 11.49
4/14/2021 1:30:00 PM 12.38 54.284 0.155 7.5 2.29 11.49
4/14/2021 1:45:00 PM 12.45 54.41 0.155 7.5 2.24 11.5
4/14/2021 2:00:00 PM 12.47 54.446 0.156 7.51 2.58 11.45
4/14/2021 2:15:00 PM 12.46 54.428 0.156 7.52 1.88 11.36
4/14/2021 2:30:00 PM 12.45 54.41 0.156 7.52 1.67 11.29
4/14/2021 2:45:00 PM 12.47 54.446 0.155 7.53 2 11.22
4/14/2021 3:00:00 PM 12.48 54.464 0.155 7.54 1.95 11.24
4/14/2021 3:15:00 PM 12.47 54.446 0.155 7.53 8.99 11.16
4/14/2021 3:30:00 PM 12.48 54.464 0.155 7.55 2.48 11.14
4/14/2021 3:45:00 PM 12.5 54.5 0.155 7.55 1.83 11.12
4/14/2021 4:00:00 PM 12.52 54.536 0.155 7.55 2.4 11.11
4/14/2021 4:15:00 PM 12.54 54.572 0.155 7.55 2.05 11.14
4/14/2021 4:30:00 PM 12.55 54.59 0.155 7.56 1.68 11.13
4/14/2021 4:45:00 PM 12.55 54.59 0.155 7.56 2.57 11.09
4/14/2021 5:00:00 PM 12.55 54.59 0.155 7.56 2.92 11.06
4/14/2021 5:15:00 PM 12.54 54.572 0.155 7.56 2.01 11.02
4/14/2021 5:30:00 PM 12.53 54.554 0.155 7.57 2.4 10.97
4/14/2021 5:45:00 PM 12.52 54.536 0.155 7.56 2.06 10.89
4/14/2021 6:00:00 PM 12.51 54.518 0.155 7.56 2.15 10.86
4/14/2021 6:15:00 PM 12.49 54.482 0.155 7.56 2.11 10.82
4/14/2021 6:30:00 PM 12.48 54.464 0.155 7.55 5.71 10.76
4/14/2021 6:45:00 PM 12.47 54.446 0.155 7.55 1.85 10.72
4/14/2021 7:00:00 PM 12.45 54.41 0.155 7.54 2.72 10.65
4/14/2021 7:15:00 PM 12.44 54.392 0.155 7.53 5.24 10.58
4/14/2021 7:30:00 PM 12.42 54.356 0.155 7.53 4.16 10.48
4/14/2021 7:45:00 PM 12.4 54.32 0.155 7.5 2.47 10.44
4/14/2021 8:00:00 PM 12.38 54.284 0.155 7.49 2.5 10.37
4/14/2021 8:15:00 PM 12.37 54.266 0.155 7.47 2.41 10.33
4/14/2021 8:30:00 PM 12.36 54.248 0.155 7.47 2.39 10.3
4/14/2021 8:45:00 PM 12.35 54.23 0.155 7.44 2.46 10.25
4/14/2021 9:00:00 PM 12.33 54.194 0.155 7.43 5.34 10.21
4/14/2021 9:15:00 PM 12.31 54.158 0.155 7.42 2.46 10.18
4/14/2021 9:30:00 PM 12.28 54.104 0.157 7.41 2.03 10.15
4/14/2021 9:45:00 PM 12.25 54.05 0.155 7.4 1.96 10.13
4/14/2021 10:00:00 PM 12.21 53.978 0.155 7.39 1.57 10.12
4/14/2021 10:15:00 PM 12.17 53.906 0.155 7.38 4.38 10.09
4/14/2021 10:30:00 PM 12.12 53.816 0.155 7.37 4.77 10.08
4/14/2021 10:45:00 PM 12.08 53.744 0.155 7.36 3.7 10.08
4/14/2021 11:00:00 PM 12.05 53.69 0.155 7.35 2.94 10.07
4/14/2021 11:15:00 PM 12.02 53.636 0.155 7.34 8.15 10.07
4/14/2021 11:30:00 PM 11.99 53.582 0.155 7.33 1.88 10.06
4/14/2021 11:45:00 PM 11.95 53.51 0.155 7.32 2.83 10.06
4/15/2021 12:00:00 AM 11.92 53.456 0.155 7.32 2.6 10.05
4/15/2021 12:15:00 AM 11.89 53.402 0.155 7.31 4.64 10.07
4/15/2021 12:30:00 AM 11.86 53.348 0.155 7.31 4.18 10.07
4/15/2021 12:45:00 AM 11.83 53.294 0.155 7.3 4.66 10.08
4/15/2021 1:00:00 AM 11.8 53.24 0.156 7.3 4.02 10.08
4/15/2021 1:15:00 AM 11.78 53.204 0.156 7.28 3.37 10.08
4/15/2021 1:30:00 AM 11.75 53.15 0.156 7.29 3.42 10.1
4/15/2021 1:45:00 AM 11.72 53.096 0.156 7.28 3.59 10.1
4/15/2021 2:00:00 AM 11.69 53.042 0.156 7.27 7.56 10.1
4/15/2021 2:15:00 AM 11.64 52.952 0.156 7.28 3.81 10.11
4/15/2021 2:30:00 AM 11.61 52.898 0.156 7.27 3.62 10.12
4/15/2021 2:45:00 AM 11.56 52.808 0.156 7.27 5.02 10.13
4/15/2021 3:00:00 AM 11.52 52.736 0.156 7.26 2.92 10.12
4/15/2021 3:15:00 AM 11.48 52.664 0.156 7.27 3.48 10.13
4/15/2021 3:30:00 AM 11.46 52.628 0.156 7.26 2.72 10.13
4/15/2021 3:45:00 AM 11.43 52.574 0.156 7.25 5.16 10.16
4/15/2021 4:00:00 AM 11.4 52.52 0.156 7.25 3.31 10.16
4/15/2021 4:15:00 AM 11.37 52.466 0.156 7.26 3.6 10.16
4/15/2021 4:30:00 AM 11.34 52.412 0.156 7.25 3.6 10.18
4/15/2021 4:45:00 AM 11.31 52.358 0.156 7.25 3.57 10.18
4/15/2021 5:00:00 AM 11.28 52.304 0.156 7.25 5.11 10.21
4/15/2021 5:15:00 AM 11.24 52.232 0.156 7.24 5.01 10.22
4/15/2021 5:30:00 AM 11.21 52.178 0.156 7.25 2.63 10.21
4/15/2021 5:45:00 AM 11.17 52.106 0.156 7.25 3.19 10.21
4/15/2021 6:00:00 AM 11.13 52.034 0.156 7.25 3.78 10.22
4/15/2021 6:15:00 AM 11.1 51.98 0.156 7.25 7.24 10.23
4/15/2021 6:30:00 AM 11.07 51.926 0.156 7.25 4.76 10.22
4/15/2021 6:45:00 AM 11.05 51.89 0.156 7.25 2.9 10.24
4/15/2021 7:00:00 AM 11.03 51.854 0.157 7.25 4.4 10.24
4/15/2021 7:15:00 AM 11.01 51.818 0.156 7.26 6.59 10.3
4/15/2021 7:30:00 AM 11.01 51.818 0.156 7.25 6.08 10.32
4/15/2021 7:45:00 AM 11 51.8 0.156 7.26 2.98 10.4
4/15/2021 8:00:00 AM 11.01 51.818 0.156 7.26 4.73 10.48
4/15/2021 8:15:00 AM 11.02 51.836 0.156 7.27 2.68 10.57
4/15/2021 8:30:00 AM 11.04 51.872 0.156 7.29 2.31 10.66
4/15/2021 8:45:00 AM 11.07 51.926 0.156 7.29 2.95 10.76
4/15/2021 9:00:00 AM 11.13 52.034 0.156 7.29 2.3 10.85
4/15/2021 9:15:00 AM 11.22 52.196 0.156 7.3 3.62 10.96
4/15/2021 9:30:00 AM 11.3 52.34 0.156 7.3 3.5 11.03
4/15/2021 9:45:00 AM 11.37 52.466 0.156 7.32 2.94 11.07
4/15/2021 10:00:00 AM 11.43 52.574 0.156 7.33 2.68 11.12
4/15/2021 10:15:00 AM 11.55 52.79 0.156 7.34 2.33 11.18
4/15/2021 10:30:00 AM 11.64 52.952 0.155 7.35 2.61 11.22
4/15/2021 10:45:00 AM 11.71 53.078 0.156 7.36 2.23 11.24
4/15/2021 11:00:00 AM 11.79 53.222 0.156 7.38 1.96 11.24
4/15/2021 11:15:00 AM 11.87 53.366 0.155 7.39 2.29 11.26
4/15/2021 11:30:00 AM 11.95 53.51 0.155 7.4 2.59 11.31
4/15/2021 11:45:00 AM 12.06 53.708 0.155 7.4 3.69 11.31
4/15/2021 12:00:00 PM 12.24 54.032 0.155 7.41 1.87 11.34
4/15/2021 12:15:00 PM 12.4 54.32 0.155 7.42 2.2 11.37
4/15/2021 12:30:00 PM 12.55 54.59 0.155 7.43 2.13 11.35
4/15/2021 12:45:00 PM 12.7 54.86 0.155 7.44 2.08 11.35
4/15/2021 1:00:00 PM 12.95 55.31 0.155 7.45 2.07 11.34
4/15/2021 1:15:00 PM 13.33 55.994 0.154 7.48 2.62 11.33
4/15/2021 1:30:00 PM 13.59 56.462 0.155 7.51 3.52 11.31
4/15/2021 1:45:00 PM 13.62 56.516 0.155 7.52 2.93 11.22
4/15/2021 2:00:00 PM 13.65 56.57 0.155 7.53 2.93 11.2
4/15/2021 2:15:00 PM 13.61 56.498 0.155 7.57 3.22 11.12
4/15/2021 2:30:00 PM 13.69 56.642 0.155 7.56 2.18 11
4/15/2021 2:45:00 PM 13.97 57.146 0.154 7.57 2.68 11.02
4/15/2021 3:00:00 PM 14.13 57.434 0.154 7.57 2.68 11.04
4/15/2021 3:15:00 PM 14.21 57.578 0.154 7.58 2.18 11.05
4/15/2021 3:30:00 PM 14.17 57.506 0.154 7.59 4.42 11.03
4/15/2021 3:45:00 PM 14.09 57.362 0.154 7.6 2.49 10.96
4/15/2021 4:00:00 PM 14.15 57.47 0.154 7.6 3.77 10.93
4/15/2021 4:15:00 PM 14.14 57.452 0.154 7.62 1.71 10.92
4/15/2021 4:30:00 PM 14.12 57.416 0.154 7.62 2.14 10.9
4/15/2021 4:45:00 PM 14.2 57.56 0.154 7.63 2.19 10.88
4/15/2021 5:00:00 PM 14.16 57.488 0.154 7.64 2.52 10.85
4/15/2021 5:15:00 PM 14.07 57.326 0.154 7.66 2.43 10.8
4/15/2021 5:30:00 PM 14.03 57.254 0.154 7.66 2 10.79
4/15/2021 5:45:00 PM 13.96 57.128 0.154 7.67 4.06 10.75
4/15/2021 6:00:00 PM 13.84 56.912 0.154 7.67 2.4 10.73
4/15/2021 6:15:00 PM 13.72 56.696 0.154 7.67 2.85 10.63
4/15/2021 6:30:00 PM 13.65 56.57 0.154 7.66 3.08 10.56
4/15/2021 6:45:00 PM 13.52 56.336 0.154 7.66 1.97 10.5
4/15/2021 7:00:00 PM 13.42 56.156 0.154 7.65 2.24 10.43
4/15/2021 7:15:00 PM 13.28 55.904 0.154 7.64 2.42 10.35
4/15/2021 7:30:00 PM 13.13 55.634 0.154 7.62 2.34 10.33
4/15/2021 7:45:00 PM 12.99 55.382 0.154 7.6 3.29 10.28
4/15/2021 8:00:00 PM 12.87 55.166 0.154 7.59 2.07 10.22
4/15/2021 8:15:00 PM 12.76 54.968 0.154 7.57 6 10.15
4/15/2021 8:30:00 PM 12.68 54.824 0.155 7.56 2.87 10.13
4/15/2021 8:45:00 PM 12.57 54.626 0.155 7.54 2.96 10.1
4/15/2021 9:00:00 PM 12.47 54.446 0.155 7.52 2.91 10.06
4/15/2021 9:15:00 PM 12.39 54.302 0.155 7.5 2.43 10.04
4/15/2021 9:30:00 PM 12.31 54.158 0.155 7.49 3.77 10.03
4/15/2021 9:45:00 PM 12.22 53.996 0.155 7.47 2.48 10.02
4/15/2021 10:00:00 PM 12.13 53.834 0.155 7.46 2.69 10.02
4/15/2021 10:15:00 PM 12.04 53.672 0.155 7.45 3.63 10
4/15/2021 10:30:00 PM 11.95 53.51 0.155 7.44 3.36 10.01
4/15/2021 10:45:00 PM 11.86 53.348 0.155 7.43 3.38 10
4/15/2021 11:00:00 PM 11.76 53.168 0.155 7.42 4.1 10.03
4/15/2021 11:15:00 PM 11.66 52.988 0.155 7.41 4.04 10.03
4/15/2021 11:30:00 PM 11.57 52.826 0.155 7.4 2.89 10.05
4/15/2021 11:45:00 PM 11.47 52.646 0.155 7.39 3.11 10.07
4/16/2021 12:00:00 AM 11.38 52.484 0.155 7.38 7.06 10.06
4/16/2021 12:15:00 AM 11.29 52.322 0.155 7.38 3.47 10.1
4/16/2021 12:30:00 AM 11.21 52.178 0.155 7.37 4.57 10.11
4/16/2021 12:45:00 AM 11.13 52.034 0.155 7.36 2.8 10.14
4/16/2021 1:00:00 AM 11.05 51.89 0.155 7.36 4.6 10.17
4/16/2021 1:15:00 AM 10.98 51.764 0.155 7.35 3.7 10.17
4/16/2021 1:30:00 AM 10.9 51.62 0.156 7.35 4.52 10.2
4/16/2021 1:45:00 AM 10.83 51.494 0.155 7.34 3.69 10.19
4/16/2021 2:00:00 AM 10.75 51.35 0.155 7.34 2.64 10.24
4/16/2021 2:15:00 AM 10.67 51.206 0.155 7.33 4.08 10.27
4/16/2021 2:30:00 AM 10.59 51.062 0.155 7.34 5.58 10.29
4/16/2021 2:45:00 AM 10.5 50.9 0.155 7.33 4.99 10.3
4/16/2021 3:00:00 AM 10.41 50.738 0.155 7.33 3.98 10.33
4/16/2021 3:15:00 AM 10.33 50.594 0.155 7.32 2.52 10.37
4/16/2021 3:30:00 AM 10.24 50.432 0.155 7.32 2.33 10.37
4/16/2021 3:45:00 AM 10.17 50.306 0.155 7.33 2.2 10.42
4/16/2021 4:00:00 AM 10.08 50.144 0.155 7.33 4.65 10.44
4/16/2021 4:15:00 AM 10.02 50.036 0.156 7.32 2.73 10.47
4/16/2021 4:30:00 AM 9.96 49.928 0.156 7.31 3 10.48
4/16/2021 4:45:00 AM 9.89 49.802 0.156 7.32 2.72 10.51
4/16/2021 5:00:00 AM 9.81 49.658 0.156 7.32 2.27 10.54
4/16/2021 5:15:00 AM 9.72 49.496 0.156 7.32 4.34 10.56
4/16/2021 5:30:00 AM 9.65 49.37 0.156 7.32 3.02 10.58
4/16/2021 5:45:00 AM 9.57 49.226 0.156 7.32 3.17 10.6
4/16/2021 6:00:00 AM 9.49 49.082 0.156 7.32 2.64 10.61
4/16/2021 6:15:00 AM 9.41 48.938 0.156 7.31 2.36 10.65
4/16/2021 6:30:00 AM 9.34 48.812 0.156 7.32 3.09 10.66
4/16/2021 6:45:00 AM 9.26 48.668 0.156 7.31 5.01 10.69
4/16/2021 7:00:00 AM 9.19 48.542 0.156 7.31 2.67 10.75
4/16/2021 7:15:00 AM 9.1 48.38 0.156 7.31 2.52 10.8
4/16/2021 7:30:00 AM 9.04 48.272 0.156 7.31 3.53 10.86
4/16/2021 7:45:00 AM 8.97 48.146 0.156 7.32 2.25 10.93
4/16/2021 8:00:00 AM 8.91 48.038 0.156 7.32 3.6 11
4/16/2021 8:15:00 AM 8.86 47.948 0.156 7.32 2.74 11.08
4/16/2021 8:30:00 AM 8.83 47.894 0.156 7.32 3.29 11.12
4/16/2021 8:45:00 AM 8.82 47.876 0.156 7.33 3.18 11.22
4/16/2021 9:00:00 AM 8.82 47.876 0.156 7.35 2.15 11.3
4/16/2021 9:15:00 AM 8.85 47.93 0.156 7.36 2.8 11.41
4/16/2021 9:30:00 AM 8.89 48.002 0.156 7.37 1.81